<?xml version="1.0" encoding="UTF-8" standalone="no" ?>
<gpx xmlns="http://www.topografix.com/GPX/1/1" xmlns:xsi="http://www.w3.org/2001/XMLSchema-instance" xsi:schemaLocation="http://www.topografix.com/GPX/1/1 http://www.topografix.com/GPX/1/1/gpx.xsd" version="1.1" creator="VisuGPX - https://www.visugpx.com">
  <metadata>
    <name>Malvalette 25km</name>
    <desc><![CDATA[25 Mars 2023 - départ d'un lieu privé. ]]></desc>
  </metadata>
  <trk>
    <name><![CDATA[2023-03-25 17:19:30]]></name>
    <extensions>
      <line xmlns="http://www.topografix.com/GPX/gpx_style/0/2">
        <color>0000FF</color>
        <width>4</width>
      </line>
    </extensions>
    <trkseg>
      <trkpt lat="45.36482" lon="4.136">
        <ele>728.82</ele>
        <time>2023-03-25T09:10:46Z</time>
      </trkpt>
      <trkpt lat="45.36485" lon="4.136">
        <ele>729.3</ele>
        <time>2023-03-25T09:11:05Z</time>
      </trkpt>
      <trkpt lat="45.36483" lon="4.13604">
        <ele>728.82</ele>
        <time>2023-03-25T09:11:33Z</time>
      </trkpt>
      <trkpt lat="45.36475" lon="4.13603">
        <ele>727.37</ele>
        <time>2023-03-25T09:12:02Z</time>
      </trkpt>
      <trkpt lat="45.36479" lon="4.13599">
        <ele>728.82</ele>
        <time>2023-03-25T09:12:29Z</time>
      </trkpt>
      <trkpt lat="45.36489" lon="4.13598">
        <ele>736.99</ele>
        <time>2023-03-25T09:13:00Z</time>
      </trkpt>
      <trkpt lat="45.3649" lon="4.136">
        <ele>736.03</ele>
        <time>2023-03-25T09:13:30Z</time>
      </trkpt>
      <trkpt lat="45.36487" lon="4.13603">
        <ele>735.07</ele>
        <time>2023-03-25T09:13:34Z</time>
      </trkpt>
      <trkpt lat="45.36469" lon="4.13583">
        <ele>735.07</ele>
        <time>2023-03-25T09:13:52Z</time>
      </trkpt>
      <trkpt lat="45.36446" lon="4.13554">
        <ele>735.07</ele>
        <time>2023-03-25T09:14:10Z</time>
      </trkpt>
      <trkpt lat="45.36423" lon="4.1351">
        <ele>735.55</ele>
        <time>2023-03-25T09:14:31Z</time>
      </trkpt>
      <trkpt lat="45.36404" lon="4.13466">
        <ele>735.55</ele>
        <time>2023-03-25T09:14:53Z</time>
      </trkpt>
      <trkpt lat="45.36394" lon="4.13425">
        <ele>733.62</ele>
        <time>2023-03-25T09:15:13Z</time>
      </trkpt>
      <trkpt lat="45.36403" lon="4.13375">
        <ele>734.58</ele>
        <time>2023-03-25T09:15:37Z</time>
      </trkpt>
      <trkpt lat="45.36403" lon="4.13331">
        <ele>732.66</ele>
        <time>2023-03-25T09:15:56Z</time>
      </trkpt>
      <trkpt lat="45.36399" lon="4.13278">
        <ele>731.22</ele>
        <time>2023-03-25T09:16:20Z</time>
      </trkpt>
      <trkpt lat="45.36396" lon="4.1323">
        <ele>732.66</ele>
        <time>2023-03-25T09:16:40Z</time>
      </trkpt>
      <trkpt lat="45.36394" lon="4.13186">
        <ele>735.07</ele>
        <time>2023-03-25T09:16:59Z</time>
      </trkpt>
      <trkpt lat="45.36391" lon="4.13136">
        <ele>737.95</ele>
        <time>2023-03-25T09:17:21Z</time>
      </trkpt>
      <trkpt lat="45.36389" lon="4.13094">
        <ele>736.51</ele>
        <time>2023-03-25T09:17:40Z</time>
      </trkpt>
      <trkpt lat="45.36383" lon="4.13045">
        <ele>735.55</ele>
        <time>2023-03-25T09:18:03Z</time>
      </trkpt>
      <trkpt lat="45.36373" lon="4.13009">
        <ele>736.99</ele>
        <time>2023-03-25T09:18:20Z</time>
      </trkpt>
      <trkpt lat="45.36358" lon="4.12972">
        <ele>736.99</ele>
        <time>2023-03-25T09:18:38Z</time>
      </trkpt>
      <trkpt lat="45.36342" lon="4.1294">
        <ele>736.99</ele>
        <time>2023-03-25T09:18:55Z</time>
      </trkpt>
      <trkpt lat="45.3633" lon="4.12908">
        <ele>739.39</ele>
        <time>2023-03-25T09:19:12Z</time>
      </trkpt>
      <trkpt lat="45.36318" lon="4.1288">
        <ele>741.79</ele>
        <time>2023-03-25T09:19:27Z</time>
      </trkpt>
      <trkpt lat="45.36312" lon="4.1285">
        <ele>745.16</ele>
        <time>2023-03-25T09:19:43Z</time>
      </trkpt>
      <trkpt lat="45.36306" lon="4.12818">
        <ele>751.89</ele>
        <time>2023-03-25T09:19:59Z</time>
      </trkpt>
      <trkpt lat="45.36295" lon="4.12784">
        <ele>756.21</ele>
        <time>2023-03-25T09:20:18Z</time>
      </trkpt>
      <trkpt lat="45.36289" lon="4.12751">
        <ele>759.1</ele>
        <time>2023-03-25T09:20:35Z</time>
      </trkpt>
      <trkpt lat="45.36292" lon="4.12714">
        <ele>763.42</ele>
        <time>2023-03-25T09:20:52Z</time>
      </trkpt>
      <trkpt lat="45.36289" lon="4.12681">
        <ele>766.31</ele>
        <time>2023-03-25T09:21:08Z</time>
      </trkpt>
      <trkpt lat="45.36284" lon="4.12648">
        <ele>768.23</ele>
        <time>2023-03-25T09:21:25Z</time>
      </trkpt>
      <trkpt lat="45.36283" lon="4.12617">
        <ele>773.52</ele>
        <time>2023-03-25T09:21:41Z</time>
      </trkpt>
      <trkpt lat="45.36292" lon="4.12584">
        <ele>779.29</ele>
        <time>2023-03-25T09:21:57Z</time>
      </trkpt>
      <trkpt lat="45.36305" lon="4.1255">
        <ele>781.69</ele>
        <time>2023-03-25T09:22:17Z</time>
      </trkpt>
      <trkpt lat="45.36317" lon="4.12508">
        <ele>781.21</ele>
        <time>2023-03-25T09:22:37Z</time>
      </trkpt>
      <trkpt lat="45.3633" lon="4.12467">
        <ele>781.21</ele>
        <time>2023-03-25T09:22:56Z</time>
      </trkpt>
      <trkpt lat="45.36343" lon="4.12426">
        <ele>780.73</ele>
        <time>2023-03-25T09:23:18Z</time>
      </trkpt>
      <trkpt lat="45.3636" lon="4.12371">
        <ele>780.73</ele>
        <time>2023-03-25T09:23:44Z</time>
      </trkpt>
      <trkpt lat="45.36372" lon="4.12333">
        <ele>780.25</ele>
        <time>2023-03-25T09:24:05Z</time>
      </trkpt>
      <trkpt lat="45.36386" lon="4.12278">
        <ele>777.84</ele>
        <time>2023-03-25T09:24:29Z</time>
      </trkpt>
      <trkpt lat="45.36401" lon="4.12223">
        <ele>779.77</ele>
        <time>2023-03-25T09:24:55Z</time>
      </trkpt>
      <trkpt lat="45.36415" lon="4.12176">
        <ele>783.13</ele>
        <time>2023-03-25T09:25:20Z</time>
      </trkpt>
      <trkpt lat="45.36418" lon="4.12145">
        <ele>783.13</ele>
        <time>2023-03-25T09:25:36Z</time>
      </trkpt>
      <trkpt lat="45.36418" lon="4.12138">
        <ele>783.13</ele>
        <time>2023-03-25T09:25:40Z</time>
      </trkpt>
      <trkpt lat="45.36418" lon="4.12136">
        <ele>783.13</ele>
        <time>2023-03-25T09:25:41Z</time>
      </trkpt>
      <trkpt lat="45.36418" lon="4.12134">
        <ele>783.13</ele>
        <time>2023-03-25T09:25:42Z</time>
      </trkpt>
      <trkpt lat="45.36418" lon="4.12133">
        <ele>783.13</ele>
        <time>2023-03-25T09:25:43Z</time>
      </trkpt>
      <trkpt lat="45.36417" lon="4.12132">
        <ele>783.13</ele>
        <time>2023-03-25T09:25:44Z</time>
      </trkpt>
      <trkpt lat="45.36406" lon="4.12127">
        <ele>784.09</ele>
        <time>2023-03-25T09:25:59Z</time>
      </trkpt>
      <trkpt lat="45.36388" lon="4.12132">
        <ele>784.09</ele>
        <time>2023-03-25T09:26:14Z</time>
      </trkpt>
      <trkpt lat="45.3637" lon="4.12144">
        <ele>782.17</ele>
        <time>2023-03-25T09:26:32Z</time>
      </trkpt>
      <trkpt lat="45.36345" lon="4.12153">
        <ele>776.88</ele>
        <time>2023-03-25T09:26:48Z</time>
      </trkpt>
      <trkpt lat="45.3632" lon="4.12157">
        <ele>773.52</ele>
        <time>2023-03-25T09:27:05Z</time>
      </trkpt>
      <trkpt lat="45.36319" lon="4.12158">
        <ele>773.52</ele>
        <time>2023-03-25T09:27:06Z</time>
      </trkpt>
      <trkpt lat="45.36318" lon="4.12159">
        <ele>773.52</ele>
        <time>2023-03-25T09:27:07Z</time>
      </trkpt>
      <trkpt lat="45.36316" lon="4.1216">
        <ele>773.52</ele>
        <time>2023-03-25T09:27:08Z</time>
      </trkpt>
      <trkpt lat="45.36315" lon="4.12161">
        <ele>773.52</ele>
        <time>2023-03-25T09:27:09Z</time>
      </trkpt>
      <trkpt lat="45.36313" lon="4.12162">
        <ele>773.04</ele>
        <time>2023-03-25T09:27:10Z</time>
      </trkpt>
      <trkpt lat="45.36312" lon="4.12163">
        <ele>773.04</ele>
        <time>2023-03-25T09:27:11Z</time>
      </trkpt>
      <trkpt lat="45.36285" lon="4.12178">
        <ele>767.27</ele>
        <time>2023-03-25T09:27:28Z</time>
      </trkpt>
      <trkpt lat="45.36259" lon="4.12193">
        <ele>759.58</ele>
        <time>2023-03-25T09:27:45Z</time>
      </trkpt>
      <trkpt lat="45.36245" lon="4.1221">
        <ele>758.62</ele>
        <time>2023-03-25T09:27:57Z</time>
      </trkpt>
      <trkpt lat="45.36218" lon="4.12227">
        <ele>760.06</ele>
        <time>2023-03-25T09:28:16Z</time>
      </trkpt>
      <trkpt lat="45.36196" lon="4.12233">
        <ele>764.39</ele>
        <time>2023-03-25T09:28:31Z</time>
      </trkpt>
      <trkpt lat="45.36172" lon="4.12232">
        <ele>771.11</ele>
        <time>2023-03-25T09:28:48Z</time>
      </trkpt>
      <trkpt lat="45.36146" lon="4.12228">
        <ele>777.84</ele>
        <time>2023-03-25T09:29:08Z</time>
      </trkpt>
      <trkpt lat="45.36119" lon="4.12223">
        <ele>786.02</ele>
        <time>2023-03-25T09:29:27Z</time>
      </trkpt>
      <trkpt lat="45.36094" lon="4.12239">
        <ele>789.86</ele>
        <time>2023-03-25T09:29:46Z</time>
      </trkpt>
      <trkpt lat="45.36079" lon="4.12265">
        <ele>788.9</ele>
        <time>2023-03-25T09:30:03Z</time>
      </trkpt>
      <trkpt lat="45.36059" lon="4.12287">
        <ele>789.38</ele>
        <time>2023-03-25T09:30:20Z</time>
      </trkpt>
      <trkpt lat="45.36032" lon="4.12309">
        <ele>790.34</ele>
        <time>2023-03-25T09:30:40Z</time>
      </trkpt>
      <trkpt lat="45.36008" lon="4.12325">
        <ele>795.15</ele>
        <time>2023-03-25T09:30:59Z</time>
      </trkpt>
      <trkpt lat="45.35985" lon="4.12341">
        <ele>797.55</ele>
        <time>2023-03-25T09:31:16Z</time>
      </trkpt>
      <trkpt lat="45.35961" lon="4.12359">
        <ele>796.59</ele>
        <time>2023-03-25T09:31:34Z</time>
      </trkpt>
      <trkpt lat="45.35935" lon="4.12376">
        <ele>797.07</ele>
        <time>2023-03-25T09:31:53Z</time>
      </trkpt>
      <trkpt lat="45.35926" lon="4.12356">
        <ele>798.03</ele>
        <time>2023-03-25T09:32:08Z</time>
      </trkpt>
      <trkpt lat="45.3594" lon="4.12314">
        <ele>799.47</ele>
        <time>2023-03-25T09:32:29Z</time>
      </trkpt>
      <trkpt lat="45.35939" lon="4.12312">
        <ele>799.47</ele>
        <time>2023-03-25T09:32:30Z</time>
      </trkpt>
      <trkpt lat="45.35938" lon="4.12311">
        <ele>799.47</ele>
        <time>2023-03-25T09:32:31Z</time>
      </trkpt>
      <trkpt lat="45.35936" lon="4.1231">
        <ele>799.47</ele>
        <time>2023-03-25T09:32:32Z</time>
      </trkpt>
      <trkpt lat="45.35935" lon="4.12309">
        <ele>799.47</ele>
        <time>2023-03-25T09:32:33Z</time>
      </trkpt>
      <trkpt lat="45.35933" lon="4.12309">
        <ele>799.95</ele>
        <time>2023-03-25T09:32:34Z</time>
      </trkpt>
      <trkpt lat="45.35932" lon="4.12309">
        <ele>799.47</ele>
        <time>2023-03-25T09:32:35Z</time>
      </trkpt>
      <trkpt lat="45.3593" lon="4.12309">
        <ele>799.95</ele>
        <time>2023-03-25T09:32:36Z</time>
      </trkpt>
      <trkpt lat="45.359" lon="4.12318">
        <ele>801.88</ele>
        <time>2023-03-25T09:32:56Z</time>
      </trkpt>
      <trkpt lat="45.35876" lon="4.12341">
        <ele>799.47</ele>
        <time>2023-03-25T09:33:15Z</time>
      </trkpt>
      <trkpt lat="45.35847" lon="4.12359">
        <ele>798.51</ele>
        <time>2023-03-25T09:33:36Z</time>
      </trkpt>
      <trkpt lat="45.35818" lon="4.12375">
        <ele>799.47</ele>
        <time>2023-03-25T09:33:55Z</time>
      </trkpt>
      <trkpt lat="45.35789" lon="4.12391">
        <ele>798.99</ele>
        <time>2023-03-25T09:34:16Z</time>
      </trkpt>
      <trkpt lat="45.3576" lon="4.12405">
        <ele>798.51</ele>
        <time>2023-03-25T09:34:36Z</time>
      </trkpt>
      <trkpt lat="45.35729" lon="4.12406">
        <ele>798.51</ele>
        <time>2023-03-25T09:34:57Z</time>
      </trkpt>
      <trkpt lat="45.35698" lon="4.12406">
        <ele>796.59</ele>
        <time>2023-03-25T09:35:17Z</time>
      </trkpt>
      <trkpt lat="45.35663" lon="4.1241">
        <ele>794.19</ele>
        <time>2023-03-25T09:35:39Z</time>
      </trkpt>
      <trkpt lat="45.35636" lon="4.12414">
        <ele>794.67</ele>
        <time>2023-03-25T09:35:57Z</time>
      </trkpt>
      <trkpt lat="45.35606" lon="4.12418">
        <ele>793.22</ele>
        <time>2023-03-25T09:36:16Z</time>
      </trkpt>
      <trkpt lat="45.35578" lon="4.12419">
        <ele>788.9</ele>
        <time>2023-03-25T09:36:35Z</time>
      </trkpt>
      <trkpt lat="45.35558" lon="4.12421">
        <ele>785.05</ele>
        <time>2023-03-25T09:36:51Z</time>
      </trkpt>
      <trkpt lat="45.35545" lon="4.12425">
        <ele>782.65</ele>
        <time>2023-03-25T09:37:05Z</time>
      </trkpt>
      <trkpt lat="45.35543" lon="4.12426">
        <ele>782.65</ele>
        <time>2023-03-25T09:37:06Z</time>
      </trkpt>
      <trkpt lat="45.35542" lon="4.12427">
        <ele>782.65</ele>
        <time>2023-03-25T09:37:07Z</time>
      </trkpt>
      <trkpt lat="45.3554" lon="4.12427">
        <ele>782.17</ele>
        <time>2023-03-25T09:37:08Z</time>
      </trkpt>
      <trkpt lat="45.35538" lon="4.12428">
        <ele>782.17</ele>
        <time>2023-03-25T09:37:09Z</time>
      </trkpt>
      <trkpt lat="45.35537" lon="4.1243">
        <ele>781.69</ele>
        <time>2023-03-25T09:37:10Z</time>
      </trkpt>
      <trkpt lat="45.35535" lon="4.12431">
        <ele>781.69</ele>
        <time>2023-03-25T09:37:11Z</time>
      </trkpt>
      <trkpt lat="45.35533" lon="4.12432">
        <ele>781.21</ele>
        <time>2023-03-25T09:37:12Z</time>
      </trkpt>
      <trkpt lat="45.35515" lon="4.1245">
        <ele>776.88</ele>
        <time>2023-03-25T09:37:27Z</time>
      </trkpt>
      <trkpt lat="45.35501" lon="4.12463">
        <ele>774.48</ele>
        <time>2023-03-25T09:37:38Z</time>
      </trkpt>
      <trkpt lat="45.3549" lon="4.12486">
        <ele>771.11</ele>
        <time>2023-03-25T09:37:53Z</time>
      </trkpt>
      <trkpt lat="45.35488" lon="4.12492">
        <ele>769.67</ele>
        <time>2023-03-25T09:37:58Z</time>
      </trkpt>
      <trkpt lat="45.35487" lon="4.12494">
        <ele>769.19</ele>
        <time>2023-03-25T09:37:59Z</time>
      </trkpt>
      <trkpt lat="45.35486" lon="4.12496">
        <ele>768.71</ele>
        <time>2023-03-25T09:38:00Z</time>
      </trkpt>
      <trkpt lat="45.35485" lon="4.12497">
        <ele>768.71</ele>
        <time>2023-03-25T09:38:01Z</time>
      </trkpt>
      <trkpt lat="45.35484" lon="4.12499">
        <ele>768.23</ele>
        <time>2023-03-25T09:38:02Z</time>
      </trkpt>
      <trkpt lat="45.35483" lon="4.125">
        <ele>767.75</ele>
        <time>2023-03-25T09:38:03Z</time>
      </trkpt>
      <trkpt lat="45.35482" lon="4.12502">
        <ele>767.75</ele>
        <time>2023-03-25T09:38:04Z</time>
      </trkpt>
      <trkpt lat="45.35482" lon="4.12503">
        <ele>767.27</ele>
        <time>2023-03-25T09:38:05Z</time>
      </trkpt>
      <trkpt lat="45.35481" lon="4.12505">
        <ele>767.27</ele>
        <time>2023-03-25T09:38:06Z</time>
      </trkpt>
      <trkpt lat="45.3548" lon="4.12507">
        <ele>766.79</ele>
        <time>2023-03-25T09:38:07Z</time>
      </trkpt>
      <trkpt lat="45.35479" lon="4.12509">
        <ele>766.79</ele>
        <time>2023-03-25T09:38:08Z</time>
      </trkpt>
      <trkpt lat="45.35478" lon="4.12511">
        <ele>766.31</ele>
        <time>2023-03-25T09:38:09Z</time>
      </trkpt>
      <trkpt lat="45.35477" lon="4.12513">
        <ele>766.31</ele>
        <time>2023-03-25T09:38:10Z</time>
      </trkpt>
      <trkpt lat="45.35476" lon="4.12515">
        <ele>765.83</ele>
        <time>2023-03-25T09:38:11Z</time>
      </trkpt>
      <trkpt lat="45.35475" lon="4.12517">
        <ele>765.83</ele>
        <time>2023-03-25T09:38:12Z</time>
      </trkpt>
      <trkpt lat="45.35475" lon="4.12519">
        <ele>765.35</ele>
        <time>2023-03-25T09:38:13Z</time>
      </trkpt>
      <trkpt lat="45.3547" lon="4.12536">
        <ele>761.98</ele>
        <time>2023-03-25T09:38:23Z</time>
      </trkpt>
      <trkpt lat="45.35469" lon="4.12538">
        <ele>761.5</ele>
        <time>2023-03-25T09:38:24Z</time>
      </trkpt>
      <trkpt lat="45.35468" lon="4.1254">
        <ele>761.02</ele>
        <time>2023-03-25T09:38:25Z</time>
      </trkpt>
      <trkpt lat="45.35466" lon="4.12545">
        <ele>759.1</ele>
        <time>2023-03-25T09:38:29Z</time>
      </trkpt>
      <trkpt lat="45.35466" lon="4.12547">
        <ele>758.62</ele>
        <time>2023-03-25T09:38:30Z</time>
      </trkpt>
      <trkpt lat="45.35465" lon="4.12549">
        <ele>758.14</ele>
        <time>2023-03-25T09:38:31Z</time>
      </trkpt>
      <trkpt lat="45.35465" lon="4.12551">
        <ele>758.14</ele>
        <time>2023-03-25T09:38:32Z</time>
      </trkpt>
      <trkpt lat="45.35465" lon="4.12553">
        <ele>757.66</ele>
        <time>2023-03-25T09:38:33Z</time>
      </trkpt>
      <trkpt lat="45.3546" lon="4.12564">
        <ele>756.21</ele>
        <time>2023-03-25T09:38:48Z</time>
      </trkpt>
      <trkpt lat="45.35451" lon="4.1257">
        <ele>756.69</ele>
        <time>2023-03-25T09:38:56Z</time>
      </trkpt>
      <trkpt lat="45.3545" lon="4.12571">
        <ele>756.69</ele>
        <time>2023-03-25T09:38:57Z</time>
      </trkpt>
      <trkpt lat="45.35449" lon="4.12573">
        <ele>756.69</ele>
        <time>2023-03-25T09:38:58Z</time>
      </trkpt>
      <trkpt lat="45.35436" lon="4.12586">
        <ele>755.73</ele>
        <time>2023-03-25T09:39:09Z</time>
      </trkpt>
      <trkpt lat="45.35431" lon="4.12591">
        <ele>755.73</ele>
        <time>2023-03-25T09:39:15Z</time>
      </trkpt>
      <trkpt lat="45.35419" lon="4.12619">
        <ele>751.41</ele>
        <time>2023-03-25T09:39:32Z</time>
      </trkpt>
      <trkpt lat="45.3542" lon="4.12625">
        <ele>749.49</ele>
        <time>2023-03-25T09:39:42Z</time>
      </trkpt>
      <trkpt lat="45.35421" lon="4.12626">
        <ele>749.49</ele>
        <time>2023-03-25T09:39:43Z</time>
      </trkpt>
      <trkpt lat="45.35422" lon="4.12627">
        <ele>749</ele>
        <time>2023-03-25T09:39:44Z</time>
      </trkpt>
      <trkpt lat="45.35445" lon="4.12646">
        <ele>750.45</ele>
        <time>2023-03-25T09:40:02Z</time>
      </trkpt>
      <trkpt lat="45.35475" lon="4.12669">
        <ele>753.81</ele>
        <time>2023-03-25T09:40:24Z</time>
      </trkpt>
      <trkpt lat="45.35501" lon="4.12684">
        <ele>756.69</ele>
        <time>2023-03-25T09:40:43Z</time>
      </trkpt>
      <trkpt lat="45.35523" lon="4.12696">
        <ele>755.25</ele>
        <time>2023-03-25T09:41:00Z</time>
      </trkpt>
      <trkpt lat="45.35547" lon="4.12718">
        <ele>750.45</ele>
        <time>2023-03-25T09:41:19Z</time>
      </trkpt>
      <trkpt lat="45.35567" lon="4.12744">
        <ele>749.49</ele>
        <time>2023-03-25T09:41:36Z</time>
      </trkpt>
      <trkpt lat="45.35585" lon="4.12775">
        <ele>748.04</ele>
        <time>2023-03-25T09:41:54Z</time>
      </trkpt>
      <trkpt lat="45.35606" lon="4.12819">
        <ele>748.04</ele>
        <time>2023-03-25T09:42:18Z</time>
      </trkpt>
      <trkpt lat="45.35627" lon="4.12851">
        <ele>748.52</ele>
        <time>2023-03-25T09:42:37Z</time>
      </trkpt>
      <trkpt lat="45.35647" lon="4.1288">
        <ele>747.56</ele>
        <time>2023-03-25T09:42:56Z</time>
      </trkpt>
      <trkpt lat="45.35664" lon="4.12909">
        <ele>746.12</ele>
        <time>2023-03-25T09:43:13Z</time>
      </trkpt>
      <trkpt lat="45.35689" lon="4.1293">
        <ele>743.24</ele>
        <time>2023-03-25T09:43:32Z</time>
      </trkpt>
      <trkpt lat="45.35718" lon="4.1294">
        <ele>741.31</ele>
        <time>2023-03-25T09:43:51Z</time>
      </trkpt>
      <trkpt lat="45.35723" lon="4.12941">
        <ele>740.83</ele>
        <time>2023-03-25T09:43:55Z</time>
      </trkpt>
      <trkpt lat="45.35724" lon="4.12942">
        <ele>740.35</ele>
        <time>2023-03-25T09:43:56Z</time>
      </trkpt>
      <trkpt lat="45.35725" lon="4.12944">
        <ele>739.87</ele>
        <time>2023-03-25T09:43:57Z</time>
      </trkpt>
      <trkpt lat="45.35725" lon="4.12946">
        <ele>739.87</ele>
        <time>2023-03-25T09:43:58Z</time>
      </trkpt>
      <trkpt lat="45.35724" lon="4.12948">
        <ele>739.39</ele>
        <time>2023-03-25T09:43:59Z</time>
      </trkpt>
      <trkpt lat="45.35723" lon="4.1295">
        <ele>738.91</ele>
        <time>2023-03-25T09:44:00Z</time>
      </trkpt>
      <trkpt lat="45.35721" lon="4.12952">
        <ele>738.91</ele>
        <time>2023-03-25T09:44:01Z</time>
      </trkpt>
      <trkpt lat="45.35719" lon="4.12953">
        <ele>738.43</ele>
        <time>2023-03-25T09:44:02Z</time>
      </trkpt>
      <trkpt lat="45.35718" lon="4.12954">
        <ele>738.43</ele>
        <time>2023-03-25T09:44:03Z</time>
      </trkpt>
      <trkpt lat="45.35716" lon="4.12954">
        <ele>737.95</ele>
        <time>2023-03-25T09:44:04Z</time>
      </trkpt>
      <trkpt lat="45.35715" lon="4.12954">
        <ele>737.47</ele>
        <time>2023-03-25T09:44:05Z</time>
      </trkpt>
      <trkpt lat="45.35689" lon="4.12965">
        <ele>733.62</ele>
        <time>2023-03-25T09:44:21Z</time>
      </trkpt>
      <trkpt lat="45.35664" lon="4.1298">
        <ele>735.55</ele>
        <time>2023-03-25T09:44:40Z</time>
      </trkpt>
      <trkpt lat="45.35646" lon="4.13012">
        <ele>732.18</ele>
        <time>2023-03-25T09:45:00Z</time>
      </trkpt>
      <trkpt lat="45.35639" lon="4.13055">
        <ele>727.37</ele>
        <time>2023-03-25T09:45:21Z</time>
      </trkpt>
      <trkpt lat="45.35632" lon="4.13101">
        <ele>725.45</ele>
        <time>2023-03-25T09:45:40Z</time>
      </trkpt>
      <trkpt lat="45.35626" lon="4.13147">
        <ele>726.41</ele>
        <time>2023-03-25T09:46:01Z</time>
      </trkpt>
      <trkpt lat="45.35626" lon="4.13204">
        <ele>727.86</ele>
        <time>2023-03-25T09:46:24Z</time>
      </trkpt>
      <trkpt lat="45.3562" lon="4.13253">
        <ele>726.41</ele>
        <time>2023-03-25T09:46:46Z</time>
      </trkpt>
      <trkpt lat="45.3562" lon="4.13312">
        <ele>722.09</ele>
        <time>2023-03-25T09:47:12Z</time>
      </trkpt>
      <trkpt lat="45.35627" lon="4.13362">
        <ele>721.13</ele>
        <time>2023-03-25T09:47:34Z</time>
      </trkpt>
      <trkpt lat="45.35612" lon="4.13407">
        <ele>719.2</ele>
        <time>2023-03-25T09:47:55Z</time>
      </trkpt>
      <trkpt lat="45.35592" lon="4.13435">
        <ele>717.76</ele>
        <time>2023-03-25T09:48:10Z</time>
      </trkpt>
      <trkpt lat="45.3557" lon="4.13469">
        <ele>720.65</ele>
        <time>2023-03-25T09:48:30Z</time>
      </trkpt>
      <trkpt lat="45.35556" lon="4.13508">
        <ele>722.09</ele>
        <time>2023-03-25T09:48:50Z</time>
      </trkpt>
      <trkpt lat="45.35532" lon="4.13544">
        <ele>720.16</ele>
        <time>2023-03-25T09:49:10Z</time>
      </trkpt>
      <trkpt lat="45.3551" lon="4.13571">
        <ele>717.28</ele>
        <time>2023-03-25T09:49:27Z</time>
      </trkpt>
      <trkpt lat="45.35486" lon="4.136">
        <ele>713.92</ele>
        <time>2023-03-25T09:49:46Z</time>
      </trkpt>
      <trkpt lat="45.35465" lon="4.13617">
        <ele>717.76</ele>
        <time>2023-03-25T09:50:05Z</time>
      </trkpt>
      <trkpt lat="45.35432" lon="4.13629">
        <ele>718.72</ele>
        <time>2023-03-25T09:50:26Z</time>
      </trkpt>
      <trkpt lat="45.354" lon="4.13638">
        <ele>718.24</ele>
        <time>2023-03-25T09:50:46Z</time>
      </trkpt>
      <trkpt lat="45.35378" lon="4.13655">
        <ele>715.84</ele>
        <time>2023-03-25T09:51:03Z</time>
      </trkpt>
      <trkpt lat="45.35354" lon="4.13672">
        <ele>713.44</ele>
        <time>2023-03-25T09:51:19Z</time>
      </trkpt>
      <trkpt lat="45.35325" lon="4.1368">
        <ele>713.44</ele>
        <time>2023-03-25T09:51:37Z</time>
      </trkpt>
      <trkpt lat="45.35295" lon="4.13685">
        <ele>712.95</ele>
        <time>2023-03-25T09:51:56Z</time>
      </trkpt>
      <trkpt lat="45.35268" lon="4.13689">
        <ele>712.47</ele>
        <time>2023-03-25T09:52:14Z</time>
      </trkpt>
      <trkpt lat="45.35233" lon="4.1368">
        <ele>710.55</ele>
        <time>2023-03-25T09:52:34Z</time>
      </trkpt>
      <trkpt lat="45.35203" lon="4.13665">
        <ele>711.03</ele>
        <time>2023-03-25T09:52:54Z</time>
      </trkpt>
      <trkpt lat="45.35177" lon="4.13665">
        <ele>711.99</ele>
        <time>2023-03-25T09:53:12Z</time>
      </trkpt>
      <trkpt lat="45.35139" lon="4.13667">
        <ele>709.59</ele>
        <time>2023-03-25T09:53:36Z</time>
      </trkpt>
      <trkpt lat="45.35117" lon="4.13667">
        <ele>708.15</ele>
        <time>2023-03-25T09:53:53Z</time>
      </trkpt>
      <trkpt lat="45.35088" lon="4.13678">
        <ele>705.75</ele>
        <time>2023-03-25T09:54:14Z</time>
      </trkpt>
      <trkpt lat="45.35069" lon="4.13678">
        <ele>702.38</ele>
        <time>2023-03-25T09:54:28Z</time>
      </trkpt>
      <trkpt lat="45.35046" lon="4.13669">
        <ele>700.94</ele>
        <time>2023-03-25T09:54:44Z</time>
      </trkpt>
      <trkpt lat="45.35021" lon="4.1366">
        <ele>700.46</ele>
        <time>2023-03-25T09:54:59Z</time>
      </trkpt>
      <trkpt lat="45.34987" lon="4.13651">
        <ele>695.65</ele>
        <time>2023-03-25T09:55:22Z</time>
      </trkpt>
      <trkpt lat="45.3496" lon="4.13637">
        <ele>690.84</ele>
        <time>2023-03-25T09:55:42Z</time>
      </trkpt>
      <trkpt lat="45.34938" lon="4.13623">
        <ele>685.08</ele>
        <time>2023-03-25T09:55:59Z</time>
      </trkpt>
      <trkpt lat="45.34924" lon="4.13612">
        <ele>681.23</ele>
        <time>2023-03-25T09:56:14Z</time>
      </trkpt>
      <trkpt lat="45.34905" lon="4.13596">
        <ele>677.87</ele>
        <time>2023-03-25T09:56:31Z</time>
      </trkpt>
      <trkpt lat="45.34883" lon="4.13581">
        <ele>675.94</ele>
        <time>2023-03-25T09:56:48Z</time>
      </trkpt>
      <trkpt lat="45.34863" lon="4.13577">
        <ele>670.66</ele>
        <time>2023-03-25T09:57:06Z</time>
      </trkpt>
      <trkpt lat="45.34841" lon="4.13581">
        <ele>664.89</ele>
        <time>2023-03-25T09:57:22Z</time>
      </trkpt>
      <trkpt lat="45.34826" lon="4.13597">
        <ele>659.12</ele>
        <time>2023-03-25T09:57:37Z</time>
      </trkpt>
      <trkpt lat="45.34825" lon="4.13599">
        <ele>658.64</ele>
        <time>2023-03-25T09:57:38Z</time>
      </trkpt>
      <trkpt lat="45.34829" lon="4.13632">
        <ele>654.8</ele>
        <time>2023-03-25T09:57:55Z</time>
      </trkpt>
      <trkpt lat="45.34841" lon="4.13664">
        <ele>651.43</ele>
        <time>2023-03-25T09:58:11Z</time>
      </trkpt>
      <trkpt lat="45.3485" lon="4.1369">
        <ele>647.59</ele>
        <time>2023-03-25T09:58:25Z</time>
      </trkpt>
      <trkpt lat="45.34868" lon="4.13722">
        <ele>648.55</ele>
        <time>2023-03-25T09:58:43Z</time>
      </trkpt>
      <trkpt lat="45.34882" lon="4.13741">
        <ele>650.47</ele>
        <time>2023-03-25T09:58:59Z</time>
      </trkpt>
      <trkpt lat="45.34897" lon="4.13763">
        <ele>649.03</ele>
        <time>2023-03-25T09:59:15Z</time>
      </trkpt>
      <trkpt lat="45.34921" lon="4.13793">
        <ele>649.03</ele>
        <time>2023-03-25T09:59:35Z</time>
      </trkpt>
      <trkpt lat="45.3494" lon="4.13809">
        <ele>647.59</ele>
        <time>2023-03-25T09:59:49Z</time>
      </trkpt>
      <trkpt lat="45.34959" lon="4.13829">
        <ele>644.22</ele>
        <time>2023-03-25T10:00:05Z</time>
      </trkpt>
      <trkpt lat="45.34977" lon="4.13844">
        <ele>641.82</ele>
        <time>2023-03-25T10:00:20Z</time>
      </trkpt>
      <trkpt lat="45.34998" lon="4.13852">
        <ele>644.22</ele>
        <time>2023-03-25T10:00:36Z</time>
      </trkpt>
      <trkpt lat="45.35002" lon="4.13854">
        <ele>646.14</ele>
        <time>2023-03-25T10:00:38Z</time>
      </trkpt>
      <trkpt lat="45.35007" lon="4.13858">
        <ele>648.07</ele>
        <time>2023-03-25T10:00:43Z</time>
      </trkpt>
      <trkpt lat="45.35008" lon="4.13861">
        <ele>648.07</ele>
        <time>2023-03-25T10:00:44Z</time>
      </trkpt>
      <trkpt lat="45.35008" lon="4.13863">
        <ele>648.07</ele>
        <time>2023-03-25T10:00:45Z</time>
      </trkpt>
      <trkpt lat="45.35011" lon="4.13905">
        <ele>648.55</ele>
        <time>2023-03-25T10:01:02Z</time>
      </trkpt>
      <trkpt lat="45.35012" lon="4.13953">
        <ele>652.87</ele>
        <time>2023-03-25T10:01:20Z</time>
      </trkpt>
      <trkpt lat="45.35013" lon="4.14003">
        <ele>654.31</ele>
        <time>2023-03-25T10:01:41Z</time>
      </trkpt>
      <trkpt lat="45.35013" lon="4.14051">
        <ele>654.8</ele>
        <time>2023-03-25T10:02:02Z</time>
      </trkpt>
      <trkpt lat="45.35005" lon="4.14093">
        <ele>654.8</ele>
        <time>2023-03-25T10:02:22Z</time>
      </trkpt>
      <trkpt lat="45.3499" lon="4.14113">
        <ele>656.72</ele>
        <time>2023-03-25T10:02:37Z</time>
      </trkpt>
      <trkpt lat="45.34971" lon="4.14117">
        <ele>657.68</ele>
        <time>2023-03-25T10:02:55Z</time>
      </trkpt>
      <trkpt lat="45.34957" lon="4.1412">
        <ele>655.28</ele>
        <time>2023-03-25T10:03:07Z</time>
      </trkpt>
      <trkpt lat="45.34954" lon="4.14152">
        <ele>651.43</ele>
        <time>2023-03-25T10:03:25Z</time>
      </trkpt>
      <trkpt lat="45.34964" lon="4.14182">
        <ele>651.91</ele>
        <time>2023-03-25T10:03:42Z</time>
      </trkpt>
      <trkpt lat="45.34981" lon="4.14214">
        <ele>648.07</ele>
        <time>2023-03-25T10:04:00Z</time>
      </trkpt>
      <trkpt lat="45.35" lon="4.14243">
        <ele>639.89</ele>
        <time>2023-03-25T10:04:18Z</time>
      </trkpt>
      <trkpt lat="45.35011" lon="4.14278">
        <ele>636.53</ele>
        <time>2023-03-25T10:04:37Z</time>
      </trkpt>
      <trkpt lat="45.34992" lon="4.14302">
        <ele>632.68</ele>
        <time>2023-03-25T10:04:53Z</time>
      </trkpt>
      <trkpt lat="45.34966" lon="4.14306">
        <ele>630.28</ele>
        <time>2023-03-25T10:05:11Z</time>
      </trkpt>
      <trkpt lat="45.34964" lon="4.14329">
        <ele>628.36</ele>
        <time>2023-03-25T10:05:24Z</time>
      </trkpt>
      <trkpt lat="45.34975" lon="4.14354">
        <ele>624.99</ele>
        <time>2023-03-25T10:05:41Z</time>
      </trkpt>
      <trkpt lat="45.34978" lon="4.1436">
        <ele>623.07</ele>
        <time>2023-03-25T10:05:55Z</time>
      </trkpt>
      <trkpt lat="45.3498" lon="4.14361">
        <ele>622.59</ele>
        <time>2023-03-25T10:06:13Z</time>
      </trkpt>
      <trkpt lat="45.34985" lon="4.14372">
        <ele>622.11</ele>
        <time>2023-03-25T10:06:34Z</time>
      </trkpt>
      <trkpt lat="45.34995" lon="4.14388">
        <ele>620.19</ele>
        <time>2023-03-25T10:06:45Z</time>
      </trkpt>
      <trkpt lat="45.34996" lon="4.1439">
        <ele>619.23</ele>
        <time>2023-03-25T10:06:47Z</time>
      </trkpt>
      <trkpt lat="45.34997" lon="4.14392">
        <ele>618.75</ele>
        <time>2023-03-25T10:06:48Z</time>
      </trkpt>
      <trkpt lat="45.34997" lon="4.14393">
        <ele>618.75</ele>
        <time>2023-03-25T10:06:49Z</time>
      </trkpt>
      <trkpt lat="45.34998" lon="4.14395">
        <ele>618.26</ele>
        <time>2023-03-25T10:06:50Z</time>
      </trkpt>
      <trkpt lat="45.34999" lon="4.14398">
        <ele>618.26</ele>
        <time>2023-03-25T10:06:51Z</time>
      </trkpt>
      <trkpt lat="45.34999" lon="4.144">
        <ele>617.78</ele>
        <time>2023-03-25T10:06:52Z</time>
      </trkpt>
      <trkpt lat="45.34999" lon="4.14403">
        <ele>617.3</ele>
        <time>2023-03-25T10:06:53Z</time>
      </trkpt>
      <trkpt lat="45.35002" lon="4.14436">
        <ele>612.98</ele>
        <time>2023-03-25T10:07:10Z</time>
      </trkpt>
      <trkpt lat="45.35008" lon="4.14465">
        <ele>609.13</ele>
        <time>2023-03-25T10:07:25Z</time>
      </trkpt>
      <trkpt lat="45.35015" lon="4.14497">
        <ele>611.54</ele>
        <time>2023-03-25T10:07:43Z</time>
      </trkpt>
      <trkpt lat="45.3502" lon="4.14529">
        <ele>614.9</ele>
        <time>2023-03-25T10:07:58Z</time>
      </trkpt>
      <trkpt lat="45.35026" lon="4.14568">
        <ele>614.42</ele>
        <time>2023-03-25T10:08:16Z</time>
      </trkpt>
      <trkpt lat="45.35025" lon="4.14606">
        <ele>613.94</ele>
        <time>2023-03-25T10:08:35Z</time>
      </trkpt>
      <trkpt lat="45.35024" lon="4.14648">
        <ele>609.61</ele>
        <time>2023-03-25T10:08:54Z</time>
      </trkpt>
      <trkpt lat="45.35024" lon="4.14672">
        <ele>609.61</ele>
        <time>2023-03-25T10:09:06Z</time>
      </trkpt>
      <trkpt lat="45.35022" lon="4.14711">
        <ele>607.69</ele>
        <time>2023-03-25T10:09:26Z</time>
      </trkpt>
      <trkpt lat="45.35017" lon="4.14741">
        <ele>604.33</ele>
        <time>2023-03-25T10:09:40Z</time>
      </trkpt>
      <trkpt lat="45.35008" lon="4.14768">
        <ele>599.52</ele>
        <time>2023-03-25T10:09:53Z</time>
      </trkpt>
      <trkpt lat="45.34992" lon="4.14803">
        <ele>595.67</ele>
        <time>2023-03-25T10:10:10Z</time>
      </trkpt>
      <trkpt lat="45.34982" lon="4.14836">
        <ele>595.67</ele>
        <time>2023-03-25T10:10:28Z</time>
      </trkpt>
      <trkpt lat="45.34969" lon="4.14874">
        <ele>594.23</ele>
        <time>2023-03-25T10:10:47Z</time>
      </trkpt>
      <trkpt lat="45.3496" lon="4.14899">
        <ele>594.71</ele>
        <time>2023-03-25T10:11:02Z</time>
      </trkpt>
      <trkpt lat="45.34947" lon="4.14934">
        <ele>593.27</ele>
        <time>2023-03-25T10:11:21Z</time>
      </trkpt>
      <trkpt lat="45.34931" lon="4.14955">
        <ele>593.27</ele>
        <time>2023-03-25T10:11:36Z</time>
      </trkpt>
      <trkpt lat="45.34918" lon="4.1496">
        <ele>590.39</ele>
        <time>2023-03-25T10:11:42Z</time>
      </trkpt>
      <trkpt lat="45.34917" lon="4.14961">
        <ele>590.39</ele>
        <time>2023-03-25T10:11:43Z</time>
      </trkpt>
      <trkpt lat="45.34899" lon="4.14995">
        <ele>588.46</ele>
        <time>2023-03-25T10:12:00Z</time>
      </trkpt>
      <trkpt lat="45.34885" lon="4.15021">
        <ele>587.98</ele>
        <time>2023-03-25T10:12:16Z</time>
      </trkpt>
      <trkpt lat="45.34872" lon="4.15049">
        <ele>586.06</ele>
        <time>2023-03-25T10:12:32Z</time>
      </trkpt>
      <trkpt lat="45.34864" lon="4.15089">
        <ele>583.18</ele>
        <time>2023-03-25T10:12:50Z</time>
      </trkpt>
      <trkpt lat="45.34858" lon="4.15126">
        <ele>580.29</ele>
        <time>2023-03-25T10:13:08Z</time>
      </trkpt>
      <trkpt lat="45.34852" lon="4.1517">
        <ele>583.18</ele>
        <time>2023-03-25T10:13:28Z</time>
      </trkpt>
      <trkpt lat="45.34847" lon="4.15204">
        <ele>584.62</ele>
        <time>2023-03-25T10:13:45Z</time>
      </trkpt>
      <trkpt lat="45.34842" lon="4.15228">
        <ele>587.98</ele>
        <time>2023-03-25T10:14:01Z</time>
      </trkpt>
      <trkpt lat="45.34831" lon="4.15263">
        <ele>591.35</ele>
        <time>2023-03-25T10:14:18Z</time>
      </trkpt>
      <trkpt lat="45.34829" lon="4.15305">
        <ele>594.71</ele>
        <time>2023-03-25T10:14:36Z</time>
      </trkpt>
      <trkpt lat="45.34827" lon="4.15354">
        <ele>594.23</ele>
        <time>2023-03-25T10:14:55Z</time>
      </trkpt>
      <trkpt lat="45.34825" lon="4.15396">
        <ele>588.46</ele>
        <time>2023-03-25T10:15:13Z</time>
      </trkpt>
      <trkpt lat="45.34818" lon="4.15444">
        <ele>584.62</ele>
        <time>2023-03-25T10:15:34Z</time>
      </trkpt>
      <trkpt lat="45.34814" lon="4.15486">
        <ele>579.33</ele>
        <time>2023-03-25T10:15:53Z</time>
      </trkpt>
      <trkpt lat="45.34813" lon="4.15525">
        <ele>575.49</ele>
        <time>2023-03-25T10:16:11Z</time>
      </trkpt>
      <trkpt lat="45.34806" lon="4.15561">
        <ele>574.04</ele>
        <time>2023-03-25T10:16:28Z</time>
      </trkpt>
      <trkpt lat="45.34801" lon="4.15605">
        <ele>571.16</ele>
        <time>2023-03-25T10:16:47Z</time>
      </trkpt>
      <trkpt lat="45.34801" lon="4.15645">
        <ele>568.28</ele>
        <time>2023-03-25T10:17:05Z</time>
      </trkpt>
      <trkpt lat="45.34804" lon="4.15649">
        <ele>567.32</ele>
        <time>2023-03-25T10:17:19Z</time>
      </trkpt>
      <trkpt lat="45.34801" lon="4.15647">
        <ele>563.95</ele>
        <time>2023-03-25T10:17:44Z</time>
      </trkpt>
      <trkpt lat="45.34804" lon="4.15672">
        <ele>564.91</ele>
        <time>2023-03-25T10:17:57Z</time>
      </trkpt>
      <trkpt lat="45.34808" lon="4.15717">
        <ele>566.35</ele>
        <time>2023-03-25T10:18:17Z</time>
      </trkpt>
      <trkpt lat="45.34797" lon="4.1575">
        <ele>561.55</ele>
        <time>2023-03-25T10:18:34Z</time>
      </trkpt>
      <trkpt lat="45.34773" lon="4.1578">
        <ele>557.22</ele>
        <time>2023-03-25T10:18:53Z</time>
      </trkpt>
      <trkpt lat="45.34748" lon="4.15799">
        <ele>554.82</ele>
        <time>2023-03-25T10:19:10Z</time>
      </trkpt>
      <trkpt lat="45.34723" lon="4.15814">
        <ele>553.38</ele>
        <time>2023-03-25T10:19:28Z</time>
      </trkpt>
      <trkpt lat="45.34703" lon="4.15826">
        <ele>550.97</ele>
        <time>2023-03-25T10:19:43Z</time>
      </trkpt>
      <trkpt lat="45.34684" lon="4.15848">
        <ele>548.57</ele>
        <time>2023-03-25T10:19:59Z</time>
      </trkpt>
      <trkpt lat="45.34664" lon="4.15873">
        <ele>543.28</ele>
        <time>2023-03-25T10:20:17Z</time>
      </trkpt>
      <trkpt lat="45.34646" lon="4.15895">
        <ele>537.03</ele>
        <time>2023-03-25T10:20:34Z</time>
      </trkpt>
      <trkpt lat="45.3464" lon="4.15908">
        <ele>535.59</ele>
        <time>2023-03-25T10:20:43Z</time>
      </trkpt>
      <trkpt lat="45.34639" lon="4.1591">
        <ele>535.59</ele>
        <time>2023-03-25T10:20:44Z</time>
      </trkpt>
      <trkpt lat="45.34622" lon="4.1593">
        <ele>537.51</ele>
        <time>2023-03-25T10:20:59Z</time>
      </trkpt>
      <trkpt lat="45.34606" lon="4.15946">
        <ele>538.48</ele>
        <time>2023-03-25T10:21:13Z</time>
      </trkpt>
      <trkpt lat="45.34605" lon="4.15953">
        <ele>540.4</ele>
        <time>2023-03-25T10:21:18Z</time>
      </trkpt>
      <trkpt lat="45.34602" lon="4.15981">
        <ele>546.17</ele>
        <time>2023-03-25T10:21:36Z</time>
      </trkpt>
      <trkpt lat="45.34607" lon="4.16012">
        <ele>548.09</ele>
        <time>2023-03-25T10:21:52Z</time>
      </trkpt>
      <trkpt lat="45.34606" lon="4.16036">
        <ele>550.49</ele>
        <time>2023-03-25T10:22:09Z</time>
      </trkpt>
      <trkpt lat="45.34597" lon="4.16063">
        <ele>547.61</ele>
        <time>2023-03-25T10:22:24Z</time>
      </trkpt>
      <trkpt lat="45.34591" lon="4.16076">
        <ele>544.72</ele>
        <time>2023-03-25T10:22:35Z</time>
      </trkpt>
      <trkpt lat="45.34557" lon="4.16101">
        <ele>541.36</ele>
        <time>2023-03-25T10:22:55Z</time>
      </trkpt>
      <trkpt lat="45.34523" lon="4.16115">
        <ele>528.86</ele>
        <time>2023-03-25T10:23:12Z</time>
      </trkpt>
      <trkpt lat="45.34499" lon="4.16127">
        <ele>524.54</ele>
        <time>2023-03-25T10:23:27Z</time>
      </trkpt>
      <trkpt lat="45.34468" lon="4.16142">
        <ele>517.81</ele>
        <time>2023-03-25T10:23:47Z</time>
      </trkpt>
      <trkpt lat="45.34437" lon="4.16157">
        <ele>513</ele>
        <time>2023-03-25T10:24:08Z</time>
      </trkpt>
      <trkpt lat="45.34409" lon="4.16177">
        <ele>512.04</ele>
        <time>2023-03-25T10:24:28Z</time>
      </trkpt>
      <trkpt lat="45.34382" lon="4.16194">
        <ele>513</ele>
        <time>2023-03-25T10:24:45Z</time>
      </trkpt>
      <trkpt lat="45.34358" lon="4.16212">
        <ele>513.48</ele>
        <time>2023-03-25T10:25:04Z</time>
      </trkpt>
      <trkpt lat="45.34337" lon="4.16239">
        <ele>514.44</ele>
        <time>2023-03-25T10:25:21Z</time>
      </trkpt>
      <trkpt lat="45.34318" lon="4.16265">
        <ele>517.81</ele>
        <time>2023-03-25T10:25:38Z</time>
      </trkpt>
      <trkpt lat="45.34298" lon="4.16293">
        <ele>523.09</ele>
        <time>2023-03-25T10:25:55Z</time>
      </trkpt>
      <trkpt lat="45.34296" lon="4.16301">
        <ele>525.98</ele>
        <time>2023-03-25T10:26:11Z</time>
      </trkpt>
      <trkpt lat="45.34293" lon="4.16304">
        <ele>525.5</ele>
        <time>2023-03-25T10:26:30Z</time>
      </trkpt>
      <trkpt lat="45.34294" lon="4.16304">
        <ele>526.94</ele>
        <time>2023-03-25T10:26:44Z</time>
      </trkpt>
      <trkpt lat="45.34276" lon="4.1631">
        <ele>523.58</ele>
        <time>2023-03-25T10:27:01Z</time>
      </trkpt>
      <trkpt lat="45.34271" lon="4.16313">
        <ele>522.61</ele>
        <time>2023-03-25T10:27:21Z</time>
      </trkpt>
      <trkpt lat="45.34251" lon="4.16326">
        <ele>520.69</ele>
        <time>2023-03-25T10:27:39Z</time>
      </trkpt>
      <trkpt lat="45.34221" lon="4.16339">
        <ele>519.25</ele>
        <time>2023-03-25T10:27:59Z</time>
      </trkpt>
      <trkpt lat="45.34205" lon="4.16343">
        <ele>518.77</ele>
        <time>2023-03-25T10:28:12Z</time>
      </trkpt>
      <trkpt lat="45.34195" lon="4.16344">
        <ele>518.29</ele>
        <time>2023-03-25T10:28:19Z</time>
      </trkpt>
      <trkpt lat="45.34174" lon="4.16349">
        <ele>518.77</ele>
        <time>2023-03-25T10:28:38Z</time>
      </trkpt>
      <trkpt lat="45.34155" lon="4.16352">
        <ele>519.73</ele>
        <time>2023-03-25T10:28:55Z</time>
      </trkpt>
      <trkpt lat="45.34154" lon="4.16348">
        <ele>520.21</ele>
        <time>2023-03-25T10:29:13Z</time>
      </trkpt>
      <trkpt lat="45.34153" lon="4.16342">
        <ele>520.69</ele>
        <time>2023-03-25T10:29:46Z</time>
      </trkpt>
      <trkpt lat="45.34152" lon="4.16344">
        <ele>521.17</ele>
        <time>2023-03-25T10:30:20Z</time>
      </trkpt>
      <trkpt lat="45.34151" lon="4.16343">
        <ele>524.54</ele>
        <time>2023-03-25T10:30:45Z</time>
      </trkpt>
      <trkpt lat="45.34148" lon="4.16349">
        <ele>525.02</ele>
        <time>2023-03-25T10:31:08Z</time>
      </trkpt>
      <trkpt lat="45.34149" lon="4.16354">
        <ele>525.02</ele>
        <time>2023-03-25T10:31:26Z</time>
      </trkpt>
      <trkpt lat="45.34147" lon="4.16351">
        <ele>526.94</ele>
        <time>2023-03-25T10:31:47Z</time>
      </trkpt>
      <trkpt lat="45.34143" lon="4.1635">
        <ele>526.46</ele>
        <time>2023-03-25T10:32:00Z</time>
      </trkpt>
      <trkpt lat="45.34143" lon="4.1635">
        <ele>524.54</ele>
        <time>2023-03-25T10:32:28Z</time>
      </trkpt>
      <trkpt lat="45.34143" lon="4.16353">
        <ele>523.09</ele>
        <time>2023-03-25T10:32:53Z</time>
      </trkpt>
      <trkpt lat="45.34145" lon="4.16349">
        <ele>520.21</ele>
        <time>2023-03-25T10:33:14Z</time>
      </trkpt>
      <trkpt lat="45.34139" lon="4.16353">
        <ele>523.58</ele>
        <time>2023-03-25T10:33:47Z</time>
      </trkpt>
      <trkpt lat="45.34143" lon="4.16351">
        <ele>523.09</ele>
        <time>2023-03-25T10:34:13Z</time>
      </trkpt>
      <trkpt lat="45.3414" lon="4.16347">
        <ele>521.65</ele>
        <time>2023-03-25T10:34:52Z</time>
      </trkpt>
      <trkpt lat="45.34142" lon="4.16348">
        <ele>521.17</ele>
        <time>2023-03-25T10:35:13Z</time>
      </trkpt>
      <trkpt lat="45.34149" lon="4.16349">
        <ele>522.61</ele>
        <time>2023-03-25T10:35:35Z</time>
      </trkpt>
      <trkpt lat="45.34146" lon="4.16352">
        <ele>525.5</ele>
        <time>2023-03-25T10:35:56Z</time>
      </trkpt>
      <trkpt lat="45.34143" lon="4.16353">
        <ele>526.46</ele>
        <time>2023-03-25T10:36:21Z</time>
      </trkpt>
      <trkpt lat="45.34135" lon="4.16326">
        <ele>526.94</ele>
        <time>2023-03-25T10:36:38Z</time>
      </trkpt>
      <trkpt lat="45.34139" lon="4.1631">
        <ele>528.38</ele>
        <time>2023-03-25T10:36:54Z</time>
      </trkpt>
      <trkpt lat="45.34145" lon="4.16302">
        <ele>529.82</ele>
        <time>2023-03-25T10:37:14Z</time>
      </trkpt>
      <trkpt lat="45.3415" lon="4.16301">
        <ele>532.71</ele>
        <time>2023-03-25T10:37:48Z</time>
      </trkpt>
      <trkpt lat="45.34147" lon="4.16299">
        <ele>534.63</ele>
        <time>2023-03-25T10:38:17Z</time>
      </trkpt>
      <trkpt lat="45.34147" lon="4.16304">
        <ele>532.23</ele>
        <time>2023-03-25T10:38:33Z</time>
      </trkpt>
      <trkpt lat="45.34147" lon="4.16317">
        <ele>528.86</ele>
        <time>2023-03-25T10:38:48Z</time>
      </trkpt>
      <trkpt lat="45.34147" lon="4.16337">
        <ele>528.38</ele>
        <time>2023-03-25T10:39:03Z</time>
      </trkpt>
      <trkpt lat="45.34144" lon="4.16341">
        <ele>527.42</ele>
        <time>2023-03-25T10:39:22Z</time>
      </trkpt>
      <trkpt lat="45.34141" lon="4.16339">
        <ele>527.42</ele>
        <time>2023-03-25T10:39:44Z</time>
      </trkpt>
      <trkpt lat="45.34144" lon="4.16345">
        <ele>526.94</ele>
        <time>2023-03-25T10:40:00Z</time>
      </trkpt>
      <trkpt lat="45.34147" lon="4.16348">
        <ele>526.94</ele>
        <time>2023-03-25T10:40:16Z</time>
      </trkpt>
      <trkpt lat="45.34147" lon="4.16348">
        <ele>527.42</ele>
        <time>2023-03-25T10:40:32Z</time>
      </trkpt>
      <trkpt lat="45.34145" lon="4.16345">
        <ele>527.42</ele>
        <time>2023-03-25T10:40:59Z</time>
      </trkpt>
      <trkpt lat="45.34153" lon="4.16347">
        <ele>528.38</ele>
        <time>2023-03-25T10:41:26Z</time>
      </trkpt>
      <trkpt lat="45.34152" lon="4.16353">
        <ele>526.94</ele>
        <time>2023-03-25T10:41:58Z</time>
      </trkpt>
      <trkpt lat="45.34154" lon="4.16351">
        <ele>525.98</ele>
        <time>2023-03-25T10:42:37Z</time>
      </trkpt>
      <trkpt lat="45.34154" lon="4.16355">
        <ele>526.46</ele>
        <time>2023-03-25T10:43:06Z</time>
      </trkpt>
      <trkpt lat="45.34156" lon="4.16353">
        <ele>526.46</ele>
        <time>2023-03-25T10:43:36Z</time>
      </trkpt>
      <trkpt lat="45.3415" lon="4.16347">
        <ele>524.54</ele>
        <time>2023-03-25T10:43:52Z</time>
      </trkpt>
      <trkpt lat="45.34156" lon="4.16348">
        <ele>527.9</ele>
        <time>2023-03-25T10:44:26Z</time>
      </trkpt>
      <trkpt lat="45.34155" lon="4.1635">
        <ele>534.15</ele>
        <time>2023-03-25T10:44:58Z</time>
      </trkpt>
      <trkpt lat="45.34166" lon="4.16341">
        <ele>534.15</ele>
        <time>2023-03-25T10:45:32Z</time>
      </trkpt>
      <trkpt lat="45.34158" lon="4.16342">
        <ele>531.75</ele>
        <time>2023-03-25T10:46:02Z</time>
      </trkpt>
      <trkpt lat="45.34153" lon="4.16347">
        <ele>530.3</ele>
        <time>2023-03-25T10:46:38Z</time>
      </trkpt>
      <trkpt lat="45.34144" lon="4.16345">
        <ele>528.38</ele>
        <time>2023-03-25T10:47:15Z</time>
      </trkpt>
      <trkpt lat="45.3415" lon="4.16345">
        <ele>531.27</ele>
        <time>2023-03-25T10:47:52Z</time>
      </trkpt>
      <trkpt lat="45.34148" lon="4.16346">
        <ele>532.71</ele>
        <time>2023-03-25T10:48:25Z</time>
      </trkpt>
      <trkpt lat="45.34151" lon="4.1635">
        <ele>531.75</ele>
        <time>2023-03-25T10:49:01Z</time>
      </trkpt>
      <trkpt lat="45.34151" lon="4.1635">
        <ele>535.59</ele>
        <time>2023-03-25T10:49:34Z</time>
      </trkpt>
      <trkpt lat="45.34152" lon="4.16348">
        <ele>535.59</ele>
        <time>2023-03-25T10:50:12Z</time>
      </trkpt>
      <trkpt lat="45.34156" lon="4.16347">
        <ele>536.55</ele>
        <time>2023-03-25T10:50:44Z</time>
      </trkpt>
      <trkpt lat="45.34152" lon="4.16343">
        <ele>531.27</ele>
        <time>2023-03-25T10:51:12Z</time>
      </trkpt>
      <trkpt lat="45.34149" lon="4.16344">
        <ele>530.79</ele>
        <time>2023-03-25T10:51:36Z</time>
      </trkpt>
      <trkpt lat="45.34151" lon="4.16346">
        <ele>527.42</ele>
        <time>2023-03-25T10:52:12Z</time>
      </trkpt>
      <trkpt lat="45.34156" lon="4.1635">
        <ele>521.65</ele>
        <time>2023-03-25T10:52:52Z</time>
      </trkpt>
      <trkpt lat="45.34153" lon="4.16352">
        <ele>523.09</ele>
        <time>2023-03-25T10:53:26Z</time>
      </trkpt>
      <trkpt lat="45.34153" lon="4.16341">
        <ele>526.46</ele>
        <time>2023-03-25T10:54:00Z</time>
      </trkpt>
      <trkpt lat="45.34152" lon="4.16343">
        <ele>525.98</ele>
        <time>2023-03-25T10:54:28Z</time>
      </trkpt>
      <trkpt lat="45.34156" lon="4.16345">
        <ele>525.98</ele>
        <time>2023-03-25T10:54:55Z</time>
      </trkpt>
      <trkpt lat="45.34155" lon="4.16347">
        <ele>525.5</ele>
        <time>2023-03-25T10:54:57Z</time>
      </trkpt>
      <trkpt lat="45.34149" lon="4.1635">
        <ele>525.02</ele>
        <time>2023-03-25T10:55:14Z</time>
      </trkpt>
      <trkpt lat="45.34145" lon="4.16348">
        <ele>525.5</ele>
        <time>2023-03-25T10:55:40Z</time>
      </trkpt>
      <trkpt lat="45.34143" lon="4.16351">
        <ele>523.58</ele>
        <time>2023-03-25T10:56:06Z</time>
      </trkpt>
      <trkpt lat="45.34148" lon="4.16352">
        <ele>525.02</ele>
        <time>2023-03-25T10:56:28Z</time>
      </trkpt>
      <trkpt lat="45.34145" lon="4.16352">
        <ele>524.54</ele>
        <time>2023-03-25T10:56:51Z</time>
      </trkpt>
      <trkpt lat="45.34149" lon="4.16348">
        <ele>524.06</ele>
        <time>2023-03-25T10:57:13Z</time>
      </trkpt>
      <trkpt lat="45.34154" lon="4.16341">
        <ele>525.98</ele>
        <time>2023-03-25T10:57:40Z</time>
      </trkpt>
      <trkpt lat="45.34155" lon="4.16343">
        <ele>529.34</ele>
        <time>2023-03-25T10:58:13Z</time>
      </trkpt>
      <trkpt lat="45.34154" lon="4.16344">
        <ele>529.82</ele>
        <time>2023-03-25T10:58:34Z</time>
      </trkpt>
      <trkpt lat="45.34155" lon="4.16349">
        <ele>526.46</ele>
        <time>2023-03-25T10:58:49Z</time>
      </trkpt>
      <trkpt lat="45.34143" lon="4.16355">
        <ele>525.02</ele>
        <time>2023-03-25T10:59:02Z</time>
      </trkpt>
      <trkpt lat="45.34126" lon="4.16362">
        <ele>525.5</ele>
        <time>2023-03-25T10:59:21Z</time>
      </trkpt>
      <trkpt lat="45.341" lon="4.16356">
        <ele>525.98</ele>
        <time>2023-03-25T10:59:37Z</time>
      </trkpt>
      <trkpt lat="45.34078" lon="4.16354">
        <ele>525.5</ele>
        <time>2023-03-25T10:59:52Z</time>
      </trkpt>
      <trkpt lat="45.34059" lon="4.16361">
        <ele>525.98</ele>
        <time>2023-03-25T11:00:05Z</time>
      </trkpt>
      <trkpt lat="45.34032" lon="4.16372">
        <ele>520.69</ele>
        <time>2023-03-25T11:00:22Z</time>
      </trkpt>
      <trkpt lat="45.3401" lon="4.16382">
        <ele>516.85</ele>
        <time>2023-03-25T11:00:39Z</time>
      </trkpt>
      <trkpt lat="45.33984" lon="4.16394">
        <ele>513</ele>
        <time>2023-03-25T11:00:55Z</time>
      </trkpt>
      <trkpt lat="45.33962" lon="4.16402">
        <ele>512.04</ele>
        <time>2023-03-25T11:01:11Z</time>
      </trkpt>
      <trkpt lat="45.33937" lon="4.16403">
        <ele>514.44</ele>
        <time>2023-03-25T11:01:28Z</time>
      </trkpt>
      <trkpt lat="45.3393" lon="4.16404">
        <ele>514.92</ele>
        <time>2023-03-25T11:01:34Z</time>
      </trkpt>
      <trkpt lat="45.33908" lon="4.16401">
        <ele>514.92</ele>
        <time>2023-03-25T11:01:50Z</time>
      </trkpt>
      <trkpt lat="45.33888" lon="4.16394">
        <ele>511.08</ele>
        <time>2023-03-25T11:02:03Z</time>
      </trkpt>
      <trkpt lat="45.33855" lon="4.16387">
        <ele>508.19</ele>
        <time>2023-03-25T11:02:22Z</time>
      </trkpt>
      <trkpt lat="45.33824" lon="4.16385">
        <ele>509.16</ele>
        <time>2023-03-25T11:02:43Z</time>
      </trkpt>
      <trkpt lat="45.33808" lon="4.16381">
        <ele>509.64</ele>
        <time>2023-03-25T11:02:56Z</time>
      </trkpt>
      <trkpt lat="45.3378" lon="4.16378">
        <ele>510.6</ele>
        <time>2023-03-25T11:03:13Z</time>
      </trkpt>
      <trkpt lat="45.33754" lon="4.16375">
        <ele>509.64</ele>
        <time>2023-03-25T11:03:31Z</time>
      </trkpt>
      <trkpt lat="45.33738" lon="4.16373">
        <ele>508.67</ele>
        <time>2023-03-25T11:03:43Z</time>
      </trkpt>
      <trkpt lat="45.33717" lon="4.16381">
        <ele>510.12</ele>
        <time>2023-03-25T11:03:59Z</time>
      </trkpt>
      <trkpt lat="45.33692" lon="4.16387">
        <ele>513</ele>
        <time>2023-03-25T11:04:15Z</time>
      </trkpt>
      <trkpt lat="45.33669" lon="4.16394">
        <ele>514.92</ele>
        <time>2023-03-25T11:04:31Z</time>
      </trkpt>
      <trkpt lat="45.33645" lon="4.16403">
        <ele>515.4</ele>
        <time>2023-03-25T11:04:47Z</time>
      </trkpt>
      <trkpt lat="45.33614" lon="4.16421">
        <ele>513.96</ele>
        <time>2023-03-25T11:05:06Z</time>
      </trkpt>
      <trkpt lat="45.33596" lon="4.16435">
        <ele>513</ele>
        <time>2023-03-25T11:05:21Z</time>
      </trkpt>
      <trkpt lat="45.33576" lon="4.16445">
        <ele>511.56</ele>
        <time>2023-03-25T11:05:38Z</time>
      </trkpt>
      <trkpt lat="45.33567" lon="4.1645">
        <ele>510.12</ele>
        <time>2023-03-25T11:05:46Z</time>
      </trkpt>
      <trkpt lat="45.33559" lon="4.1645">
        <ele>508.19</ele>
        <time>2023-03-25T11:05:53Z</time>
      </trkpt>
      <trkpt lat="45.33534" lon="4.16449">
        <ele>508.67</ele>
        <time>2023-03-25T11:06:11Z</time>
      </trkpt>
      <trkpt lat="45.33532" lon="4.16446">
        <ele>507.71</ele>
        <time>2023-03-25T11:06:13Z</time>
      </trkpt>
      <trkpt lat="45.33529" lon="4.16418">
        <ele>505.31</ele>
        <time>2023-03-25T11:06:30Z</time>
      </trkpt>
      <trkpt lat="45.33524" lon="4.1641">
        <ele>501.95</ele>
        <time>2023-03-25T11:06:46Z</time>
      </trkpt>
      <trkpt lat="45.33513" lon="4.16437">
        <ele>497.14</ele>
        <time>2023-03-25T11:07:03Z</time>
      </trkpt>
      <trkpt lat="45.33499" lon="4.16459">
        <ele>492.33</ele>
        <time>2023-03-25T11:07:18Z</time>
      </trkpt>
      <trkpt lat="45.33489" lon="4.16475">
        <ele>488.49</ele>
        <time>2023-03-25T11:07:34Z</time>
      </trkpt>
      <trkpt lat="45.33479" lon="4.16496">
        <ele>484.16</ele>
        <time>2023-03-25T11:07:49Z</time>
      </trkpt>
      <trkpt lat="45.33466" lon="4.16518">
        <ele>480.8</ele>
        <time>2023-03-25T11:08:03Z</time>
      </trkpt>
      <trkpt lat="45.33462" lon="4.16545">
        <ele>477.43</ele>
        <time>2023-03-25T11:08:17Z</time>
      </trkpt>
      <trkpt lat="45.33454" lon="4.16562">
        <ele>474.07</ele>
        <time>2023-03-25T11:08:34Z</time>
      </trkpt>
      <trkpt lat="45.33446" lon="4.1659">
        <ele>469.74</ele>
        <time>2023-03-25T11:08:50Z</time>
      </trkpt>
      <trkpt lat="45.33437" lon="4.16621">
        <ele>463.49</ele>
        <time>2023-03-25T11:09:05Z</time>
      </trkpt>
      <trkpt lat="45.33437" lon="4.16642">
        <ele>460.13</ele>
        <time>2023-03-25T11:09:21Z</time>
      </trkpt>
      <trkpt lat="45.33438" lon="4.16663">
        <ele>456.76</ele>
        <time>2023-03-25T11:09:34Z</time>
      </trkpt>
      <trkpt lat="45.33429" lon="4.16686">
        <ele>453.88</ele>
        <time>2023-03-25T11:09:49Z</time>
      </trkpt>
      <trkpt lat="45.33425" lon="4.16704">
        <ele>451.48</ele>
        <time>2023-03-25T11:10:02Z</time>
      </trkpt>
      <trkpt lat="45.33411" lon="4.16721">
        <ele>448.59</ele>
        <time>2023-03-25T11:10:15Z</time>
      </trkpt>
      <trkpt lat="45.334" lon="4.16722">
        <ele>449.07</ele>
        <time>2023-03-25T11:10:25Z</time>
      </trkpt>
      <trkpt lat="45.33397" lon="4.16716">
        <ele>448.59</ele>
        <time>2023-03-25T11:10:29Z</time>
      </trkpt>
      <trkpt lat="45.33392" lon="4.16707">
        <ele>445.71</ele>
        <time>2023-03-25T11:10:39Z</time>
      </trkpt>
      <trkpt lat="45.33391" lon="4.1671">
        <ele>445.23</ele>
        <time>2023-03-25T11:10:41Z</time>
      </trkpt>
      <trkpt lat="45.33393" lon="4.16731">
        <ele>443.31</ele>
        <time>2023-03-25T11:10:55Z</time>
      </trkpt>
      <trkpt lat="45.33391" lon="4.16746">
        <ele>440.42</ele>
        <time>2023-03-25T11:11:11Z</time>
      </trkpt>
      <trkpt lat="45.33389" lon="4.16756">
        <ele>438.98</ele>
        <time>2023-03-25T11:11:16Z</time>
      </trkpt>
      <trkpt lat="45.33375" lon="4.1675">
        <ele>437.54</ele>
        <time>2023-03-25T11:11:22Z</time>
      </trkpt>
      <trkpt lat="45.33377" lon="4.16698">
        <ele>437.54</ele>
        <time>2023-03-25T11:11:44Z</time>
      </trkpt>
      <trkpt lat="45.33377" lon="4.16676">
        <ele>436.1</ele>
        <time>2023-03-25T11:11:55Z</time>
      </trkpt>
      <trkpt lat="45.33371" lon="4.16674">
        <ele>435.61</ele>
        <time>2023-03-25T11:12:01Z</time>
      </trkpt>
      <trkpt lat="45.3337" lon="4.16679">
        <ele>434.65</ele>
        <time>2023-03-25T11:12:05Z</time>
      </trkpt>
      <trkpt lat="45.33369" lon="4.16713">
        <ele>432.25</ele>
        <time>2023-03-25T11:12:23Z</time>
      </trkpt>
      <trkpt lat="45.33357" lon="4.1675">
        <ele>429.85</ele>
        <time>2023-03-25T11:12:40Z</time>
      </trkpt>
      <trkpt lat="45.3334" lon="4.16778">
        <ele>426.48</ele>
        <time>2023-03-25T11:12:55Z</time>
      </trkpt>
      <trkpt lat="45.33332" lon="4.16784">
        <ele>425.52</ele>
        <time>2023-03-25T11:13:01Z</time>
      </trkpt>
      <trkpt lat="45.33331" lon="4.16789">
        <ele>424.56</ele>
        <time>2023-03-25T11:13:04Z</time>
      </trkpt>
      <trkpt lat="45.33333" lon="4.1681">
        <ele>422.64</ele>
        <time>2023-03-25T11:13:13Z</time>
      </trkpt>
      <trkpt lat="45.33328" lon="4.16815">
        <ele>421.68</ele>
        <time>2023-03-25T11:13:17Z</time>
      </trkpt>
      <trkpt lat="45.33329" lon="4.16821">
        <ele>421.68</ele>
        <time>2023-03-25T11:13:31Z</time>
      </trkpt>
      <trkpt lat="45.3333" lon="4.16821">
        <ele>423.12</ele>
        <time>2023-03-25T11:13:46Z</time>
      </trkpt>
      <trkpt lat="45.3333" lon="4.16821">
        <ele>425.04</ele>
        <time>2023-03-25T11:14:11Z</time>
      </trkpt>
      <trkpt lat="45.33335" lon="4.16834">
        <ele>425.52</ele>
        <time>2023-03-25T11:14:24Z</time>
      </trkpt>
      <trkpt lat="45.33338" lon="4.16864">
        <ele>426</ele>
        <time>2023-03-25T11:14:38Z</time>
      </trkpt>
      <trkpt lat="45.3334" lon="4.16906">
        <ele>426</ele>
        <time>2023-03-25T11:14:55Z</time>
      </trkpt>
      <trkpt lat="45.33346" lon="4.16939">
        <ele>424.08</ele>
        <time>2023-03-25T11:15:12Z</time>
      </trkpt>
      <trkpt lat="45.33346" lon="4.16973">
        <ele>423.6</ele>
        <time>2023-03-25T11:15:27Z</time>
      </trkpt>
      <trkpt lat="45.33346" lon="4.17016">
        <ele>423.12</ele>
        <time>2023-03-25T11:15:46Z</time>
      </trkpt>
      <trkpt lat="45.33348" lon="4.17046">
        <ele>416.87</ele>
        <time>2023-03-25T11:15:59Z</time>
      </trkpt>
      <trkpt lat="45.33348" lon="4.17083">
        <ele>413.02</ele>
        <time>2023-03-25T11:16:16Z</time>
      </trkpt>
      <trkpt lat="45.33348" lon="4.17104">
        <ele>409.18</ele>
        <time>2023-03-25T11:16:26Z</time>
      </trkpt>
      <trkpt lat="45.33348" lon="4.17106">
        <ele>409.18</ele>
        <time>2023-03-25T11:16:27Z</time>
      </trkpt>
      <trkpt lat="45.33348" lon="4.17108">
        <ele>408.7</ele>
        <time>2023-03-25T11:16:28Z</time>
      </trkpt>
      <trkpt lat="45.33346" lon="4.17142">
        <ele>410.62</ele>
        <time>2023-03-25T11:16:44Z</time>
      </trkpt>
      <trkpt lat="45.33342" lon="4.17168">
        <ele>407.74</ele>
        <time>2023-03-25T11:16:58Z</time>
      </trkpt>
      <trkpt lat="45.33345" lon="4.1719">
        <ele>408.7</ele>
        <time>2023-03-25T11:17:17Z</time>
      </trkpt>
      <trkpt lat="45.33345" lon="4.17216">
        <ele>413.02</ele>
        <time>2023-03-25T11:17:31Z</time>
      </trkpt>
      <trkpt lat="45.33346" lon="4.17252">
        <ele>412.06</ele>
        <time>2023-03-25T11:17:49Z</time>
      </trkpt>
      <trkpt lat="45.33345" lon="4.17286">
        <ele>414.95</ele>
        <time>2023-03-25T11:18:04Z</time>
      </trkpt>
      <trkpt lat="45.33345" lon="4.17315">
        <ele>409.66</ele>
        <time>2023-03-25T11:18:18Z</time>
      </trkpt>
      <trkpt lat="45.33345" lon="4.17353">
        <ele>408.22</ele>
        <time>2023-03-25T11:18:35Z</time>
      </trkpt>
      <trkpt lat="45.33345" lon="4.17385">
        <ele>401.97</ele>
        <time>2023-03-25T11:18:52Z</time>
      </trkpt>
      <trkpt lat="45.33339" lon="4.17411">
        <ele>401.97</ele>
        <time>2023-03-25T11:19:07Z</time>
      </trkpt>
      <trkpt lat="45.33329" lon="4.17438">
        <ele>400.53</ele>
        <time>2023-03-25T11:19:22Z</time>
      </trkpt>
      <trkpt lat="45.33329" lon="4.17467">
        <ele>401.49</ele>
        <time>2023-03-25T11:19:34Z</time>
      </trkpt>
      <trkpt lat="45.33316" lon="4.17493">
        <ele>399.57</ele>
        <time>2023-03-25T11:19:49Z</time>
      </trkpt>
      <trkpt lat="45.33314" lon="4.175">
        <ele>399.57</ele>
        <time>2023-03-25T11:19:52Z</time>
      </trkpt>
      <trkpt lat="45.33306" lon="4.17531">
        <ele>399.57</ele>
        <time>2023-03-25T11:20:08Z</time>
      </trkpt>
      <trkpt lat="45.33303" lon="4.17543">
        <ele>400.05</ele>
        <time>2023-03-25T11:20:14Z</time>
      </trkpt>
      <trkpt lat="45.3329" lon="4.17581">
        <ele>409.18</ele>
        <time>2023-03-25T11:20:31Z</time>
      </trkpt>
      <trkpt lat="45.33279" lon="4.17605">
        <ele>412.06</ele>
        <time>2023-03-25T11:20:45Z</time>
      </trkpt>
      <trkpt lat="45.33273" lon="4.17636">
        <ele>420.23</ele>
        <time>2023-03-25T11:21:02Z</time>
      </trkpt>
      <trkpt lat="45.33268" lon="4.17649">
        <ele>422.16</ele>
        <time>2023-03-25T11:21:09Z</time>
      </trkpt>
      <trkpt lat="45.33268" lon="4.17652">
        <ele>422.16</ele>
        <time>2023-03-25T11:21:10Z</time>
      </trkpt>
      <trkpt lat="45.33265" lon="4.17678">
        <ele>426</ele>
        <time>2023-03-25T11:21:24Z</time>
      </trkpt>
      <trkpt lat="45.33264" lon="4.17703">
        <ele>427.44</ele>
        <time>2023-03-25T11:21:37Z</time>
      </trkpt>
      <trkpt lat="45.33263" lon="4.1773">
        <ele>427.44</ele>
        <time>2023-03-25T11:21:51Z</time>
      </trkpt>
      <trkpt lat="45.33259" lon="4.17759">
        <ele>429.37</ele>
        <time>2023-03-25T11:22:06Z</time>
      </trkpt>
      <trkpt lat="45.33254" lon="4.17782">
        <ele>431.29</ele>
        <time>2023-03-25T11:22:19Z</time>
      </trkpt>
      <trkpt lat="45.33251" lon="4.17807">
        <ele>432.73</ele>
        <time>2023-03-25T11:22:32Z</time>
      </trkpt>
      <trkpt lat="45.3325" lon="4.17835">
        <ele>434.65</ele>
        <time>2023-03-25T11:22:48Z</time>
      </trkpt>
      <trkpt lat="45.33251" lon="4.17857">
        <ele>437.54</ele>
        <time>2023-03-25T11:23:03Z</time>
      </trkpt>
      <trkpt lat="45.33249" lon="4.17888">
        <ele>439.94</ele>
        <time>2023-03-25T11:23:18Z</time>
      </trkpt>
      <trkpt lat="45.33252" lon="4.1789">
        <ele>439.94</ele>
        <time>2023-03-25T11:23:22Z</time>
      </trkpt>
      <trkpt lat="45.33263" lon="4.17896">
        <ele>445.23</ele>
        <time>2023-03-25T11:23:36Z</time>
      </trkpt>
      <trkpt lat="45.33277" lon="4.17897">
        <ele>450.03</ele>
        <time>2023-03-25T11:23:56Z</time>
      </trkpt>
      <trkpt lat="45.33307" lon="4.17887">
        <ele>469.26</ele>
        <time>2023-03-25T11:24:14Z</time>
      </trkpt>
      <trkpt lat="45.33308" lon="4.17887">
        <ele>470.22</ele>
        <time>2023-03-25T11:24:15Z</time>
      </trkpt>
      <trkpt lat="45.33317" lon="4.17893">
        <ele>470.22</ele>
        <time>2023-03-25T11:24:19Z</time>
      </trkpt>
      <trkpt lat="45.33328" lon="4.17901">
        <ele>475.03</ele>
        <time>2023-03-25T11:24:33Z</time>
      </trkpt>
      <trkpt lat="45.3333" lon="4.17899">
        <ele>476.47</ele>
        <time>2023-03-25T11:24:45Z</time>
      </trkpt>
      <trkpt lat="45.33354" lon="4.17912">
        <ele>476.47</ele>
        <time>2023-03-25T11:25:01Z</time>
      </trkpt>
      <trkpt lat="45.3338" lon="4.1792">
        <ele>482.24</ele>
        <time>2023-03-25T11:25:21Z</time>
      </trkpt>
      <trkpt lat="45.33408" lon="4.17946">
        <ele>481.28</ele>
        <time>2023-03-25T11:25:38Z</time>
      </trkpt>
      <trkpt lat="45.33432" lon="4.17963">
        <ele>480.8</ele>
        <time>2023-03-25T11:25:57Z</time>
      </trkpt>
      <trkpt lat="45.3346" lon="4.1798">
        <ele>482.24</ele>
        <time>2023-03-25T11:26:16Z</time>
      </trkpt>
      <trkpt lat="45.3349" lon="4.18002">
        <ele>482.72</ele>
        <time>2023-03-25T11:26:35Z</time>
      </trkpt>
      <trkpt lat="45.33522" lon="4.18025">
        <ele>481.28</ele>
        <time>2023-03-25T11:26:57Z</time>
      </trkpt>
      <trkpt lat="45.33549" lon="4.18046">
        <ele>481.76</ele>
        <time>2023-03-25T11:27:19Z</time>
      </trkpt>
      <trkpt lat="45.33557" lon="4.18051">
        <ele>480.8</ele>
        <time>2023-03-25T11:27:28Z</time>
      </trkpt>
      <trkpt lat="45.33559" lon="4.18057">
        <ele>481.28</ele>
        <time>2023-03-25T11:27:41Z</time>
      </trkpt>
      <trkpt lat="45.33578" lon="4.18046">
        <ele>485.12</ele>
        <time>2023-03-25T11:27:58Z</time>
      </trkpt>
      <trkpt lat="45.33594" lon="4.18039">
        <ele>490.41</ele>
        <time>2023-03-25T11:28:13Z</time>
      </trkpt>
      <trkpt lat="45.3362" lon="4.18042">
        <ele>495.7</ele>
        <time>2023-03-25T11:28:25Z</time>
      </trkpt>
      <trkpt lat="45.33621" lon="4.18044">
        <ele>495.7</ele>
        <time>2023-03-25T11:28:26Z</time>
      </trkpt>
      <trkpt lat="45.33623" lon="4.18047">
        <ele>495.22</ele>
        <time>2023-03-25T11:28:27Z</time>
      </trkpt>
      <trkpt lat="45.33633" lon="4.18068">
        <ele>494.74</ele>
        <time>2023-03-25T11:28:41Z</time>
      </trkpt>
      <trkpt lat="45.33634" lon="4.18069">
        <ele>494.26</ele>
        <time>2023-03-25T11:29:16Z</time>
      </trkpt>
      <trkpt lat="45.33634" lon="4.18068">
        <ele>493.77</ele>
        <time>2023-03-25T11:29:44Z</time>
      </trkpt>
      <trkpt lat="45.33636" lon="4.18063">
        <ele>492.81</ele>
        <time>2023-03-25T11:30:12Z</time>
      </trkpt>
      <trkpt lat="45.33636" lon="4.18071">
        <ele>490.41</ele>
        <time>2023-03-25T11:30:47Z</time>
      </trkpt>
      <trkpt lat="45.33641" lon="4.18096">
        <ele>493.29</ele>
        <time>2023-03-25T11:31:03Z</time>
      </trkpt>
      <trkpt lat="45.33649" lon="4.18129">
        <ele>499.54</ele>
        <time>2023-03-25T11:31:18Z</time>
      </trkpt>
      <trkpt lat="45.33654" lon="4.18163">
        <ele>506.27</ele>
        <time>2023-03-25T11:31:35Z</time>
      </trkpt>
      <trkpt lat="45.33659" lon="4.18181">
        <ele>508.19</ele>
        <time>2023-03-25T11:31:44Z</time>
      </trkpt>
      <trkpt lat="45.33667" lon="4.18217">
        <ele>511.08</ele>
        <time>2023-03-25T11:32:03Z</time>
      </trkpt>
      <trkpt lat="45.33668" lon="4.18238">
        <ele>513.48</ele>
        <time>2023-03-25T11:32:22Z</time>
      </trkpt>
      <trkpt lat="45.33674" lon="4.18255">
        <ele>513</ele>
        <time>2023-03-25T11:32:36Z</time>
      </trkpt>
      <trkpt lat="45.33695" lon="4.18283">
        <ele>504.83</ele>
        <time>2023-03-25T11:32:54Z</time>
      </trkpt>
      <trkpt lat="45.33715" lon="4.18311">
        <ele>494.26</ele>
        <time>2023-03-25T11:33:14Z</time>
      </trkpt>
      <trkpt lat="45.3372" lon="4.18324">
        <ele>494.26</ele>
        <time>2023-03-25T11:33:29Z</time>
      </trkpt>
      <trkpt lat="45.3373" lon="4.18342">
        <ele>497.14</ele>
        <time>2023-03-25T11:33:42Z</time>
      </trkpt>
      <trkpt lat="45.33744" lon="4.18353">
        <ele>500.98</ele>
        <time>2023-03-25T11:33:55Z</time>
      </trkpt>
      <trkpt lat="45.33746" lon="4.18354">
        <ele>500.98</ele>
        <time>2023-03-25T11:33:56Z</time>
      </trkpt>
      <trkpt lat="45.33767" lon="4.18356">
        <ele>503.87</ele>
        <time>2023-03-25T11:34:11Z</time>
      </trkpt>
      <trkpt lat="45.33772" lon="4.18356">
        <ele>505.79</ele>
        <time>2023-03-25T11:34:15Z</time>
      </trkpt>
      <trkpt lat="45.33773" lon="4.18355">
        <ele>506.27</ele>
        <time>2023-03-25T11:34:16Z</time>
      </trkpt>
      <trkpt lat="45.33774" lon="4.18354">
        <ele>506.75</ele>
        <time>2023-03-25T11:34:17Z</time>
      </trkpt>
      <trkpt lat="45.33769" lon="4.18354">
        <ele>510.12</ele>
        <time>2023-03-25T11:34:27Z</time>
      </trkpt>
      <trkpt lat="45.33764" lon="4.18353">
        <ele>512.04</ele>
        <time>2023-03-25T11:34:31Z</time>
      </trkpt>
      <trkpt lat="45.33763" lon="4.18351">
        <ele>512.04</ele>
        <time>2023-03-25T11:34:32Z</time>
      </trkpt>
      <trkpt lat="45.33762" lon="4.1835">
        <ele>512.04</ele>
        <time>2023-03-25T11:34:33Z</time>
      </trkpt>
      <trkpt lat="45.33746" lon="4.18333">
        <ele>517.33</ele>
        <time>2023-03-25T11:34:50Z</time>
      </trkpt>
      <trkpt lat="45.33735" lon="4.18304">
        <ele>522.13</ele>
        <time>2023-03-25T11:35:09Z</time>
      </trkpt>
      <trkpt lat="45.33736" lon="4.18302">
        <ele>522.13</ele>
        <time>2023-03-25T11:35:10Z</time>
      </trkpt>
      <trkpt lat="45.33752" lon="4.18288">
        <ele>527.42</ele>
        <time>2023-03-25T11:35:26Z</time>
      </trkpt>
      <trkpt lat="45.33756" lon="4.18287">
        <ele>529.82</ele>
        <time>2023-03-25T11:35:30Z</time>
      </trkpt>
      <trkpt lat="45.33788" lon="4.18292">
        <ele>537.03</ele>
        <time>2023-03-25T11:35:50Z</time>
      </trkpt>
      <trkpt lat="45.33818" lon="4.18282">
        <ele>542.32</ele>
        <time>2023-03-25T11:36:11Z</time>
      </trkpt>
      <trkpt lat="45.33852" lon="4.18273">
        <ele>545.69</ele>
        <time>2023-03-25T11:36:33Z</time>
      </trkpt>
      <trkpt lat="45.33877" lon="4.18266">
        <ele>548.57</ele>
        <time>2023-03-25T11:36:50Z</time>
      </trkpt>
      <trkpt lat="45.33899" lon="4.18251">
        <ele>550.49</ele>
        <time>2023-03-25T11:37:04Z</time>
      </trkpt>
      <trkpt lat="45.33923" lon="4.18233">
        <ele>553.86</ele>
        <time>2023-03-25T11:37:22Z</time>
      </trkpt>
      <trkpt lat="45.33953" lon="4.18222">
        <ele>559.14</ele>
        <time>2023-03-25T11:37:43Z</time>
      </trkpt>
      <trkpt lat="45.33979" lon="4.18202">
        <ele>561.07</ele>
        <time>2023-03-25T11:38:03Z</time>
      </trkpt>
      <trkpt lat="45.34005" lon="4.18191">
        <ele>562.03</ele>
        <time>2023-03-25T11:38:22Z</time>
      </trkpt>
      <trkpt lat="45.34029" lon="4.18172">
        <ele>562.51</ele>
        <time>2023-03-25T11:38:41Z</time>
      </trkpt>
      <trkpt lat="45.34052" lon="4.18159">
        <ele>561.07</ele>
        <time>2023-03-25T11:38:58Z</time>
      </trkpt>
      <trkpt lat="45.34076" lon="4.18145">
        <ele>561.07</ele>
        <time>2023-03-25T11:39:17Z</time>
      </trkpt>
      <trkpt lat="45.34097" lon="4.18124">
        <ele>561.07</ele>
        <time>2023-03-25T11:39:35Z</time>
      </trkpt>
      <trkpt lat="45.34113" lon="4.18092">
        <ele>559.62</ele>
        <time>2023-03-25T11:39:54Z</time>
      </trkpt>
      <trkpt lat="45.34125" lon="4.18054">
        <ele>559.62</ele>
        <time>2023-03-25T11:40:15Z</time>
      </trkpt>
      <trkpt lat="45.3413" lon="4.18033">
        <ele>559.14</ele>
        <time>2023-03-25T11:40:27Z</time>
      </trkpt>
      <trkpt lat="45.34144" lon="4.18002">
        <ele>560.11</ele>
        <time>2023-03-25T11:40:45Z</time>
      </trkpt>
      <trkpt lat="45.3416" lon="4.17978">
        <ele>561.55</ele>
        <time>2023-03-25T11:41:03Z</time>
      </trkpt>
      <trkpt lat="45.34187" lon="4.17951">
        <ele>562.51</ele>
        <time>2023-03-25T11:41:23Z</time>
      </trkpt>
      <trkpt lat="45.34195" lon="4.17916">
        <ele>563.47</ele>
        <time>2023-03-25T11:41:40Z</time>
      </trkpt>
      <trkpt lat="45.34201" lon="4.1789">
        <ele>565.87</ele>
        <time>2023-03-25T11:41:53Z</time>
      </trkpt>
      <trkpt lat="45.34206" lon="4.17881">
        <ele>567.32</ele>
        <time>2023-03-25T11:42:00Z</time>
      </trkpt>
      <trkpt lat="45.34234" lon="4.17865">
        <ele>572.12</ele>
        <time>2023-03-25T11:42:18Z</time>
      </trkpt>
      <trkpt lat="45.34249" lon="4.17845">
        <ele>573.56</ele>
        <time>2023-03-25T11:42:33Z</time>
      </trkpt>
      <trkpt lat="45.34268" lon="4.17819">
        <ele>572.6</ele>
        <time>2023-03-25T11:42:50Z</time>
      </trkpt>
      <trkpt lat="45.34298" lon="4.17795">
        <ele>572.12</ele>
        <time>2023-03-25T11:43:12Z</time>
      </trkpt>
      <trkpt lat="45.34327" lon="4.17779">
        <ele>567.32</ele>
        <time>2023-03-25T11:43:32Z</time>
      </trkpt>
      <trkpt lat="45.34355" lon="4.1777">
        <ele>565.39</ele>
        <time>2023-03-25T11:43:51Z</time>
      </trkpt>
      <trkpt lat="45.34384" lon="4.17752">
        <ele>565.39</ele>
        <time>2023-03-25T11:44:12Z</time>
      </trkpt>
      <trkpt lat="45.34407" lon="4.1773">
        <ele>565.87</ele>
        <time>2023-03-25T11:44:30Z</time>
      </trkpt>
      <trkpt lat="45.34435" lon="4.17696">
        <ele>567.8</ele>
        <time>2023-03-25T11:44:53Z</time>
      </trkpt>
      <trkpt lat="45.34462" lon="4.1767">
        <ele>568.76</ele>
        <time>2023-03-25T11:45:13Z</time>
      </trkpt>
      <trkpt lat="45.34491" lon="4.17646">
        <ele>569.24</ele>
        <time>2023-03-25T11:45:34Z</time>
      </trkpt>
      <trkpt lat="45.34509" lon="4.17651">
        <ele>569.24</ele>
        <time>2023-03-25T11:45:48Z</time>
      </trkpt>
      <trkpt lat="45.34539" lon="4.17645">
        <ele>570.68</ele>
        <time>2023-03-25T11:46:07Z</time>
      </trkpt>
      <trkpt lat="45.34576" lon="4.17648">
        <ele>572.6</ele>
        <time>2023-03-25T11:46:31Z</time>
      </trkpt>
      <trkpt lat="45.34605" lon="4.17625">
        <ele>575.97</ele>
        <time>2023-03-25T11:46:53Z</time>
      </trkpt>
      <trkpt lat="45.34634" lon="4.17615">
        <ele>577.89</ele>
        <time>2023-03-25T11:47:13Z</time>
      </trkpt>
      <trkpt lat="45.34668" lon="4.17613">
        <ele>579.81</ele>
        <time>2023-03-25T11:47:36Z</time>
      </trkpt>
      <trkpt lat="45.34706" lon="4.17614">
        <ele>580.29</ele>
        <time>2023-03-25T11:48:00Z</time>
      </trkpt>
      <trkpt lat="45.34734" lon="4.1761">
        <ele>581.73</ele>
        <time>2023-03-25T11:48:16Z</time>
      </trkpt>
      <trkpt lat="45.34764" lon="4.17588">
        <ele>585.58</ele>
        <time>2023-03-25T11:48:39Z</time>
      </trkpt>
      <trkpt lat="45.348" lon="4.17563">
        <ele>592.31</ele>
        <time>2023-03-25T11:49:03Z</time>
      </trkpt>
      <trkpt lat="45.34832" lon="4.17563">
        <ele>589.91</ele>
        <time>2023-03-25T11:49:22Z</time>
      </trkpt>
      <trkpt lat="45.34866" lon="4.17553">
        <ele>593.75</ele>
        <time>2023-03-25T11:49:45Z</time>
      </trkpt>
      <trkpt lat="45.34903" lon="4.1754">
        <ele>595.19</ele>
        <time>2023-03-25T11:50:10Z</time>
      </trkpt>
      <trkpt lat="45.34942" lon="4.1753">
        <ele>599.52</ele>
        <time>2023-03-25T11:50:36Z</time>
      </trkpt>
      <trkpt lat="45.34973" lon="4.17519">
        <ele>600.48</ele>
        <time>2023-03-25T11:50:56Z</time>
      </trkpt>
      <trkpt lat="45.35008" lon="4.17508">
        <ele>600.48</ele>
        <time>2023-03-25T11:51:18Z</time>
      </trkpt>
      <trkpt lat="45.35051" lon="4.1749">
        <ele>600</ele>
        <time>2023-03-25T11:51:44Z</time>
      </trkpt>
      <trkpt lat="45.35087" lon="4.17472">
        <ele>601.44</ele>
        <time>2023-03-25T11:52:07Z</time>
      </trkpt>
      <trkpt lat="45.35119" lon="4.17453">
        <ele>602.88</ele>
        <time>2023-03-25T11:52:28Z</time>
      </trkpt>
      <trkpt lat="45.35159" lon="4.17428">
        <ele>604.81</ele>
        <time>2023-03-25T11:52:55Z</time>
      </trkpt>
      <trkpt lat="45.3519" lon="4.17418">
        <ele>605.77</ele>
        <time>2023-03-25T11:53:17Z</time>
      </trkpt>
      <trkpt lat="45.35231" lon="4.17415">
        <ele>602.88</ele>
        <time>2023-03-25T11:53:43Z</time>
      </trkpt>
      <trkpt lat="45.35273" lon="4.1741">
        <ele>604.81</ele>
        <time>2023-03-25T11:54:07Z</time>
      </trkpt>
      <trkpt lat="45.3531" lon="4.17402">
        <ele>605.77</ele>
        <time>2023-03-25T11:54:31Z</time>
      </trkpt>
      <trkpt lat="45.35345" lon="4.1739">
        <ele>603.36</ele>
        <time>2023-03-25T11:54:54Z</time>
      </trkpt>
      <trkpt lat="45.35381" lon="4.17373">
        <ele>597.12</ele>
        <time>2023-03-25T11:55:18Z</time>
      </trkpt>
      <trkpt lat="45.35418" lon="4.17358">
        <ele>597.12</ele>
        <time>2023-03-25T11:55:39Z</time>
      </trkpt>
      <trkpt lat="45.35442" lon="4.17347">
        <ele>598.08</ele>
        <time>2023-03-25T11:55:56Z</time>
      </trkpt>
      <trkpt lat="45.35444" lon="4.17348">
        <ele>598.08</ele>
        <time>2023-03-25T11:56:13Z</time>
      </trkpt>
      <trkpt lat="45.3545" lon="4.17346">
        <ele>599.52</ele>
        <time>2023-03-25T11:56:34Z</time>
      </trkpt>
      <trkpt lat="45.35475" lon="4.17331">
        <ele>601.44</ele>
        <time>2023-03-25T11:56:53Z</time>
      </trkpt>
      <trkpt lat="45.35509" lon="4.17322">
        <ele>605.29</ele>
        <time>2023-03-25T11:57:15Z</time>
      </trkpt>
      <trkpt lat="45.35558" lon="4.17313">
        <ele>609.61</ele>
        <time>2023-03-25T11:57:26Z</time>
      </trkpt>
      <trkpt lat="45.35623" lon="4.17289">
        <ele>613.94</ele>
        <time>2023-03-25T11:57:40Z</time>
      </trkpt>
      <trkpt lat="45.35687" lon="4.17265">
        <ele>617.78</ele>
        <time>2023-03-25T11:57:54Z</time>
      </trkpt>
      <trkpt lat="45.35763" lon="4.17246">
        <ele>623.55</ele>
        <time>2023-03-25T11:58:10Z</time>
      </trkpt>
      <trkpt lat="45.35833" lon="4.17231">
        <ele>633.17</ele>
        <time>2023-03-25T11:58:24Z</time>
      </trkpt>
      <trkpt lat="45.35854" lon="4.17223">
        <ele>637.01</ele>
        <time>2023-03-25T11:58:29Z</time>
      </trkpt>
      <trkpt lat="45.35932" lon="4.17205">
        <ele>644.22</ele>
        <time>2023-03-25T11:58:44Z</time>
      </trkpt>
      <trkpt lat="45.36006" lon="4.17167">
        <ele>647.1</ele>
        <time>2023-03-25T11:58:59Z</time>
      </trkpt>
      <trkpt lat="45.36085" lon="4.17091">
        <ele>643.26</ele>
        <time>2023-03-25T11:59:16Z</time>
      </trkpt>
      <trkpt lat="45.36089" lon="4.17086">
        <ele>643.26</ele>
        <time>2023-03-25T11:59:17Z</time>
      </trkpt>
      <trkpt lat="45.36097" lon="4.17077">
        <ele>642.78</ele>
        <time>2023-03-25T11:59:19Z</time>
      </trkpt>
      <trkpt lat="45.36123" lon="4.17056">
        <ele>641.34</ele>
        <time>2023-03-25T11:59:25Z</time>
      </trkpt>
      <trkpt lat="45.36129" lon="4.17054">
        <ele>641.34</ele>
        <time>2023-03-25T11:59:26Z</time>
      </trkpt>
      <trkpt lat="45.36134" lon="4.17052">
        <ele>641.34</ele>
        <time>2023-03-25T11:59:27Z</time>
      </trkpt>
      <trkpt lat="45.36145" lon="4.1705">
        <ele>641.82</ele>
        <time>2023-03-25T11:59:29Z</time>
      </trkpt>
      <trkpt lat="45.36151" lon="4.1705">
        <ele>642.3</ele>
        <time>2023-03-25T11:59:30Z</time>
      </trkpt>
      <trkpt lat="45.36174" lon="4.17053">
        <ele>642.78</ele>
        <time>2023-03-25T11:59:34Z</time>
      </trkpt>
      <trkpt lat="45.36235" lon="4.17095">
        <ele>644.7</ele>
        <time>2023-03-25T11:59:47Z</time>
      </trkpt>
      <trkpt lat="45.3627" lon="4.17127">
        <ele>647.1</ele>
        <time>2023-03-25T12:00:01Z</time>
      </trkpt>
      <trkpt lat="45.36299" lon="4.17128">
        <ele>650.47</ele>
        <time>2023-03-25T12:00:14Z</time>
      </trkpt>
      <trkpt lat="45.36317" lon="4.1712">
        <ele>655.28</ele>
        <time>2023-03-25T12:00:34Z</time>
      </trkpt>
      <trkpt lat="45.36318" lon="4.17123">
        <ele>655.28</ele>
        <time>2023-03-25T12:00:40Z</time>
      </trkpt>
      <trkpt lat="45.36318" lon="4.17125">
        <ele>654.8</ele>
        <time>2023-03-25T12:00:41Z</time>
      </trkpt>
      <trkpt lat="45.36304" lon="4.17147">
        <ele>649.03</ele>
        <time>2023-03-25T12:00:57Z</time>
      </trkpt>
      <trkpt lat="45.36303" lon="4.17148">
        <ele>649.03</ele>
        <time>2023-03-25T12:00:58Z</time>
      </trkpt>
      <trkpt lat="45.36283" lon="4.17168">
        <ele>646.62</ele>
        <time>2023-03-25T12:01:11Z</time>
      </trkpt>
      <trkpt lat="45.36263" lon="4.172">
        <ele>643.74</ele>
        <time>2023-03-25T12:01:29Z</time>
      </trkpt>
      <trkpt lat="45.3625" lon="4.17232">
        <ele>649.99</ele>
        <time>2023-03-25T12:01:48Z</time>
      </trkpt>
      <trkpt lat="45.36231" lon="4.17256">
        <ele>653.35</ele>
        <time>2023-03-25T12:02:04Z</time>
      </trkpt>
      <trkpt lat="45.36212" lon="4.17274">
        <ele>653.83</ele>
        <time>2023-03-25T12:02:19Z</time>
      </trkpt>
      <trkpt lat="45.36194" lon="4.17299">
        <ele>653.35</ele>
        <time>2023-03-25T12:02:36Z</time>
      </trkpt>
      <trkpt lat="45.36177" lon="4.17326">
        <ele>649.99</ele>
        <time>2023-03-25T12:02:51Z</time>
      </trkpt>
      <trkpt lat="45.36156" lon="4.17352">
        <ele>644.22</ele>
        <time>2023-03-25T12:03:07Z</time>
      </trkpt>
      <trkpt lat="45.36144" lon="4.17365">
        <ele>640.38</ele>
        <time>2023-03-25T12:03:17Z</time>
      </trkpt>
      <trkpt lat="45.36124" lon="4.17383">
        <ele>634.13</ele>
        <time>2023-03-25T12:03:32Z</time>
      </trkpt>
      <trkpt lat="45.36122" lon="4.17383">
        <ele>633.65</ele>
        <time>2023-03-25T12:03:33Z</time>
      </trkpt>
      <trkpt lat="45.36121" lon="4.17384">
        <ele>633.17</ele>
        <time>2023-03-25T12:03:34Z</time>
      </trkpt>
      <trkpt lat="45.36102" lon="4.17397">
        <ele>628.36</ele>
        <time>2023-03-25T12:03:48Z</time>
      </trkpt>
      <trkpt lat="45.36082" lon="4.17415">
        <ele>624.99</ele>
        <time>2023-03-25T12:04:05Z</time>
      </trkpt>
      <trkpt lat="45.36068" lon="4.17439">
        <ele>624.03</ele>
        <time>2023-03-25T12:04:19Z</time>
      </trkpt>
      <trkpt lat="45.36052" lon="4.17467">
        <ele>625.47</ele>
        <time>2023-03-25T12:04:34Z</time>
      </trkpt>
      <trkpt lat="45.36045" lon="4.17474">
        <ele>624.99</ele>
        <time>2023-03-25T12:04:48Z</time>
      </trkpt>
      <trkpt lat="45.36038" lon="4.17482">
        <ele>625.96</ele>
        <time>2023-03-25T12:05:02Z</time>
      </trkpt>
      <trkpt lat="45.36034" lon="4.17489">
        <ele>625.47</ele>
        <time>2023-03-25T12:05:21Z</time>
      </trkpt>
      <trkpt lat="45.36032" lon="4.1749">
        <ele>626.44</ele>
        <time>2023-03-25T12:05:47Z</time>
      </trkpt>
      <trkpt lat="45.3603" lon="4.17488">
        <ele>625.96</ele>
        <time>2023-03-25T12:06:02Z</time>
      </trkpt>
      <trkpt lat="45.36007" lon="4.17511">
        <ele>624.03</ele>
        <time>2023-03-25T12:06:20Z</time>
      </trkpt>
      <trkpt lat="45.35984" lon="4.1754">
        <ele>622.11</ele>
        <time>2023-03-25T12:06:41Z</time>
      </trkpt>
      <trkpt lat="45.35971" lon="4.17572">
        <ele>618.26</ele>
        <time>2023-03-25T12:07:00Z</time>
      </trkpt>
      <trkpt lat="45.35957" lon="4.17612">
        <ele>618.26</ele>
        <time>2023-03-25T12:07:20Z</time>
      </trkpt>
      <trkpt lat="45.35956" lon="4.17642">
        <ele>615.86</ele>
        <time>2023-03-25T12:07:36Z</time>
      </trkpt>
      <trkpt lat="45.35955" lon="4.1768">
        <ele>609.13</ele>
        <time>2023-03-25T12:07:51Z</time>
      </trkpt>
      <trkpt lat="45.35952" lon="4.17714">
        <ele>602.4</ele>
        <time>2023-03-25T12:08:08Z</time>
      </trkpt>
      <trkpt lat="45.35944" lon="4.17745">
        <ele>604.33</ele>
        <time>2023-03-25T12:08:25Z</time>
      </trkpt>
      <trkpt lat="45.35935" lon="4.17781">
        <ele>602.88</ele>
        <time>2023-03-25T12:08:44Z</time>
      </trkpt>
      <trkpt lat="45.35933" lon="4.17786">
        <ele>602.88</ele>
        <time>2023-03-25T12:08:47Z</time>
      </trkpt>
      <trkpt lat="45.35932" lon="4.17787">
        <ele>602.88</ele>
        <time>2023-03-25T12:08:48Z</time>
      </trkpt>
      <trkpt lat="45.35931" lon="4.17789">
        <ele>602.88</ele>
        <time>2023-03-25T12:08:49Z</time>
      </trkpt>
      <trkpt lat="45.35926" lon="4.178">
        <ele>603.36</ele>
        <time>2023-03-25T12:08:56Z</time>
      </trkpt>
      <trkpt lat="45.35924" lon="4.17801">
        <ele>603.36</ele>
        <time>2023-03-25T12:08:57Z</time>
      </trkpt>
      <trkpt lat="45.35906" lon="4.17823">
        <ele>603.85</ele>
        <time>2023-03-25T12:09:13Z</time>
      </trkpt>
      <trkpt lat="45.35901" lon="4.17833">
        <ele>603.85</ele>
        <time>2023-03-25T12:09:19Z</time>
      </trkpt>
      <trkpt lat="45.35895" lon="4.17863">
        <ele>602.88</ele>
        <time>2023-03-25T12:09:34Z</time>
      </trkpt>
      <trkpt lat="45.35893" lon="4.17871">
        <ele>600.96</ele>
        <time>2023-03-25T12:09:49Z</time>
      </trkpt>
      <trkpt lat="45.35892" lon="4.17872">
        <ele>600.96</ele>
        <time>2023-03-25T12:10:13Z</time>
      </trkpt>
      <trkpt lat="45.35894" lon="4.17873">
        <ele>601.92</ele>
        <time>2023-03-25T12:10:30Z</time>
      </trkpt>
      <trkpt lat="45.35894" lon="4.17886">
        <ele>602.4</ele>
        <time>2023-03-25T12:10:44Z</time>
      </trkpt>
      <trkpt lat="45.35894" lon="4.17892">
        <ele>601.92</ele>
        <time>2023-03-25T12:10:48Z</time>
      </trkpt>
      <trkpt lat="45.35899" lon="4.179">
        <ele>603.85</ele>
        <time>2023-03-25T12:11:05Z</time>
      </trkpt>
      <trkpt lat="45.35901" lon="4.17896">
        <ele>605.29</ele>
        <time>2023-03-25T12:11:24Z</time>
      </trkpt>
      <trkpt lat="45.35904" lon="4.179">
        <ele>603.85</ele>
        <time>2023-03-25T12:11:43Z</time>
      </trkpt>
      <trkpt lat="45.35906" lon="4.17904">
        <ele>603.36</ele>
        <time>2023-03-25T12:12:06Z</time>
      </trkpt>
      <trkpt lat="45.35901" lon="4.179">
        <ele>608.17</ele>
        <time>2023-03-25T12:12:36Z</time>
      </trkpt>
      <trkpt lat="45.35904" lon="4.17897">
        <ele>606.73</ele>
        <time>2023-03-25T12:12:58Z</time>
      </trkpt>
      <trkpt lat="45.359" lon="4.17902">
        <ele>608.65</ele>
        <time>2023-03-25T12:13:18Z</time>
      </trkpt>
      <trkpt lat="45.35902" lon="4.17902">
        <ele>606.73</ele>
        <time>2023-03-25T12:13:35Z</time>
      </trkpt>
      <trkpt lat="45.35905" lon="4.17905">
        <ele>603.85</ele>
        <time>2023-03-25T12:13:50Z</time>
      </trkpt>
      <trkpt lat="45.35904" lon="4.17903">
        <ele>604.33</ele>
        <time>2023-03-25T12:14:09Z</time>
      </trkpt>
      <trkpt lat="45.35904" lon="4.17903">
        <ele>602.88</ele>
        <time>2023-03-25T12:14:34Z</time>
      </trkpt>
      <trkpt lat="45.35904" lon="4.17897">
        <ele>603.36</ele>
        <time>2023-03-25T12:14:54Z</time>
      </trkpt>
      <trkpt lat="45.35899" lon="4.17887">
        <ele>606.73</ele>
        <time>2023-03-25T12:15:19Z</time>
      </trkpt>
      <trkpt lat="45.35906" lon="4.17902">
        <ele>610.57</ele>
        <time>2023-03-25T12:15:44Z</time>
      </trkpt>
      <trkpt lat="45.35908" lon="4.17905">
        <ele>608.17</ele>
        <time>2023-03-25T12:16:08Z</time>
      </trkpt>
      <trkpt lat="45.35904" lon="4.17906">
        <ele>604.33</ele>
        <time>2023-03-25T12:16:33Z</time>
      </trkpt>
      <trkpt lat="45.35905" lon="4.17905">
        <ele>605.29</ele>
        <time>2023-03-25T12:16:54Z</time>
      </trkpt>
      <trkpt lat="45.35903" lon="4.179">
        <ele>606.73</ele>
        <time>2023-03-25T12:17:15Z</time>
      </trkpt>
      <trkpt lat="45.35899" lon="4.17906">
        <ele>606.25</ele>
        <time>2023-03-25T12:17:42Z</time>
      </trkpt>
      <trkpt lat="45.35903" lon="4.17897">
        <ele>606.25</ele>
        <time>2023-03-25T12:18:10Z</time>
      </trkpt>
      <trkpt lat="45.35903" lon="4.17892">
        <ele>600.96</ele>
        <time>2023-03-25T12:18:31Z</time>
      </trkpt>
      <trkpt lat="45.35898" lon="4.17901">
        <ele>600.96</ele>
        <time>2023-03-25T12:18:47Z</time>
      </trkpt>
      <trkpt lat="45.35891" lon="4.17902">
        <ele>598.56</ele>
        <time>2023-03-25T12:19:02Z</time>
      </trkpt>
      <trkpt lat="45.35891" lon="4.17901">
        <ele>598.08</ele>
        <time>2023-03-25T12:19:21Z</time>
      </trkpt>
      <trkpt lat="45.35887" lon="4.17907">
        <ele>597.12</ele>
        <time>2023-03-25T12:19:36Z</time>
      </trkpt>
      <trkpt lat="45.35886" lon="4.17908">
        <ele>596.64</ele>
        <time>2023-03-25T12:19:59Z</time>
      </trkpt>
      <trkpt lat="45.35883" lon="4.17906">
        <ele>597.12</ele>
        <time>2023-03-25T12:20:41Z</time>
      </trkpt>
      <trkpt lat="45.35884" lon="4.17904">
        <ele>596.64</ele>
        <time>2023-03-25T12:21:13Z</time>
      </trkpt>
      <trkpt lat="45.35883" lon="4.17908">
        <ele>597.6</ele>
        <time>2023-03-25T12:21:38Z</time>
      </trkpt>
      <trkpt lat="45.3588" lon="4.17912">
        <ele>604.81</ele>
        <time>2023-03-25T12:22:01Z</time>
      </trkpt>
      <trkpt lat="45.35881" lon="4.17906">
        <ele>602.88</ele>
        <time>2023-03-25T12:22:16Z</time>
      </trkpt>
      <trkpt lat="45.35883" lon="4.17911">
        <ele>602.4</ele>
        <time>2023-03-25T12:22:50Z</time>
      </trkpt>
      <trkpt lat="45.35881" lon="4.17906">
        <ele>601.92</ele>
        <time>2023-03-25T12:23:08Z</time>
      </trkpt>
      <trkpt lat="45.35879" lon="4.17902">
        <ele>604.33</ele>
        <time>2023-03-25T12:23:38Z</time>
      </trkpt>
      <trkpt lat="45.35882" lon="4.17905">
        <ele>605.29</ele>
        <time>2023-03-25T12:24:05Z</time>
      </trkpt>
      <trkpt lat="45.35882" lon="4.17908">
        <ele>607.21</ele>
        <time>2023-03-25T12:24:36Z</time>
      </trkpt>
      <trkpt lat="45.35884" lon="4.17906">
        <ele>607.21</ele>
        <time>2023-03-25T12:25:04Z</time>
      </trkpt>
      <trkpt lat="45.35886" lon="4.17909">
        <ele>601.92</ele>
        <time>2023-03-25T12:25:21Z</time>
      </trkpt>
      <trkpt lat="45.35886" lon="4.17909">
        <ele>599.52</ele>
        <time>2023-03-25T12:25:58Z</time>
      </trkpt>
      <trkpt lat="45.35891" lon="4.17905">
        <ele>597.12</ele>
        <time>2023-03-25T12:26:30Z</time>
      </trkpt>
      <trkpt lat="45.35884" lon="4.17905">
        <ele>601.92</ele>
        <time>2023-03-25T12:27:00Z</time>
      </trkpt>
      <trkpt lat="45.35888" lon="4.17909">
        <ele>598.56</ele>
        <time>2023-03-25T12:27:23Z</time>
      </trkpt>
      <trkpt lat="45.35886" lon="4.17905">
        <ele>596.64</ele>
        <time>2023-03-25T12:27:55Z</time>
      </trkpt>
      <trkpt lat="45.35886" lon="4.17908">
        <ele>592.79</ele>
        <time>2023-03-25T12:28:31Z</time>
      </trkpt>
      <trkpt lat="45.35883" lon="4.17907">
        <ele>594.23</ele>
        <time>2023-03-25T12:29:06Z</time>
      </trkpt>
      <trkpt lat="45.35884" lon="4.17905">
        <ele>596.64</ele>
        <time>2023-03-25T12:29:41Z</time>
      </trkpt>
      <trkpt lat="45.35886" lon="4.17909">
        <ele>596.15</ele>
        <time>2023-03-25T12:30:13Z</time>
      </trkpt>
      <trkpt lat="45.35885" lon="4.17904">
        <ele>594.23</ele>
        <time>2023-03-25T12:30:43Z</time>
      </trkpt>
      <trkpt lat="45.35889" lon="4.17906">
        <ele>596.15</ele>
        <time>2023-03-25T12:31:09Z</time>
      </trkpt>
      <trkpt lat="45.3589" lon="4.17906">
        <ele>599.04</ele>
        <time>2023-03-25T12:31:40Z</time>
      </trkpt>
      <trkpt lat="45.35894" lon="4.1791">
        <ele>599.52</ele>
        <time>2023-03-25T12:32:25Z</time>
      </trkpt>
      <trkpt lat="45.35892" lon="4.17912">
        <ele>598.08</ele>
        <time>2023-03-25T12:33:03Z</time>
      </trkpt>
      <trkpt lat="45.35893" lon="4.17907">
        <ele>593.27</ele>
        <time>2023-03-25T12:33:42Z</time>
      </trkpt>
      <trkpt lat="45.35893" lon="4.17912">
        <ele>593.27</ele>
        <time>2023-03-25T12:34:13Z</time>
      </trkpt>
      <trkpt lat="45.35892" lon="4.17909">
        <ele>593.27</ele>
        <time>2023-03-25T12:34:43Z</time>
      </trkpt>
      <trkpt lat="45.35888" lon="4.17906">
        <ele>591.35</ele>
        <time>2023-03-25T12:35:17Z</time>
      </trkpt>
      <trkpt lat="45.35889" lon="4.17907">
        <ele>591.35</ele>
        <time>2023-03-25T12:35:54Z</time>
      </trkpt>
      <trkpt lat="45.35883" lon="4.17904">
        <ele>591.83</ele>
        <time>2023-03-25T12:36:31Z</time>
      </trkpt>
      <trkpt lat="45.35881" lon="4.17897">
        <ele>594.23</ele>
        <time>2023-03-25T12:37:02Z</time>
      </trkpt>
      <trkpt lat="45.35885" lon="4.17897">
        <ele>595.67</ele>
        <time>2023-03-25T12:37:33Z</time>
      </trkpt>
      <trkpt lat="45.35883" lon="4.17901">
        <ele>606.25</ele>
        <time>2023-03-25T12:38:07Z</time>
      </trkpt>
      <trkpt lat="45.35879" lon="4.17905">
        <ele>604.81</ele>
        <time>2023-03-25T12:38:35Z</time>
      </trkpt>
      <trkpt lat="45.35877" lon="4.17905">
        <ele>603.36</ele>
        <time>2023-03-25T12:39:12Z</time>
      </trkpt>
      <trkpt lat="45.35879" lon="4.17909">
        <ele>599.52</ele>
        <time>2023-03-25T12:39:49Z</time>
      </trkpt>
      <trkpt lat="45.35881" lon="4.17909">
        <ele>600</ele>
        <time>2023-03-25T12:40:21Z</time>
      </trkpt>
      <trkpt lat="45.35884" lon="4.17906">
        <ele>600.96</ele>
        <time>2023-03-25T12:41:01Z</time>
      </trkpt>
      <trkpt lat="45.35885" lon="4.17909">
        <ele>603.36</ele>
        <time>2023-03-25T12:41:41Z</time>
      </trkpt>
      <trkpt lat="45.35882" lon="4.17909">
        <ele>603.85</ele>
        <time>2023-03-25T12:42:08Z</time>
      </trkpt>
      <trkpt lat="45.35888" lon="4.17911">
        <ele>605.29</ele>
        <time>2023-03-25T12:42:41Z</time>
      </trkpt>
      <trkpt lat="45.3589" lon="4.17913">
        <ele>606.73</ele>
        <time>2023-03-25T12:43:11Z</time>
      </trkpt>
      <trkpt lat="45.35885" lon="4.17911">
        <ele>605.29</ele>
        <time>2023-03-25T12:43:42Z</time>
      </trkpt>
      <trkpt lat="45.3588" lon="4.17908">
        <ele>607.21</ele>
        <time>2023-03-25T12:44:18Z</time>
      </trkpt>
      <trkpt lat="45.35883" lon="4.17906">
        <ele>607.21</ele>
        <time>2023-03-25T12:44:49Z</time>
      </trkpt>
      <trkpt lat="45.35886" lon="4.17911">
        <ele>607.21</ele>
        <time>2023-03-25T12:45:26Z</time>
      </trkpt>
      <trkpt lat="45.35892" lon="4.17914">
        <ele>608.65</ele>
        <time>2023-03-25T12:46:00Z</time>
      </trkpt>
      <trkpt lat="45.35893" lon="4.17909">
        <ele>608.17</ele>
        <time>2023-03-25T12:46:39Z</time>
      </trkpt>
      <trkpt lat="45.35887" lon="4.17908">
        <ele>609.13</ele>
        <time>2023-03-25T12:47:08Z</time>
      </trkpt>
      <trkpt lat="45.35888" lon="4.17913">
        <ele>613.46</ele>
        <time>2023-03-25T12:47:48Z</time>
      </trkpt>
      <trkpt lat="45.35889" lon="4.17911">
        <ele>612.98</ele>
        <time>2023-03-25T12:48:29Z</time>
      </trkpt>
      <trkpt lat="45.35883" lon="4.17911">
        <ele>618.26</ele>
        <time>2023-03-25T12:49:06Z</time>
      </trkpt>
      <trkpt lat="45.35887" lon="4.17907">
        <ele>619.23</ele>
        <time>2023-03-25T12:49:30Z</time>
      </trkpt>
      <trkpt lat="45.35888" lon="4.17909">
        <ele>619.71</ele>
        <time>2023-03-25T12:49:59Z</time>
      </trkpt>
      <trkpt lat="45.35886" lon="4.17906">
        <ele>620.67</ele>
        <time>2023-03-25T12:50:27Z</time>
      </trkpt>
      <trkpt lat="45.35887" lon="4.17904">
        <ele>619.23</ele>
        <time>2023-03-25T12:50:57Z</time>
      </trkpt>
      <trkpt lat="45.35889" lon="4.17908">
        <ele>616.34</ele>
        <time>2023-03-25T12:51:40Z</time>
      </trkpt>
      <trkpt lat="45.35884" lon="4.17909">
        <ele>614.9</ele>
        <time>2023-03-25T12:52:17Z</time>
      </trkpt>
      <trkpt lat="45.35886" lon="4.17911">
        <ele>613.94</ele>
        <time>2023-03-25T12:52:57Z</time>
      </trkpt>
      <trkpt lat="45.35888" lon="4.17904">
        <ele>616.82</ele>
        <time>2023-03-25T12:53:40Z</time>
      </trkpt>
      <trkpt lat="45.35883" lon="4.17905">
        <ele>617.78</ele>
        <time>2023-03-25T12:54:17Z</time>
      </trkpt>
      <trkpt lat="45.35878" lon="4.17905">
        <ele>616.34</ele>
        <time>2023-03-25T12:54:51Z</time>
      </trkpt>
      <trkpt lat="45.35879" lon="4.17904">
        <ele>609.13</ele>
        <time>2023-03-25T12:55:25Z</time>
      </trkpt>
      <trkpt lat="45.35887" lon="4.17909">
        <ele>610.57</ele>
        <time>2023-03-25T12:55:59Z</time>
      </trkpt>
      <trkpt lat="45.35884" lon="4.17909">
        <ele>603.85</ele>
        <time>2023-03-25T12:56:41Z</time>
      </trkpt>
      <trkpt lat="45.3588" lon="4.17908">
        <ele>606.25</ele>
        <time>2023-03-25T12:57:22Z</time>
      </trkpt>
      <trkpt lat="45.35885" lon="4.1791">
        <ele>608.65</ele>
        <time>2023-03-25T12:58:05Z</time>
      </trkpt>
      <trkpt lat="45.35884" lon="4.1791">
        <ele>610.57</ele>
        <time>2023-03-25T12:58:44Z</time>
      </trkpt>
      <trkpt lat="45.35888" lon="4.17908">
        <ele>612.02</ele>
        <time>2023-03-25T12:59:19Z</time>
      </trkpt>
      <trkpt lat="45.35887" lon="4.17904">
        <ele>612.5</ele>
        <time>2023-03-25T13:00:04Z</time>
      </trkpt>
      <trkpt lat="45.35887" lon="4.17909">
        <ele>611.06</ele>
        <time>2023-03-25T13:00:39Z</time>
      </trkpt>
      <trkpt lat="45.35884" lon="4.17906">
        <ele>609.13</ele>
        <time>2023-03-25T13:01:15Z</time>
      </trkpt>
      <trkpt lat="45.35892" lon="4.17902">
        <ele>620.19</ele>
        <time>2023-03-25T13:01:58Z</time>
      </trkpt>
      <trkpt lat="45.35885" lon="4.17907">
        <ele>621.15</ele>
        <time>2023-03-25T13:02:44Z</time>
      </trkpt>
      <trkpt lat="45.35884" lon="4.17909">
        <ele>614.42</ele>
        <time>2023-03-25T13:03:27Z</time>
      </trkpt>
      <trkpt lat="45.35883" lon="4.17908">
        <ele>613.94</ele>
        <time>2023-03-25T13:04:08Z</time>
      </trkpt>
      <trkpt lat="45.35884" lon="4.17909">
        <ele>612.5</ele>
        <time>2023-03-25T13:04:43Z</time>
      </trkpt>
      <trkpt lat="45.35885" lon="4.17908">
        <ele>610.09</ele>
        <time>2023-03-25T13:05:17Z</time>
      </trkpt>
      <trkpt lat="45.35887" lon="4.17906">
        <ele>606.73</ele>
        <time>2023-03-25T13:05:45Z</time>
      </trkpt>
      <trkpt lat="45.35883" lon="4.17912">
        <ele>600</ele>
        <time>2023-03-25T13:06:27Z</time>
      </trkpt>
      <trkpt lat="45.35885" lon="4.17906">
        <ele>599.52</ele>
        <time>2023-03-25T13:07:09Z</time>
      </trkpt>
      <trkpt lat="45.35881" lon="4.1791">
        <ele>599.52</ele>
        <time>2023-03-25T13:07:46Z</time>
      </trkpt>
      <trkpt lat="45.35884" lon="4.17913">
        <ele>605.29</ele>
        <time>2023-03-25T13:08:23Z</time>
      </trkpt>
      <trkpt lat="45.35881" lon="4.17914">
        <ele>607.21</ele>
        <time>2023-03-25T13:09:00Z</time>
      </trkpt>
      <trkpt lat="45.35882" lon="4.17916">
        <ele>605.77</ele>
        <time>2023-03-25T13:09:33Z</time>
      </trkpt>
      <trkpt lat="45.35882" lon="4.17909">
        <ele>607.21</ele>
        <time>2023-03-25T13:10:07Z</time>
      </trkpt>
      <trkpt lat="45.35882" lon="4.17908">
        <ele>605.77</ele>
        <time>2023-03-25T13:10:42Z</time>
      </trkpt>
      <trkpt lat="45.35881" lon="4.17905">
        <ele>609.13</ele>
        <time>2023-03-25T13:11:15Z</time>
      </trkpt>
      <trkpt lat="45.35882" lon="4.17902">
        <ele>608.17</ele>
        <time>2023-03-25T13:11:50Z</time>
      </trkpt>
      <trkpt lat="45.35886" lon="4.17911">
        <ele>607.69</ele>
        <time>2023-03-25T13:12:33Z</time>
      </trkpt>
      <trkpt lat="45.3589" lon="4.17907">
        <ele>609.13</ele>
        <time>2023-03-25T13:13:12Z</time>
      </trkpt>
      <trkpt lat="45.35888" lon="4.17905">
        <ele>609.13</ele>
        <time>2023-03-25T13:13:49Z</time>
      </trkpt>
      <trkpt lat="45.35883" lon="4.17908">
        <ele>609.13</ele>
        <time>2023-03-25T13:14:23Z</time>
      </trkpt>
      <trkpt lat="45.35882" lon="4.17911">
        <ele>609.13</ele>
        <time>2023-03-25T13:15:03Z</time>
      </trkpt>
      <trkpt lat="45.35881" lon="4.17911">
        <ele>610.57</ele>
        <time>2023-03-25T13:15:47Z</time>
      </trkpt>
      <trkpt lat="45.35881" lon="4.17911">
        <ele>609.61</ele>
        <time>2023-03-25T13:16:34Z</time>
      </trkpt>
      <trkpt lat="45.35885" lon="4.17906">
        <ele>608.17</ele>
        <time>2023-03-25T13:17:19Z</time>
      </trkpt>
      <trkpt lat="45.35884" lon="4.17911">
        <ele>605.77</ele>
        <time>2023-03-25T13:18:10Z</time>
      </trkpt>
      <trkpt lat="45.35889" lon="4.17909">
        <ele>607.69</ele>
        <time>2023-03-25T13:18:59Z</time>
      </trkpt>
      <trkpt lat="45.35887" lon="4.17911">
        <ele>608.17</ele>
        <time>2023-03-25T13:19:36Z</time>
      </trkpt>
      <trkpt lat="45.35884" lon="4.1791">
        <ele>610.09</ele>
        <time>2023-03-25T13:20:17Z</time>
      </trkpt>
      <trkpt lat="45.35887" lon="4.17913">
        <ele>610.09</ele>
        <time>2023-03-25T13:20:59Z</time>
      </trkpt>
      <trkpt lat="45.35887" lon="4.17914">
        <ele>609.13</ele>
        <time>2023-03-25T13:21:36Z</time>
      </trkpt>
      <trkpt lat="45.35888" lon="4.17909">
        <ele>608.65</ele>
        <time>2023-03-25T13:22:15Z</time>
      </trkpt>
      <trkpt lat="45.35888" lon="4.17906">
        <ele>612.5</ele>
        <time>2023-03-25T13:22:51Z</time>
      </trkpt>
      <trkpt lat="45.35889" lon="4.17905">
        <ele>608.65</ele>
        <time>2023-03-25T13:23:27Z</time>
      </trkpt>
      <trkpt lat="45.35887" lon="4.17904">
        <ele>609.13</ele>
        <time>2023-03-25T13:24:06Z</time>
      </trkpt>
      <trkpt lat="45.35883" lon="4.17903">
        <ele>609.13</ele>
        <time>2023-03-25T13:24:37Z</time>
      </trkpt>
      <trkpt lat="45.35887" lon="4.17904">
        <ele>610.57</ele>
        <time>2023-03-25T13:25:15Z</time>
      </trkpt>
      <trkpt lat="45.35884" lon="4.17901">
        <ele>611.54</ele>
        <time>2023-03-25T13:25:55Z</time>
      </trkpt>
      <trkpt lat="45.35884" lon="4.17905">
        <ele>611.06</ele>
        <time>2023-03-25T13:26:36Z</time>
      </trkpt>
      <trkpt lat="45.35884" lon="4.17905">
        <ele>609.13</ele>
        <time>2023-03-25T13:27:11Z</time>
      </trkpt>
      <trkpt lat="45.35887" lon="4.17909">
        <ele>610.57</ele>
        <time>2023-03-25T13:27:53Z</time>
      </trkpt>
      <trkpt lat="45.35887" lon="4.17909">
        <ele>607.69</ele>
        <time>2023-03-25T13:28:35Z</time>
      </trkpt>
      <trkpt lat="45.35887" lon="4.17913">
        <ele>604.81</ele>
        <time>2023-03-25T13:29:17Z</time>
      </trkpt>
      <trkpt lat="45.35885" lon="4.17909">
        <ele>604.33</ele>
        <time>2023-03-25T13:29:53Z</time>
      </trkpt>
      <trkpt lat="45.35886" lon="4.17911">
        <ele>603.85</ele>
        <time>2023-03-25T13:30:32Z</time>
      </trkpt>
      <trkpt lat="45.35885" lon="4.1791">
        <ele>598.56</ele>
        <time>2023-03-25T13:31:16Z</time>
      </trkpt>
      <trkpt lat="45.35884" lon="4.17911">
        <ele>599.04</ele>
        <time>2023-03-25T13:31:51Z</time>
      </trkpt>
      <trkpt lat="45.35883" lon="4.1791">
        <ele>601.44</ele>
        <time>2023-03-25T13:32:36Z</time>
      </trkpt>
      <trkpt lat="45.35882" lon="4.17911">
        <ele>602.88</ele>
        <time>2023-03-25T13:33:11Z</time>
      </trkpt>
      <trkpt lat="45.35885" lon="4.17911">
        <ele>604.33</ele>
        <time>2023-03-25T13:33:38Z</time>
      </trkpt>
      <trkpt lat="45.35879" lon="4.17907">
        <ele>605.77</ele>
        <time>2023-03-25T13:34:04Z</time>
      </trkpt>
      <trkpt lat="45.35884" lon="4.17904">
        <ele>607.21</ele>
        <time>2023-03-25T13:34:21Z</time>
      </trkpt>
      <trkpt lat="45.35882" lon="4.17906">
        <ele>608.17</ele>
        <time>2023-03-25T13:34:39Z</time>
      </trkpt>
      <trkpt lat="45.35879" lon="4.17903">
        <ele>604.81</ele>
        <time>2023-03-25T13:35:08Z</time>
      </trkpt>
      <trkpt lat="45.3588" lon="4.17903">
        <ele>607.21</ele>
        <time>2023-03-25T13:35:43Z</time>
      </trkpt>
      <trkpt lat="45.35879" lon="4.17901">
        <ele>608.17</ele>
        <time>2023-03-25T13:36:02Z</time>
      </trkpt>
      <trkpt lat="45.3588" lon="4.17903">
        <ele>608.17</ele>
        <time>2023-03-25T13:36:32Z</time>
      </trkpt>
      <trkpt lat="45.35883" lon="4.17906">
        <ele>608.65</ele>
        <time>2023-03-25T13:37:08Z</time>
      </trkpt>
      <trkpt lat="45.35884" lon="4.17902">
        <ele>607.69</ele>
        <time>2023-03-25T13:37:20Z</time>
      </trkpt>
      <trkpt lat="45.35888" lon="4.17899">
        <ele>608.17</ele>
        <time>2023-03-25T13:37:24Z</time>
      </trkpt>
      <trkpt lat="45.35899" lon="4.17893">
        <ele>610.57</ele>
        <time>2023-03-25T13:37:45Z</time>
      </trkpt>
      <trkpt lat="45.35901" lon="4.17896">
        <ele>610.57</ele>
        <time>2023-03-25T13:38:05Z</time>
      </trkpt>
      <trkpt lat="45.35899" lon="4.17896">
        <ele>611.54</ele>
        <time>2023-03-25T13:38:26Z</time>
      </trkpt>
      <trkpt lat="45.35898" lon="4.179">
        <ele>610.57</ele>
        <time>2023-03-25T13:38:54Z</time>
      </trkpt>
      <trkpt lat="45.35901" lon="4.17904">
        <ele>607.21</ele>
        <time>2023-03-25T13:39:19Z</time>
      </trkpt>
      <trkpt lat="45.359" lon="4.17907">
        <ele>606.25</ele>
        <time>2023-03-25T13:39:43Z</time>
      </trkpt>
      <trkpt lat="45.35898" lon="4.179">
        <ele>608.65</ele>
        <time>2023-03-25T13:40:05Z</time>
      </trkpt>
      <trkpt lat="45.35897" lon="4.1789">
        <ele>609.13</ele>
        <time>2023-03-25T13:40:23Z</time>
      </trkpt>
      <trkpt lat="45.35899" lon="4.17884">
        <ele>612.98</ele>
        <time>2023-03-25T13:40:51Z</time>
      </trkpt>
      <trkpt lat="45.35898" lon="4.17887">
        <ele>613.94</ele>
        <time>2023-03-25T13:41:11Z</time>
      </trkpt>
      <trkpt lat="45.35899" lon="4.17888">
        <ele>614.42</ele>
        <time>2023-03-25T13:41:33Z</time>
      </trkpt>
      <trkpt lat="45.35898" lon="4.17886">
        <ele>616.34</ele>
        <time>2023-03-25T13:42:04Z</time>
      </trkpt>
      <trkpt lat="45.35901" lon="4.17889">
        <ele>617.3</ele>
        <time>2023-03-25T13:42:29Z</time>
      </trkpt>
      <trkpt lat="45.35901" lon="4.17895">
        <ele>616.34</ele>
        <time>2023-03-25T13:42:45Z</time>
      </trkpt>
      <trkpt lat="45.35898" lon="4.179">
        <ele>613.46</ele>
        <time>2023-03-25T13:43:10Z</time>
      </trkpt>
      <trkpt lat="45.35897" lon="4.17892">
        <ele>613.94</ele>
        <time>2023-03-25T13:43:33Z</time>
      </trkpt>
      <trkpt lat="45.359" lon="4.17894">
        <ele>612.98</ele>
        <time>2023-03-25T13:43:46Z</time>
      </trkpt>
      <trkpt lat="45.35899" lon="4.17901">
        <ele>605.77</ele>
        <time>2023-03-25T13:44:20Z</time>
      </trkpt>
      <trkpt lat="45.35898" lon="4.1789">
        <ele>607.21</ele>
        <time>2023-03-25T13:44:42Z</time>
      </trkpt>
      <trkpt lat="45.359" lon="4.17888">
        <ele>609.61</ele>
        <time>2023-03-25T13:45:06Z</time>
      </trkpt>
      <trkpt lat="45.35896" lon="4.17892">
        <ele>607.21</ele>
        <time>2023-03-25T13:45:25Z</time>
      </trkpt>
      <trkpt lat="45.359" lon="4.17889">
        <ele>608.65</ele>
        <time>2023-03-25T13:45:45Z</time>
      </trkpt>
      <trkpt lat="45.35897" lon="4.17886">
        <ele>609.13</ele>
        <time>2023-03-25T13:46:00Z</time>
      </trkpt>
      <trkpt lat="45.35901" lon="4.17877">
        <ele>609.13</ele>
        <time>2023-03-25T13:46:14Z</time>
      </trkpt>
      <trkpt lat="45.35905" lon="4.1786">
        <ele>609.13</ele>
        <time>2023-03-25T13:46:32Z</time>
      </trkpt>
      <trkpt lat="45.35909" lon="4.17861">
        <ele>612.98</ele>
        <time>2023-03-25T13:47:03Z</time>
      </trkpt>
      <trkpt lat="45.3591" lon="4.17856">
        <ele>612.5</ele>
        <time>2023-03-25T13:47:35Z</time>
      </trkpt>
      <trkpt lat="45.3591" lon="4.1786">
        <ele>611.06</ele>
        <time>2023-03-25T13:47:55Z</time>
      </trkpt>
      <trkpt lat="45.35908" lon="4.17865">
        <ele>609.13</ele>
        <time>2023-03-25T13:48:15Z</time>
      </trkpt>
      <trkpt lat="45.35905" lon="4.17879">
        <ele>605.29</ele>
        <time>2023-03-25T13:48:31Z</time>
      </trkpt>
      <trkpt lat="45.35905" lon="4.17893">
        <ele>602.4</ele>
        <time>2023-03-25T13:48:45Z</time>
      </trkpt>
      <trkpt lat="45.35902" lon="4.17894">
        <ele>606.25</ele>
        <time>2023-03-25T13:49:06Z</time>
      </trkpt>
      <trkpt lat="45.35902" lon="4.17896">
        <ele>605.77</ele>
        <time>2023-03-25T13:49:23Z</time>
      </trkpt>
      <trkpt lat="45.35899" lon="4.17896">
        <ele>603.36</ele>
        <time>2023-03-25T13:49:40Z</time>
      </trkpt>
      <trkpt lat="45.35897" lon="4.17893">
        <ele>600.96</ele>
        <time>2023-03-25T13:50:09Z</time>
      </trkpt>
      <trkpt lat="45.35895" lon="4.17891">
        <ele>601.44</ele>
        <time>2023-03-25T13:50:29Z</time>
      </trkpt>
      <trkpt lat="45.35896" lon="4.17892">
        <ele>602.4</ele>
        <time>2023-03-25T13:50:50Z</time>
      </trkpt>
      <trkpt lat="45.35894" lon="4.17897">
        <ele>602.4</ele>
        <time>2023-03-25T13:51:04Z</time>
      </trkpt>
      <trkpt lat="45.35886" lon="4.17896">
        <ele>604.33</ele>
        <time>2023-03-25T13:51:20Z</time>
      </trkpt>
      <trkpt lat="45.35885" lon="4.17897">
        <ele>604.33</ele>
        <time>2023-03-25T13:51:23Z</time>
      </trkpt>
      <trkpt lat="45.35883" lon="4.17897">
        <ele>607.69</ele>
        <time>2023-03-25T13:51:39Z</time>
      </trkpt>
      <trkpt lat="45.35881" lon="4.17898">
        <ele>607.69</ele>
        <time>2023-03-25T13:51:54Z</time>
      </trkpt>
      <trkpt lat="45.35878" lon="4.17899">
        <ele>605.77</ele>
        <time>2023-03-25T13:52:09Z</time>
      </trkpt>
      <trkpt lat="45.35878" lon="4.179">
        <ele>605.29</ele>
        <time>2023-03-25T13:52:10Z</time>
      </trkpt>
      <trkpt lat="45.35878" lon="4.17902">
        <ele>604.81</ele>
        <time>2023-03-25T13:52:11Z</time>
      </trkpt>
      <trkpt lat="45.35877" lon="4.17905">
        <ele>604.33</ele>
        <time>2023-03-25T13:52:12Z</time>
      </trkpt>
      <trkpt lat="45.35877" lon="4.17906">
        <ele>603.85</ele>
        <time>2023-03-25T13:52:13Z</time>
      </trkpt>
      <trkpt lat="45.35877" lon="4.17908">
        <ele>603.85</ele>
        <time>2023-03-25T13:52:14Z</time>
      </trkpt>
      <trkpt lat="45.35876" lon="4.1791">
        <ele>603.36</ele>
        <time>2023-03-25T13:52:15Z</time>
      </trkpt>
      <trkpt lat="45.35876" lon="4.17912">
        <ele>602.88</ele>
        <time>2023-03-25T13:52:16Z</time>
      </trkpt>
      <trkpt lat="45.35875" lon="4.17926">
        <ele>602.4</ele>
        <time>2023-03-25T13:52:33Z</time>
      </trkpt>
      <trkpt lat="45.35872" lon="4.1794">
        <ele>602.4</ele>
        <time>2023-03-25T13:52:56Z</time>
      </trkpt>
      <trkpt lat="45.35861" lon="4.17981">
        <ele>599.04</ele>
        <time>2023-03-25T13:53:16Z</time>
      </trkpt>
      <trkpt lat="45.3586" lon="4.18011">
        <ele>598.08</ele>
        <time>2023-03-25T13:53:32Z</time>
      </trkpt>
      <trkpt lat="45.35867" lon="4.18047">
        <ele>594.71</ele>
        <time>2023-03-25T13:53:51Z</time>
      </trkpt>
      <trkpt lat="45.35876" lon="4.18082">
        <ele>592.31</ele>
        <time>2023-03-25T13:54:08Z</time>
      </trkpt>
      <trkpt lat="45.35882" lon="4.1811">
        <ele>588.46</ele>
        <time>2023-03-25T13:54:25Z</time>
      </trkpt>
      <trkpt lat="45.35884" lon="4.18116">
        <ele>587.5</ele>
        <time>2023-03-25T13:54:29Z</time>
      </trkpt>
      <trkpt lat="45.35885" lon="4.18117">
        <ele>587.02</ele>
        <time>2023-03-25T13:54:30Z</time>
      </trkpt>
      <trkpt lat="45.35886" lon="4.18119">
        <ele>587.02</ele>
        <time>2023-03-25T13:54:31Z</time>
      </trkpt>
      <trkpt lat="45.35886" lon="4.1812">
        <ele>587.02</ele>
        <time>2023-03-25T13:54:32Z</time>
      </trkpt>
      <trkpt lat="45.35886" lon="4.18122">
        <ele>586.54</ele>
        <time>2023-03-25T13:54:33Z</time>
      </trkpt>
      <trkpt lat="45.35886" lon="4.18124">
        <ele>586.54</ele>
        <time>2023-03-25T13:54:34Z</time>
      </trkpt>
      <trkpt lat="45.35895" lon="4.18156">
        <ele>582.22</ele>
        <time>2023-03-25T13:54:53Z</time>
      </trkpt>
      <trkpt lat="45.35896" lon="4.18161">
        <ele>581.25</ele>
        <time>2023-03-25T13:54:56Z</time>
      </trkpt>
      <trkpt lat="45.35896" lon="4.18163">
        <ele>580.77</ele>
        <time>2023-03-25T13:54:57Z</time>
      </trkpt>
      <trkpt lat="45.35896" lon="4.18165">
        <ele>580.77</ele>
        <time>2023-03-25T13:54:58Z</time>
      </trkpt>
      <trkpt lat="45.35897" lon="4.18167">
        <ele>580.29</ele>
        <time>2023-03-25T13:54:59Z</time>
      </trkpt>
      <trkpt lat="45.35897" lon="4.18169">
        <ele>579.81</ele>
        <time>2023-03-25T13:55:00Z</time>
      </trkpt>
      <trkpt lat="45.35904" lon="4.18208">
        <ele>573.08</ele>
        <time>2023-03-25T13:55:19Z</time>
      </trkpt>
      <trkpt lat="45.35905" lon="4.18243">
        <ele>569.72</ele>
        <time>2023-03-25T13:55:36Z</time>
      </trkpt>
      <trkpt lat="45.35907" lon="4.18278">
        <ele>566.83</ele>
        <time>2023-03-25T13:55:57Z</time>
      </trkpt>
      <trkpt lat="45.35907" lon="4.18306">
        <ele>564.91</ele>
        <time>2023-03-25T13:56:14Z</time>
      </trkpt>
      <trkpt lat="45.35907" lon="4.18332">
        <ele>564.91</ele>
        <time>2023-03-25T13:56:31Z</time>
      </trkpt>
      <trkpt lat="45.35905" lon="4.18357">
        <ele>559.14</ele>
        <time>2023-03-25T13:56:46Z</time>
      </trkpt>
      <trkpt lat="45.359" lon="4.18398">
        <ele>556.26</ele>
        <time>2023-03-25T13:57:04Z</time>
      </trkpt>
      <trkpt lat="45.35899" lon="4.18415">
        <ele>552.9</ele>
        <time>2023-03-25T13:57:24Z</time>
      </trkpt>
      <trkpt lat="45.35898" lon="4.18414">
        <ele>551.45</ele>
        <time>2023-03-25T13:57:59Z</time>
      </trkpt>
      <trkpt lat="45.35898" lon="4.18417">
        <ele>552.41</ele>
        <time>2023-03-25T13:58:16Z</time>
      </trkpt>
      <trkpt lat="45.35896" lon="4.18423">
        <ele>553.38</ele>
        <time>2023-03-25T13:58:55Z</time>
      </trkpt>
      <trkpt lat="45.35896" lon="4.18427">
        <ele>553.86</ele>
        <time>2023-03-25T13:59:17Z</time>
      </trkpt>
      <trkpt lat="45.35903" lon="4.18434">
        <ele>550.97</ele>
        <time>2023-03-25T13:59:33Z</time>
      </trkpt>
      <trkpt lat="45.3592" lon="4.18451">
        <ele>545.69</ele>
        <time>2023-03-25T13:59:50Z</time>
      </trkpt>
      <trkpt lat="45.35933" lon="4.18463">
        <ele>541.84</ele>
        <time>2023-03-25T14:00:05Z</time>
      </trkpt>
      <trkpt lat="45.35936" lon="4.18471">
        <ele>540.4</ele>
        <time>2023-03-25T14:00:12Z</time>
      </trkpt>
      <trkpt lat="45.3595" lon="4.18495">
        <ele>539.92</ele>
        <time>2023-03-25T14:00:29Z</time>
      </trkpt>
      <trkpt lat="45.35963" lon="4.18508">
        <ele>539.92</ele>
        <time>2023-03-25T14:00:44Z</time>
      </trkpt>
      <trkpt lat="45.35979" lon="4.18523">
        <ele>533.19</ele>
        <time>2023-03-25T14:01:02Z</time>
      </trkpt>
      <trkpt lat="45.3598" lon="4.18525">
        <ele>532.71</ele>
        <time>2023-03-25T14:01:04Z</time>
      </trkpt>
      <trkpt lat="45.3598" lon="4.18527">
        <ele>532.23</ele>
        <time>2023-03-25T14:01:05Z</time>
      </trkpt>
      <trkpt lat="45.35986" lon="4.18538">
        <ele>528.86</ele>
        <time>2023-03-25T14:01:15Z</time>
      </trkpt>
      <trkpt lat="45.35997" lon="4.18547">
        <ele>522.61</ele>
        <time>2023-03-25T14:01:33Z</time>
      </trkpt>
      <trkpt lat="45.36006" lon="4.18559">
        <ele>518.77</ele>
        <time>2023-03-25T14:01:51Z</time>
      </trkpt>
      <trkpt lat="45.3601" lon="4.18563">
        <ele>518.77</ele>
        <time>2023-03-25T14:01:54Z</time>
      </trkpt>
      <trkpt lat="45.36025" lon="4.1858">
        <ele>519.25</ele>
        <time>2023-03-25T14:02:09Z</time>
      </trkpt>
      <trkpt lat="45.36032" lon="4.18592">
        <ele>514.44</ele>
        <time>2023-03-25T14:02:21Z</time>
      </trkpt>
      <trkpt lat="45.36032" lon="4.1859">
        <ele>513.96</ele>
        <time>2023-03-25T14:02:22Z</time>
      </trkpt>
      <trkpt lat="45.36027" lon="4.1857">
        <ele>509.16</ele>
        <time>2023-03-25T14:02:39Z</time>
      </trkpt>
      <trkpt lat="45.36012" lon="4.18552">
        <ele>511.08</ele>
        <time>2023-03-25T14:02:55Z</time>
      </trkpt>
      <trkpt lat="45.36003" lon="4.18533">
        <ele>512.04</ele>
        <time>2023-03-25T14:03:11Z</time>
      </trkpt>
      <trkpt lat="45.35992" lon="4.18516">
        <ele>510.6</ele>
        <time>2023-03-25T14:03:25Z</time>
      </trkpt>
      <trkpt lat="45.36011" lon="4.18486">
        <ele>511.08</ele>
        <time>2023-03-25T14:03:37Z</time>
      </trkpt>
      <trkpt lat="45.36013" lon="4.18482">
        <ele>511.08</ele>
        <time>2023-03-25T14:03:38Z</time>
      </trkpt>
      <trkpt lat="45.36032" lon="4.18448">
        <ele>508.67</ele>
        <time>2023-03-25T14:03:55Z</time>
      </trkpt>
      <trkpt lat="45.36032" lon="4.18445">
        <ele>508.19</ele>
        <time>2023-03-25T14:03:56Z</time>
      </trkpt>
      <trkpt lat="45.36033" lon="4.18441">
        <ele>508.19</ele>
        <time>2023-03-25T14:03:58Z</time>
      </trkpt>
      <trkpt lat="45.36034" lon="4.18439">
        <ele>507.71</ele>
        <time>2023-03-25T14:03:59Z</time>
      </trkpt>
      <trkpt lat="45.36036" lon="4.18405">
        <ele>502.43</ele>
        <time>2023-03-25T14:04:16Z</time>
      </trkpt>
      <trkpt lat="45.36036" lon="4.18385">
        <ele>509.64</ele>
        <time>2023-03-25T14:04:31Z</time>
      </trkpt>
      <trkpt lat="45.3604" lon="4.1836">
        <ele>511.56</ele>
        <time>2023-03-25T14:04:44Z</time>
      </trkpt>
      <trkpt lat="45.36041" lon="4.18358">
        <ele>511.08</ele>
        <time>2023-03-25T14:04:45Z</time>
      </trkpt>
      <trkpt lat="45.36053" lon="4.18327">
        <ele>511.56</ele>
        <time>2023-03-25T14:04:58Z</time>
      </trkpt>
      <trkpt lat="45.36061" lon="4.18299">
        <ele>512.04</ele>
        <time>2023-03-25T14:05:13Z</time>
      </trkpt>
      <trkpt lat="45.36073" lon="4.18266">
        <ele>512.04</ele>
        <time>2023-03-25T14:05:29Z</time>
      </trkpt>
      <trkpt lat="45.36072" lon="4.18237">
        <ele>506.75</ele>
        <time>2023-03-25T14:05:46Z</time>
      </trkpt>
      <trkpt lat="45.36076" lon="4.18212">
        <ele>506.75</ele>
        <time>2023-03-25T14:06:00Z</time>
      </trkpt>
      <trkpt lat="45.36083" lon="4.18183">
        <ele>504.35</ele>
        <time>2023-03-25T14:06:18Z</time>
      </trkpt>
      <trkpt lat="45.36088" lon="4.18153">
        <ele>503.39</ele>
        <time>2023-03-25T14:06:33Z</time>
      </trkpt>
      <trkpt lat="45.361" lon="4.18115">
        <ele>501.95</ele>
        <time>2023-03-25T14:06:51Z</time>
      </trkpt>
      <trkpt lat="45.361" lon="4.18094">
        <ele>499.54</ele>
        <time>2023-03-25T14:07:01Z</time>
      </trkpt>
      <trkpt lat="45.36097" lon="4.18071">
        <ele>500.98</ele>
        <time>2023-03-25T14:07:15Z</time>
      </trkpt>
      <trkpt lat="45.36104" lon="4.18049">
        <ele>504.83</ele>
        <time>2023-03-25T14:07:25Z</time>
      </trkpt>
      <trkpt lat="45.36104" lon="4.18032">
        <ele>509.64</ele>
        <time>2023-03-25T14:07:40Z</time>
      </trkpt>
      <trkpt lat="45.36107" lon="4.18025">
        <ele>515.88</ele>
        <time>2023-03-25T14:08:10Z</time>
      </trkpt>
      <trkpt lat="45.36114" lon="4.18018">
        <ele>518.77</ele>
        <time>2023-03-25T14:08:36Z</time>
      </trkpt>
      <trkpt lat="45.36133" lon="4.18018">
        <ele>523.58</ele>
        <time>2023-03-25T14:08:57Z</time>
      </trkpt>
      <trkpt lat="45.36135" lon="4.1802">
        <ele>523.58</ele>
        <time>2023-03-25T14:08:58Z</time>
      </trkpt>
      <trkpt lat="45.36141" lon="4.1803">
        <ele>522.61</ele>
        <time>2023-03-25T14:09:12Z</time>
      </trkpt>
      <trkpt lat="45.36145" lon="4.18032">
        <ele>520.69</ele>
        <time>2023-03-25T14:09:35Z</time>
      </trkpt>
      <trkpt lat="45.36153" lon="4.18048">
        <ele>522.13</ele>
        <time>2023-03-25T14:09:49Z</time>
      </trkpt>
      <trkpt lat="45.36152" lon="4.18058">
        <ele>528.38</ele>
        <time>2023-03-25T14:10:07Z</time>
      </trkpt>
      <trkpt lat="45.3616" lon="4.18098">
        <ele>533.67</ele>
        <time>2023-03-25T14:10:25Z</time>
      </trkpt>
      <trkpt lat="45.36161" lon="4.18116">
        <ele>535.59</ele>
        <time>2023-03-25T14:10:32Z</time>
      </trkpt>
      <trkpt lat="45.36164" lon="4.18152">
        <ele>535.11</ele>
        <time>2023-03-25T14:10:46Z</time>
      </trkpt>
      <trkpt lat="45.36163" lon="4.18195">
        <ele>533.19</ele>
        <time>2023-03-25T14:11:05Z</time>
      </trkpt>
      <trkpt lat="45.36162" lon="4.18204">
        <ele>532.23</ele>
        <time>2023-03-25T14:11:10Z</time>
      </trkpt>
      <trkpt lat="45.36163" lon="4.18206">
        <ele>531.75</ele>
        <time>2023-03-25T14:11:11Z</time>
      </trkpt>
      <trkpt lat="45.36164" lon="4.18209">
        <ele>531.75</ele>
        <time>2023-03-25T14:11:12Z</time>
      </trkpt>
      <trkpt lat="45.36162" lon="4.18238">
        <ele>528.86</ele>
        <time>2023-03-25T14:11:29Z</time>
      </trkpt>
      <trkpt lat="45.36163" lon="4.18261">
        <ele>526.46</ele>
        <time>2023-03-25T14:11:41Z</time>
      </trkpt>
      <trkpt lat="45.36163" lon="4.18282">
        <ele>524.06</ele>
        <time>2023-03-25T14:11:54Z</time>
      </trkpt>
      <trkpt lat="45.36163" lon="4.18313">
        <ele>520.69</ele>
        <time>2023-03-25T14:12:10Z</time>
      </trkpt>
      <trkpt lat="45.36164" lon="4.18347">
        <ele>519.25</ele>
        <time>2023-03-25T14:12:26Z</time>
      </trkpt>
      <trkpt lat="45.36165" lon="4.1835">
        <ele>518.77</ele>
        <time>2023-03-25T14:12:27Z</time>
      </trkpt>
      <trkpt lat="45.36168" lon="4.18401">
        <ele>515.88</ele>
        <time>2023-03-25T14:12:46Z</time>
      </trkpt>
      <trkpt lat="45.36171" lon="4.18434">
        <ele>513.48</ele>
        <time>2023-03-25T14:13:02Z</time>
      </trkpt>
      <trkpt lat="45.36184" lon="4.18462">
        <ele>512.04</ele>
        <time>2023-03-25T14:13:19Z</time>
      </trkpt>
      <trkpt lat="45.36193" lon="4.18488">
        <ele>513.48</ele>
        <time>2023-03-25T14:13:35Z</time>
      </trkpt>
      <trkpt lat="45.36208" lon="4.18518">
        <ele>513.48</ele>
        <time>2023-03-25T14:13:52Z</time>
      </trkpt>
      <trkpt lat="45.36228" lon="4.18536">
        <ele>510.12</ele>
        <time>2023-03-25T14:14:10Z</time>
      </trkpt>
      <trkpt lat="45.36253" lon="4.18531">
        <ele>515.4</ele>
        <time>2023-03-25T14:14:29Z</time>
      </trkpt>
      <trkpt lat="45.36255" lon="4.1853">
        <ele>515.88</ele>
        <time>2023-03-25T14:14:30Z</time>
      </trkpt>
      <trkpt lat="45.3628" lon="4.18524">
        <ele>523.58</ele>
        <time>2023-03-25T14:14:47Z</time>
      </trkpt>
      <trkpt lat="45.36307" lon="4.18536">
        <ele>521.65</ele>
        <time>2023-03-25T14:15:04Z</time>
      </trkpt>
      <trkpt lat="45.36309" lon="4.18549">
        <ele>519.25</ele>
        <time>2023-03-25T14:15:13Z</time>
      </trkpt>
      <trkpt lat="45.36307" lon="4.18568">
        <ele>515.88</ele>
        <time>2023-03-25T14:15:27Z</time>
      </trkpt>
      <trkpt lat="45.36306" lon="4.18571">
        <ele>515.4</ele>
        <time>2023-03-25T14:15:29Z</time>
      </trkpt>
      <trkpt lat="45.36305" lon="4.18572">
        <ele>515.4</ele>
        <time>2023-03-25T14:15:30Z</time>
      </trkpt>
      <trkpt lat="45.36306" lon="4.18578">
        <ele>511.56</ele>
        <time>2023-03-25T14:15:38Z</time>
      </trkpt>
      <trkpt lat="45.36307" lon="4.18578">
        <ele>511.08</ele>
        <time>2023-03-25T14:15:39Z</time>
      </trkpt>
      <trkpt lat="45.36308" lon="4.18578">
        <ele>511.08</ele>
        <time>2023-03-25T14:15:40Z</time>
      </trkpt>
      <trkpt lat="45.36314" lon="4.18579">
        <ele>509.64</ele>
        <time>2023-03-25T14:15:46Z</time>
      </trkpt>
      <trkpt lat="45.36334" lon="4.18602">
        <ele>507.71</ele>
        <time>2023-03-25T14:16:04Z</time>
      </trkpt>
      <trkpt lat="45.36338" lon="4.18603">
        <ele>508.19</ele>
        <time>2023-03-25T14:16:08Z</time>
      </trkpt>
      <trkpt lat="45.36343" lon="4.18601">
        <ele>508.19</ele>
        <time>2023-03-25T14:16:12Z</time>
      </trkpt>
      <trkpt lat="45.36346" lon="4.18603">
        <ele>507.23</ele>
        <time>2023-03-25T14:16:13Z</time>
      </trkpt>
      <trkpt lat="45.36348" lon="4.18605">
        <ele>506.75</ele>
        <time>2023-03-25T14:16:14Z</time>
      </trkpt>
      <trkpt lat="45.36349" lon="4.18607">
        <ele>506.27</ele>
        <time>2023-03-25T14:16:15Z</time>
      </trkpt>
      <trkpt lat="45.36351" lon="4.18608">
        <ele>506.27</ele>
        <time>2023-03-25T14:16:16Z</time>
      </trkpt>
      <trkpt lat="45.36353" lon="4.18609">
        <ele>506.27</ele>
        <time>2023-03-25T14:16:17Z</time>
      </trkpt>
      <trkpt lat="45.36354" lon="4.1861">
        <ele>506.27</ele>
        <time>2023-03-25T14:16:18Z</time>
      </trkpt>
      <trkpt lat="45.36363" lon="4.18617">
        <ele>506.75</ele>
        <time>2023-03-25T14:16:25Z</time>
      </trkpt>
      <trkpt lat="45.36365" lon="4.18616">
        <ele>506.75</ele>
        <time>2023-03-25T14:16:26Z</time>
      </trkpt>
      <trkpt lat="45.36382" lon="4.18607">
        <ele>513</ele>
        <time>2023-03-25T14:16:39Z</time>
      </trkpt>
      <trkpt lat="45.36406" lon="4.18619">
        <ele>514.44</ele>
        <time>2023-03-25T14:16:55Z</time>
      </trkpt>
      <trkpt lat="45.36434" lon="4.18632">
        <ele>514.92</ele>
        <time>2023-03-25T14:17:14Z</time>
      </trkpt>
      <trkpt lat="45.36461" lon="4.18618">
        <ele>518.29</ele>
        <time>2023-03-25T14:17:33Z</time>
      </trkpt>
      <trkpt lat="45.36485" lon="4.18605">
        <ele>523.09</ele>
        <time>2023-03-25T14:17:52Z</time>
      </trkpt>
      <trkpt lat="45.36509" lon="4.18592">
        <ele>525.98</ele>
        <time>2023-03-25T14:18:10Z</time>
      </trkpt>
      <trkpt lat="45.36531" lon="4.18571">
        <ele>528.86</ele>
        <time>2023-03-25T14:18:30Z</time>
      </trkpt>
      <trkpt lat="45.36541" lon="4.18545">
        <ele>526.94</ele>
        <time>2023-03-25T14:18:47Z</time>
      </trkpt>
      <trkpt lat="45.36545" lon="4.1853">
        <ele>524.54</ele>
        <time>2023-03-25T14:19:02Z</time>
      </trkpt>
      <trkpt lat="45.3655" lon="4.18499">
        <ele>521.17</ele>
        <time>2023-03-25T14:19:20Z</time>
      </trkpt>
      <trkpt lat="45.36557" lon="4.18506">
        <ele>518.29</ele>
        <time>2023-03-25T14:19:34Z</time>
      </trkpt>
      <trkpt lat="45.36556" lon="4.18522">
        <ele>516.37</ele>
        <time>2023-03-25T14:19:48Z</time>
      </trkpt>
      <trkpt lat="45.36557" lon="4.18528">
        <ele>516.37</ele>
        <time>2023-03-25T14:19:52Z</time>
      </trkpt>
      <trkpt lat="45.36561" lon="4.18541">
        <ele>515.88</ele>
        <time>2023-03-25T14:20:09Z</time>
      </trkpt>
      <trkpt lat="45.3656" lon="4.1856">
        <ele>515.88</ele>
        <time>2023-03-25T14:20:23Z</time>
      </trkpt>
      <trkpt lat="45.36552" lon="4.18587">
        <ele>514.92</ele>
        <time>2023-03-25T14:20:38Z</time>
      </trkpt>
      <trkpt lat="45.36553" lon="4.18605">
        <ele>511.56</ele>
        <time>2023-03-25T14:20:51Z</time>
      </trkpt>
      <trkpt lat="45.36555" lon="4.18608">
        <ele>510.12</ele>
        <time>2023-03-25T14:20:58Z</time>
      </trkpt>
      <trkpt lat="45.36559" lon="4.18616">
        <ele>509.64</ele>
        <time>2023-03-25T14:21:03Z</time>
      </trkpt>
      <trkpt lat="45.36563" lon="4.18646">
        <ele>503.87</ele>
        <time>2023-03-25T14:21:19Z</time>
      </trkpt>
      <trkpt lat="45.36569" lon="4.1867">
        <ele>497.14</ele>
        <time>2023-03-25T14:21:31Z</time>
      </trkpt>
      <trkpt lat="45.36572" lon="4.18683">
        <ele>492.33</ele>
        <time>2023-03-25T14:21:44Z</time>
      </trkpt>
      <trkpt lat="45.36576" lon="4.18685">
        <ele>492.81</ele>
        <time>2023-03-25T14:21:55Z</time>
      </trkpt>
      <trkpt lat="45.36576" lon="4.18665">
        <ele>489.93</ele>
        <time>2023-03-25T14:22:09Z</time>
      </trkpt>
      <trkpt lat="45.36578" lon="4.18641">
        <ele>490.41</ele>
        <time>2023-03-25T14:22:30Z</time>
      </trkpt>
      <trkpt lat="45.36579" lon="4.18627">
        <ele>490.89</ele>
        <time>2023-03-25T14:22:39Z</time>
      </trkpt>
      <trkpt lat="45.3659" lon="4.18617">
        <ele>488.97</ele>
        <time>2023-03-25T14:22:53Z</time>
      </trkpt>
      <trkpt lat="45.36608" lon="4.18623">
        <ele>491.85</ele>
        <time>2023-03-25T14:23:10Z</time>
      </trkpt>
      <trkpt lat="45.36628" lon="4.18607">
        <ele>495.22</ele>
        <time>2023-03-25T14:23:27Z</time>
      </trkpt>
      <trkpt lat="45.36646" lon="4.1859">
        <ele>495.22</ele>
        <time>2023-03-25T14:23:46Z</time>
      </trkpt>
      <trkpt lat="45.36671" lon="4.18569">
        <ele>491.37</ele>
        <time>2023-03-25T14:24:04Z</time>
      </trkpt>
      <trkpt lat="45.36695" lon="4.18563">
        <ele>489.45</ele>
        <time>2023-03-25T14:24:22Z</time>
      </trkpt>
      <trkpt lat="45.3672" lon="4.1855">
        <ele>488.97</ele>
        <time>2023-03-25T14:24:40Z</time>
      </trkpt>
      <trkpt lat="45.3674" lon="4.1854">
        <ele>489.45</ele>
        <time>2023-03-25T14:24:58Z</time>
      </trkpt>
      <trkpt lat="45.36769" lon="4.18542">
        <ele>496.66</ele>
        <time>2023-03-25T14:25:14Z</time>
      </trkpt>
      <trkpt lat="45.36794" lon="4.18535">
        <ele>500.98</ele>
        <time>2023-03-25T14:25:31Z</time>
      </trkpt>
      <trkpt lat="45.36819" lon="4.18521">
        <ele>500.02</ele>
        <time>2023-03-25T14:25:48Z</time>
      </trkpt>
      <trkpt lat="45.36854" lon="4.18503">
        <ele>497.14</ele>
        <time>2023-03-25T14:26:07Z</time>
      </trkpt>
      <trkpt lat="45.36871" lon="4.18483">
        <ele>492.33</ele>
        <time>2023-03-25T14:26:21Z</time>
      </trkpt>
      <trkpt lat="45.36872" lon="4.18482">
        <ele>492.33</ele>
        <time>2023-03-25T14:26:22Z</time>
      </trkpt>
      <trkpt lat="45.3689" lon="4.18465">
        <ele>495.7</ele>
        <time>2023-03-25T14:26:40Z</time>
      </trkpt>
      <trkpt lat="45.36907" lon="4.18465">
        <ele>499.54</ele>
        <time>2023-03-25T14:26:58Z</time>
      </trkpt>
      <trkpt lat="45.36911" lon="4.18451">
        <ele>497.62</ele>
        <time>2023-03-25T14:27:26Z</time>
      </trkpt>
      <trkpt lat="45.3693" lon="4.18435">
        <ele>498.1</ele>
        <time>2023-03-25T14:27:43Z</time>
      </trkpt>
      <trkpt lat="45.3695" lon="4.18408">
        <ele>498.58</ele>
        <time>2023-03-25T14:28:01Z</time>
      </trkpt>
      <trkpt lat="45.36966" lon="4.18393">
        <ele>496.66</ele>
        <time>2023-03-25T14:28:18Z</time>
      </trkpt>
      <trkpt lat="45.36985" lon="4.18377">
        <ele>494.26</ele>
        <time>2023-03-25T14:28:35Z</time>
      </trkpt>
      <trkpt lat="45.37004" lon="4.1838">
        <ele>495.7</ele>
        <time>2023-03-25T14:28:52Z</time>
      </trkpt>
      <trkpt lat="45.37024" lon="4.18382">
        <ele>496.66</ele>
        <time>2023-03-25T14:29:19Z</time>
      </trkpt>
      <trkpt lat="45.37025" lon="4.18378">
        <ele>505.79</ele>
        <time>2023-03-25T14:29:43Z</time>
      </trkpt>
      <trkpt lat="45.3702" lon="4.1838">
        <ele>506.27</ele>
        <time>2023-03-25T14:30:08Z</time>
      </trkpt>
      <trkpt lat="45.37034" lon="4.18401">
        <ele>502.43</ele>
        <time>2023-03-25T14:30:33Z</time>
      </trkpt>
      <trkpt lat="45.37024" lon="4.18391">
        <ele>500.5</ele>
        <time>2023-03-25T14:30:51Z</time>
      </trkpt>
      <trkpt lat="45.37018" lon="4.18411">
        <ele>495.22</ele>
        <time>2023-03-25T14:31:10Z</time>
      </trkpt>
      <trkpt lat="45.37023" lon="4.18407">
        <ele>495.22</ele>
        <time>2023-03-25T14:31:27Z</time>
      </trkpt>
      <trkpt lat="45.37035" lon="4.18396">
        <ele>495.7</ele>
        <time>2023-03-25T14:31:42Z</time>
      </trkpt>
      <trkpt lat="45.37042" lon="4.18389">
        <ele>493.77</ele>
        <time>2023-03-25T14:31:58Z</time>
      </trkpt>
      <trkpt lat="45.37021" lon="4.18393">
        <ele>493.77</ele>
        <time>2023-03-25T14:32:16Z</time>
      </trkpt>
      <trkpt lat="45.37009" lon="4.18386">
        <ele>495.7</ele>
        <time>2023-03-25T14:32:27Z</time>
      </trkpt>
      <trkpt lat="45.36992" lon="4.18381">
        <ele>496.66</ele>
        <time>2023-03-25T14:32:44Z</time>
      </trkpt>
      <trkpt lat="45.36973" lon="4.1838">
        <ele>498.1</ele>
        <time>2023-03-25T14:32:59Z</time>
      </trkpt>
      <trkpt lat="45.36959" lon="4.18386">
        <ele>493.29</ele>
        <time>2023-03-25T14:33:14Z</time>
      </trkpt>
      <trkpt lat="45.36946" lon="4.18394">
        <ele>494.74</ele>
        <time>2023-03-25T14:33:31Z</time>
      </trkpt>
      <trkpt lat="45.3691" lon="4.18399">
        <ele>493.77</ele>
        <time>2023-03-25T14:33:51Z</time>
      </trkpt>
      <trkpt lat="45.36877" lon="4.18401">
        <ele>504.83</ele>
        <time>2023-03-25T14:34:07Z</time>
      </trkpt>
      <trkpt lat="45.36863" lon="4.18399">
        <ele>505.79</ele>
        <time>2023-03-25T14:34:23Z</time>
      </trkpt>
      <trkpt lat="45.36851" lon="4.18416">
        <ele>504.83</ele>
        <time>2023-03-25T14:34:39Z</time>
      </trkpt>
      <trkpt lat="45.36849" lon="4.1844">
        <ele>502.91</ele>
        <time>2023-03-25T14:34:53Z</time>
      </trkpt>
      <trkpt lat="45.3681" lon="4.18458">
        <ele>506.27</ele>
        <time>2023-03-25T14:35:07Z</time>
      </trkpt>
      <trkpt lat="45.36784" lon="4.18469">
        <ele>506.75</ele>
        <time>2023-03-25T14:35:22Z</time>
      </trkpt>
      <trkpt lat="45.3677" lon="4.1848">
        <ele>506.75</ele>
        <time>2023-03-25T14:35:35Z</time>
      </trkpt>
      <trkpt lat="45.36744" lon="4.18495">
        <ele>511.08</ele>
        <time>2023-03-25T14:35:50Z</time>
      </trkpt>
      <trkpt lat="45.36736" lon="4.18496">
        <ele>512.52</ele>
        <time>2023-03-25T14:35:58Z</time>
      </trkpt>
      <trkpt lat="45.36745" lon="4.18476">
        <ele>513</ele>
        <time>2023-03-25T14:36:13Z</time>
      </trkpt>
      <trkpt lat="45.36754" lon="4.18457">
        <ele>513.96</ele>
        <time>2023-03-25T14:36:28Z</time>
      </trkpt>
      <trkpt lat="45.36771" lon="4.18432">
        <ele>512.52</ele>
        <time>2023-03-25T14:36:43Z</time>
      </trkpt>
      <trkpt lat="45.36789" lon="4.18405">
        <ele>518.77</ele>
        <time>2023-03-25T14:36:59Z</time>
      </trkpt>
      <trkpt lat="45.36785" lon="4.18384">
        <ele>527.9</ele>
        <time>2023-03-25T14:37:16Z</time>
      </trkpt>
      <trkpt lat="45.3678" lon="4.18357">
        <ele>536.07</ele>
        <time>2023-03-25T14:37:33Z</time>
      </trkpt>
      <trkpt lat="45.36782" lon="4.18339">
        <ele>552.9</ele>
        <time>2023-03-25T14:37:50Z</time>
      </trkpt>
      <trkpt lat="45.36792" lon="4.18326">
        <ele>563.95</ele>
        <time>2023-03-25T14:38:06Z</time>
      </trkpt>
      <trkpt lat="45.36804" lon="4.18306">
        <ele>575.01</ele>
        <time>2023-03-25T14:38:22Z</time>
      </trkpt>
      <trkpt lat="45.36832" lon="4.18279">
        <ele>581.73</ele>
        <time>2023-03-25T14:38:38Z</time>
      </trkpt>
      <trkpt lat="45.3686" lon="4.18263">
        <ele>583.18</ele>
        <time>2023-03-25T14:38:54Z</time>
      </trkpt>
      <trkpt lat="45.36874" lon="4.18257">
        <ele>582.22</ele>
        <time>2023-03-25T14:39:01Z</time>
      </trkpt>
      <trkpt lat="45.36897" lon="4.18235">
        <ele>582.7</ele>
        <time>2023-03-25T14:39:18Z</time>
      </trkpt>
      <trkpt lat="45.36914" lon="4.18212">
        <ele>581.25</ele>
        <time>2023-03-25T14:39:33Z</time>
      </trkpt>
      <trkpt lat="45.36931" lon="4.18186">
        <ele>579.81</ele>
        <time>2023-03-25T14:39:49Z</time>
      </trkpt>
      <trkpt lat="45.36944" lon="4.1816">
        <ele>583.66</ele>
        <time>2023-03-25T14:40:06Z</time>
      </trkpt>
      <trkpt lat="45.36953" lon="4.18138">
        <ele>588.95</ele>
        <time>2023-03-25T14:40:23Z</time>
      </trkpt>
      <trkpt lat="45.36945" lon="4.1811">
        <ele>596.64</ele>
        <time>2023-03-25T14:40:42Z</time>
      </trkpt>
      <trkpt lat="45.36923" lon="4.18088">
        <ele>603.85</ele>
        <time>2023-03-25T14:41:01Z</time>
      </trkpt>
      <trkpt lat="45.36914" lon="4.18068">
        <ele>609.61</ele>
        <time>2023-03-25T14:41:18Z</time>
      </trkpt>
      <trkpt lat="45.36916" lon="4.18036">
        <ele>612.98</ele>
        <time>2023-03-25T14:41:35Z</time>
      </trkpt>
      <trkpt lat="45.36927" lon="4.18">
        <ele>615.38</ele>
        <time>2023-03-25T14:41:54Z</time>
      </trkpt>
      <trkpt lat="45.36949" lon="4.17952">
        <ele>616.34</ele>
        <time>2023-03-25T14:42:12Z</time>
      </trkpt>
      <trkpt lat="45.36965" lon="4.17919">
        <ele>618.26</ele>
        <time>2023-03-25T14:42:28Z</time>
      </trkpt>
      <trkpt lat="45.36969" lon="4.17897">
        <ele>617.3</ele>
        <time>2023-03-25T14:42:40Z</time>
      </trkpt>
      <trkpt lat="45.36967" lon="4.17887">
        <ele>616.82</ele>
        <time>2023-03-25T14:42:44Z</time>
      </trkpt>
      <trkpt lat="45.36969" lon="4.17852">
        <ele>615.86</ele>
        <time>2023-03-25T14:43:01Z</time>
      </trkpt>
      <trkpt lat="45.36976" lon="4.17822">
        <ele>619.71</ele>
        <time>2023-03-25T14:43:19Z</time>
      </trkpt>
      <trkpt lat="45.3698" lon="4.17791">
        <ele>624.99</ele>
        <time>2023-03-25T14:43:36Z</time>
      </trkpt>
      <trkpt lat="45.36983" lon="4.17759">
        <ele>632.68</ele>
        <time>2023-03-25T14:43:53Z</time>
      </trkpt>
      <trkpt lat="45.36984" lon="4.17729">
        <ele>639.89</ele>
        <time>2023-03-25T14:44:10Z</time>
      </trkpt>
      <trkpt lat="45.36981" lon="4.17693">
        <ele>640.38</ele>
        <time>2023-03-25T14:44:26Z</time>
      </trkpt>
      <trkpt lat="45.36989" lon="4.17657">
        <ele>642.3</ele>
        <time>2023-03-25T14:44:43Z</time>
      </trkpt>
      <trkpt lat="45.37005" lon="4.17594">
        <ele>641.82</ele>
        <time>2023-03-25T14:45:01Z</time>
      </trkpt>
      <trkpt lat="45.37014" lon="4.17555">
        <ele>646.62</ele>
        <time>2023-03-25T14:45:16Z</time>
      </trkpt>
      <trkpt lat="45.37015" lon="4.17517">
        <ele>652.39</ele>
        <time>2023-03-25T14:45:33Z</time>
      </trkpt>
      <trkpt lat="45.37015" lon="4.17499">
        <ele>657.2</ele>
        <time>2023-03-25T14:45:42Z</time>
      </trkpt>
      <trkpt lat="45.37016" lon="4.17497">
        <ele>657.68</ele>
        <time>2023-03-25T14:45:43Z</time>
      </trkpt>
      <trkpt lat="45.37018" lon="4.17495">
        <ele>659.6</ele>
        <time>2023-03-25T14:45:45Z</time>
      </trkpt>
      <trkpt lat="45.37032" lon="4.17493">
        <ele>668.25</ele>
        <time>2023-03-25T14:46:01Z</time>
      </trkpt>
      <trkpt lat="45.37033" lon="4.17492">
        <ele>668.73</ele>
        <time>2023-03-25T14:46:02Z</time>
      </trkpt>
      <trkpt lat="45.37034" lon="4.1749">
        <ele>668.73</ele>
        <time>2023-03-25T14:46:03Z</time>
      </trkpt>
      <trkpt lat="45.37036" lon="4.17489">
        <ele>669.22</ele>
        <time>2023-03-25T14:46:04Z</time>
      </trkpt>
      <trkpt lat="45.37037" lon="4.17487">
        <ele>669.7</ele>
        <time>2023-03-25T14:46:05Z</time>
      </trkpt>
      <trkpt lat="45.37038" lon="4.17485">
        <ele>669.7</ele>
        <time>2023-03-25T14:46:06Z</time>
      </trkpt>
      <trkpt lat="45.37039" lon="4.17484">
        <ele>670.18</ele>
        <time>2023-03-25T14:46:07Z</time>
      </trkpt>
      <trkpt lat="45.3704" lon="4.1748">
        <ele>670.66</ele>
        <time>2023-03-25T14:46:10Z</time>
      </trkpt>
      <trkpt lat="45.37037" lon="4.17476">
        <ele>671.62</ele>
        <time>2023-03-25T14:46:16Z</time>
      </trkpt>
      <trkpt lat="45.37026" lon="4.17457">
        <ele>671.62</ele>
        <time>2023-03-25T14:46:32Z</time>
      </trkpt>
      <trkpt lat="45.37029" lon="4.17434">
        <ele>678.35</ele>
        <time>2023-03-25T14:46:48Z</time>
      </trkpt>
      <trkpt lat="45.37031" lon="4.17425">
        <ele>679.31</ele>
        <time>2023-03-25T14:46:53Z</time>
      </trkpt>
      <trkpt lat="45.37031" lon="4.17423">
        <ele>679.79</ele>
        <time>2023-03-25T14:46:54Z</time>
      </trkpt>
      <trkpt lat="45.37034" lon="4.17399">
        <ele>684.6</ele>
        <time>2023-03-25T14:47:07Z</time>
      </trkpt>
      <trkpt lat="45.3704" lon="4.17367">
        <ele>691.33</ele>
        <time>2023-03-25T14:47:25Z</time>
      </trkpt>
      <trkpt lat="45.37046" lon="4.1732">
        <ele>695.65</ele>
        <time>2023-03-25T14:47:45Z</time>
      </trkpt>
      <trkpt lat="45.3705" lon="4.17285">
        <ele>694.21</ele>
        <time>2023-03-25T14:47:55Z</time>
      </trkpt>
      <trkpt lat="45.37042" lon="4.17261">
        <ele>699.02</ele>
        <time>2023-03-25T14:48:14Z</time>
      </trkpt>
      <trkpt lat="45.37035" lon="4.17238">
        <ele>704.78</ele>
        <time>2023-03-25T14:48:32Z</time>
      </trkpt>
      <trkpt lat="45.37031" lon="4.17216">
        <ele>706.23</ele>
        <time>2023-03-25T14:48:39Z</time>
      </trkpt>
      <trkpt lat="45.37022" lon="4.17171">
        <ele>708.63</ele>
        <time>2023-03-25T14:48:57Z</time>
      </trkpt>
      <trkpt lat="45.37016" lon="4.17128">
        <ele>709.59</ele>
        <time>2023-03-25T14:49:20Z</time>
      </trkpt>
      <trkpt lat="45.37009" lon="4.17101">
        <ele>712.95</ele>
        <time>2023-03-25T14:49:36Z</time>
      </trkpt>
      <trkpt lat="45.37004" lon="4.17091">
        <ele>711.51</ele>
        <time>2023-03-25T14:49:40Z</time>
      </trkpt>
      <trkpt lat="45.37003" lon="4.17087">
        <ele>711.03</ele>
        <time>2023-03-25T14:49:41Z</time>
      </trkpt>
      <trkpt lat="45.36997" lon="4.17071">
        <ele>703.82</ele>
        <time>2023-03-25T14:49:42Z</time>
      </trkpt>
      <trkpt lat="45.36996" lon="4.17065">
        <ele>701.42</ele>
        <time>2023-03-25T14:49:43Z</time>
      </trkpt>
      <trkpt lat="45.36999" lon="4.17058">
        <ele>699.5</ele>
        <time>2023-03-25T14:49:57Z</time>
      </trkpt>
      <trkpt lat="45.37001" lon="4.17053">
        <ele>700.46</ele>
        <time>2023-03-25T14:50:28Z</time>
      </trkpt>
      <trkpt lat="45.37" lon="4.17052">
        <ele>700.46</ele>
        <time>2023-03-25T14:50:55Z</time>
      </trkpt>
      <trkpt lat="45.36998" lon="4.17049">
        <ele>699.98</ele>
        <time>2023-03-25T14:51:21Z</time>
      </trkpt>
      <trkpt lat="45.36998" lon="4.17039">
        <ele>695.65</ele>
        <time>2023-03-25T14:51:46Z</time>
      </trkpt>
      <trkpt lat="45.37" lon="4.17039">
        <ele>695.17</ele>
        <time>2023-03-25T14:52:02Z</time>
      </trkpt>
      <trkpt lat="45.37005" lon="4.17041">
        <ele>694.21</ele>
        <time>2023-03-25T14:52:19Z</time>
      </trkpt>
      <trkpt lat="45.37005" lon="4.17048">
        <ele>695.17</ele>
        <time>2023-03-25T14:52:31Z</time>
      </trkpt>
      <trkpt lat="45.37005" lon="4.1705">
        <ele>695.17</ele>
        <time>2023-03-25T14:52:32Z</time>
      </trkpt>
      <trkpt lat="45.37003" lon="4.17073">
        <ele>695.17</ele>
        <time>2023-03-25T14:52:47Z</time>
      </trkpt>
      <trkpt lat="45.36999" lon="4.17077">
        <ele>695.17</ele>
        <time>2023-03-25T14:52:50Z</time>
      </trkpt>
      <trkpt lat="45.36969" lon="4.17082">
        <ele>694.21</ele>
        <time>2023-03-25T14:53:07Z</time>
      </trkpt>
      <trkpt lat="45.36947" lon="4.17075">
        <ele>691.33</ele>
        <time>2023-03-25T14:53:22Z</time>
      </trkpt>
      <trkpt lat="45.36914" lon="4.17055">
        <ele>687</ele>
        <time>2023-03-25T14:53:40Z</time>
      </trkpt>
      <trkpt lat="45.36898" lon="4.17042">
        <ele>684.6</ele>
        <time>2023-03-25T14:53:54Z</time>
      </trkpt>
      <trkpt lat="45.36889" lon="4.17053">
        <ele>680.75</ele>
        <time>2023-03-25T14:54:06Z</time>
      </trkpt>
      <trkpt lat="45.3686" lon="4.17076">
        <ele>689.88</ele>
        <time>2023-03-25T14:54:23Z</time>
      </trkpt>
      <trkpt lat="45.36848" lon="4.17098">
        <ele>688.92</ele>
        <time>2023-03-25T14:54:36Z</time>
      </trkpt>
      <trkpt lat="45.36847" lon="4.171">
        <ele>688.44</ele>
        <time>2023-03-25T14:54:37Z</time>
      </trkpt>
      <trkpt lat="45.36837" lon="4.17117">
        <ele>687</ele>
        <time>2023-03-25T14:54:50Z</time>
      </trkpt>
      <trkpt lat="45.36833" lon="4.17125">
        <ele>686.52</ele>
        <time>2023-03-25T14:54:56Z</time>
      </trkpt>
      <trkpt lat="45.36832" lon="4.17126">
        <ele>686.52</ele>
        <time>2023-03-25T14:54:57Z</time>
      </trkpt>
      <trkpt lat="45.36803" lon="4.17136">
        <ele>680.75</ele>
        <time>2023-03-25T14:55:13Z</time>
      </trkpt>
      <trkpt lat="45.36775" lon="4.17133">
        <ele>680.27</ele>
        <time>2023-03-25T14:55:29Z</time>
      </trkpt>
      <trkpt lat="45.36762" lon="4.17134">
        <ele>677.87</ele>
        <time>2023-03-25T14:55:42Z</time>
      </trkpt>
      <trkpt lat="45.36758" lon="4.17136">
        <ele>676.91</ele>
        <time>2023-03-25T14:56:09Z</time>
      </trkpt>
      <trkpt lat="45.36755" lon="4.17136">
        <ele>676.91</ele>
        <time>2023-03-25T14:56:27Z</time>
      </trkpt>
      <trkpt lat="45.3673" lon="4.17122">
        <ele>673.54</ele>
        <time>2023-03-25T14:56:45Z</time>
      </trkpt>
      <trkpt lat="45.36704" lon="4.171">
        <ele>671.14</ele>
        <time>2023-03-25T14:57:05Z</time>
      </trkpt>
      <trkpt lat="45.36675" lon="4.17075">
        <ele>666.81</ele>
        <time>2023-03-25T14:57:26Z</time>
      </trkpt>
      <trkpt lat="45.36654" lon="4.17055">
        <ele>665.37</ele>
        <time>2023-03-25T14:57:43Z</time>
      </trkpt>
      <trkpt lat="45.36627" lon="4.17045">
        <ele>666.33</ele>
        <time>2023-03-25T14:58:00Z</time>
      </trkpt>
      <trkpt lat="45.36595" lon="4.17037">
        <ele>665.85</ele>
        <time>2023-03-25T14:58:19Z</time>
      </trkpt>
      <trkpt lat="45.36571" lon="4.17018">
        <ele>661.52</ele>
        <time>2023-03-25T14:58:37Z</time>
      </trkpt>
      <trkpt lat="45.3656" lon="4.17004">
        <ele>659.6</ele>
        <time>2023-03-25T14:58:47Z</time>
      </trkpt>
      <trkpt lat="45.36567" lon="4.16983">
        <ele>656.72</ele>
        <time>2023-03-25T14:59:02Z</time>
      </trkpt>
      <trkpt lat="45.36571" lon="4.16965">
        <ele>654.31</ele>
        <time>2023-03-25T14:59:18Z</time>
      </trkpt>
      <trkpt lat="45.36579" lon="4.16941">
        <ele>649.99</ele>
        <time>2023-03-25T14:59:33Z</time>
      </trkpt>
      <trkpt lat="45.36582" lon="4.16937">
        <ele>649.03</ele>
        <time>2023-03-25T14:59:40Z</time>
      </trkpt>
      <trkpt lat="45.3658" lon="4.16933">
        <ele>649.03</ele>
        <time>2023-03-25T14:59:43Z</time>
      </trkpt>
      <trkpt lat="45.36572" lon="4.16916">
        <ele>649.03</ele>
        <time>2023-03-25T14:59:58Z</time>
      </trkpt>
      <trkpt lat="45.36554" lon="4.16899">
        <ele>651.43</ele>
        <time>2023-03-25T15:00:16Z</time>
      </trkpt>
      <trkpt lat="45.36537" lon="4.16883">
        <ele>650.47</ele>
        <time>2023-03-25T15:00:32Z</time>
      </trkpt>
      <trkpt lat="45.36525" lon="4.16867">
        <ele>649.51</ele>
        <time>2023-03-25T15:00:47Z</time>
      </trkpt>
      <trkpt lat="45.36515" lon="4.16844">
        <ele>648.55</ele>
        <time>2023-03-25T15:01:01Z</time>
      </trkpt>
      <trkpt lat="45.36513" lon="4.1682">
        <ele>644.7</ele>
        <time>2023-03-25T15:01:14Z</time>
      </trkpt>
      <trkpt lat="45.36518" lon="4.16814">
        <ele>642.3</ele>
        <time>2023-03-25T15:01:27Z</time>
      </trkpt>
      <trkpt lat="45.36534" lon="4.16811">
        <ele>639.41</ele>
        <time>2023-03-25T15:01:43Z</time>
      </trkpt>
      <trkpt lat="45.36552" lon="4.16815">
        <ele>635.09</ele>
        <time>2023-03-25T15:01:58Z</time>
      </trkpt>
      <trkpt lat="45.36568" lon="4.16805">
        <ele>629.8</ele>
        <time>2023-03-25T15:02:10Z</time>
      </trkpt>
      <trkpt lat="45.36583" lon="4.16794">
        <ele>623.07</ele>
        <time>2023-03-25T15:02:27Z</time>
      </trkpt>
      <trkpt lat="45.36592" lon="4.16792">
        <ele>619.71</ele>
        <time>2023-03-25T15:02:46Z</time>
      </trkpt>
      <trkpt lat="45.36594" lon="4.16799">
        <ele>614.9</ele>
        <time>2023-03-25T15:03:07Z</time>
      </trkpt>
      <trkpt lat="45.36596" lon="4.16799">
        <ele>612.5</ele>
        <time>2023-03-25T15:03:37Z</time>
      </trkpt>
      <trkpt lat="45.36595" lon="4.16798">
        <ele>611.54</ele>
        <time>2023-03-25T15:04:11Z</time>
      </trkpt>
      <trkpt lat="45.36579" lon="4.16786">
        <ele>614.9</ele>
        <time>2023-03-25T15:04:32Z</time>
      </trkpt>
      <trkpt lat="45.36563" lon="4.16767">
        <ele>615.38</ele>
        <time>2023-03-25T15:04:50Z</time>
      </trkpt>
      <trkpt lat="45.36552" lon="4.16751">
        <ele>614.9</ele>
        <time>2023-03-25T15:05:06Z</time>
      </trkpt>
      <trkpt lat="45.36538" lon="4.16733">
        <ele>612.98</ele>
        <time>2023-03-25T15:05:20Z</time>
      </trkpt>
      <trkpt lat="45.36529" lon="4.16702">
        <ele>608.65</ele>
        <time>2023-03-25T15:05:37Z</time>
      </trkpt>
      <trkpt lat="45.36518" lon="4.16668">
        <ele>607.21</ele>
        <time>2023-03-25T15:05:54Z</time>
      </trkpt>
      <trkpt lat="45.36516" lon="4.16647">
        <ele>606.25</ele>
        <time>2023-03-25T15:06:08Z</time>
      </trkpt>
      <trkpt lat="45.36524" lon="4.16631">
        <ele>608.65</ele>
        <time>2023-03-25T15:06:24Z</time>
      </trkpt>
      <trkpt lat="45.36542" lon="4.16602">
        <ele>607.69</ele>
        <time>2023-03-25T15:06:41Z</time>
      </trkpt>
      <trkpt lat="45.36542" lon="4.16601">
        <ele>607.69</ele>
        <time>2023-03-25T15:06:42Z</time>
      </trkpt>
      <trkpt lat="45.36535" lon="4.16591">
        <ele>601.44</ele>
        <time>2023-03-25T15:06:57Z</time>
      </trkpt>
      <trkpt lat="45.36524" lon="4.16581">
        <ele>592.79</ele>
        <time>2023-03-25T15:07:14Z</time>
      </trkpt>
      <trkpt lat="45.36506" lon="4.16574">
        <ele>590.87</ele>
        <time>2023-03-25T15:07:28Z</time>
      </trkpt>
      <trkpt lat="45.36493" lon="4.1655">
        <ele>601.44</ele>
        <time>2023-03-25T15:07:44Z</time>
      </trkpt>
      <trkpt lat="45.36486" lon="4.16533">
        <ele>603.36</ele>
        <time>2023-03-25T15:07:59Z</time>
      </trkpt>
      <trkpt lat="45.36472" lon="4.16517">
        <ele>603.36</ele>
        <time>2023-03-25T15:08:14Z</time>
      </trkpt>
      <trkpt lat="45.36453" lon="4.16489">
        <ele>603.85</ele>
        <time>2023-03-25T15:08:33Z</time>
      </trkpt>
      <trkpt lat="45.36439" lon="4.16459">
        <ele>604.33</ele>
        <time>2023-03-25T15:08:50Z</time>
      </trkpt>
      <trkpt lat="45.3642" lon="4.16444">
        <ele>603.36</ele>
        <time>2023-03-25T15:09:05Z</time>
      </trkpt>
      <trkpt lat="45.36405" lon="4.16427">
        <ele>601.92</ele>
        <time>2023-03-25T15:09:20Z</time>
      </trkpt>
      <trkpt lat="45.36385" lon="4.16419">
        <ele>597.12</ele>
        <time>2023-03-25T15:09:36Z</time>
      </trkpt>
      <trkpt lat="45.36384" lon="4.16419">
        <ele>597.12</ele>
        <time>2023-03-25T15:09:37Z</time>
      </trkpt>
      <trkpt lat="45.36373" lon="4.16415">
        <ele>594.23</ele>
        <time>2023-03-25T15:09:46Z</time>
      </trkpt>
      <trkpt lat="45.36367" lon="4.16413">
        <ele>593.75</ele>
        <time>2023-03-25T15:09:53Z</time>
      </trkpt>
      <trkpt lat="45.36348" lon="4.16406">
        <ele>589.91</ele>
        <time>2023-03-25T15:10:11Z</time>
      </trkpt>
      <trkpt lat="45.3634" lon="4.16401">
        <ele>586.06</ele>
        <time>2023-03-25T15:10:22Z</time>
      </trkpt>
      <trkpt lat="45.36327" lon="4.1639">
        <ele>582.7</ele>
        <time>2023-03-25T15:10:38Z</time>
      </trkpt>
      <trkpt lat="45.36312" lon="4.16383">
        <ele>579.33</ele>
        <time>2023-03-25T15:10:53Z</time>
      </trkpt>
      <trkpt lat="45.36294" lon="4.16374">
        <ele>574.53</ele>
        <time>2023-03-25T15:11:07Z</time>
      </trkpt>
      <trkpt lat="45.36272" lon="4.16368">
        <ele>568.28</ele>
        <time>2023-03-25T15:11:21Z</time>
      </trkpt>
      <trkpt lat="45.36273" lon="4.16355">
        <ele>565.87</ele>
        <time>2023-03-25T15:11:34Z</time>
      </trkpt>
      <trkpt lat="45.36278" lon="4.16346">
        <ele>563.95</ele>
        <time>2023-03-25T15:11:42Z</time>
      </trkpt>
      <trkpt lat="45.36284" lon="4.1634">
        <ele>562.99</ele>
        <time>2023-03-25T15:11:47Z</time>
      </trkpt>
      <trkpt lat="45.36293" lon="4.16313">
        <ele>562.03</ele>
        <time>2023-03-25T15:12:04Z</time>
      </trkpt>
      <trkpt lat="45.36281" lon="4.16293">
        <ele>563.95</ele>
        <time>2023-03-25T15:12:20Z</time>
      </trkpt>
      <trkpt lat="45.36272" lon="4.1627">
        <ele>564.43</ele>
        <time>2023-03-25T15:12:38Z</time>
      </trkpt>
      <trkpt lat="45.3626" lon="4.16246">
        <ele>566.35</ele>
        <time>2023-03-25T15:12:55Z</time>
      </trkpt>
      <trkpt lat="45.36245" lon="4.16223">
        <ele>566.83</ele>
        <time>2023-03-25T15:13:09Z</time>
      </trkpt>
      <trkpt lat="45.3624" lon="4.16218">
        <ele>565.87</ele>
        <time>2023-03-25T15:13:14Z</time>
      </trkpt>
      <trkpt lat="45.36218" lon="4.16206">
        <ele>561.07</ele>
        <time>2023-03-25T15:13:30Z</time>
      </trkpt>
      <trkpt lat="45.36198" lon="4.16195">
        <ele>552.41</ele>
        <time>2023-03-25T15:13:45Z</time>
      </trkpt>
      <trkpt lat="45.36179" lon="4.16189">
        <ele>544.72</ele>
        <time>2023-03-25T15:14:00Z</time>
      </trkpt>
      <trkpt lat="45.3616" lon="4.1619">
        <ele>540.88</ele>
        <time>2023-03-25T15:14:15Z</time>
      </trkpt>
      <trkpt lat="45.36138" lon="4.16194">
        <ele>539.44</ele>
        <time>2023-03-25T15:14:30Z</time>
      </trkpt>
      <trkpt lat="45.36124" lon="4.16201">
        <ele>540.88</ele>
        <time>2023-03-25T15:14:44Z</time>
      </trkpt>
      <trkpt lat="45.36104" lon="4.1621">
        <ele>539.44</ele>
        <time>2023-03-25T15:14:58Z</time>
      </trkpt>
      <trkpt lat="45.36085" lon="4.16215">
        <ele>539.92</ele>
        <time>2023-03-25T15:15:13Z</time>
      </trkpt>
      <trkpt lat="45.36074" lon="4.16216">
        <ele>537.03</ele>
        <time>2023-03-25T15:15:24Z</time>
      </trkpt>
      <trkpt lat="45.36073" lon="4.16216">
        <ele>537.03</ele>
        <time>2023-03-25T15:15:25Z</time>
      </trkpt>
      <trkpt lat="45.36055" lon="4.16216">
        <ele>531.75</ele>
        <time>2023-03-25T15:15:41Z</time>
      </trkpt>
      <trkpt lat="45.36039" lon="4.16209">
        <ele>526.46</ele>
        <time>2023-03-25T15:15:54Z</time>
      </trkpt>
      <trkpt lat="45.36039" lon="4.16191">
        <ele>526.94</ele>
        <time>2023-03-25T15:16:08Z</time>
      </trkpt>
      <trkpt lat="45.36052" lon="4.16156">
        <ele>529.82</ele>
        <time>2023-03-25T15:16:23Z</time>
      </trkpt>
      <trkpt lat="45.3606" lon="4.16147">
        <ele>530.79</ele>
        <time>2023-03-25T15:16:35Z</time>
      </trkpt>
      <trkpt lat="45.36071" lon="4.16136">
        <ele>527.42</ele>
        <time>2023-03-25T15:16:47Z</time>
      </trkpt>
      <trkpt lat="45.36087" lon="4.16128">
        <ele>525.98</ele>
        <time>2023-03-25T15:16:58Z</time>
      </trkpt>
      <trkpt lat="45.36107" lon="4.16113">
        <ele>527.42</ele>
        <time>2023-03-25T15:17:14Z</time>
      </trkpt>
      <trkpt lat="45.3611" lon="4.16112">
        <ele>526.94</ele>
        <time>2023-03-25T15:17:16Z</time>
      </trkpt>
      <trkpt lat="45.36135" lon="4.161">
        <ele>524.06</ele>
        <time>2023-03-25T15:17:32Z</time>
      </trkpt>
      <trkpt lat="45.36148" lon="4.16086">
        <ele>522.61</ele>
        <time>2023-03-25T15:17:46Z</time>
      </trkpt>
      <trkpt lat="45.36151" lon="4.16078">
        <ele>522.61</ele>
        <time>2023-03-25T15:17:51Z</time>
      </trkpt>
      <trkpt lat="45.36137" lon="4.1606">
        <ele>523.58</ele>
        <time>2023-03-25T15:18:08Z</time>
      </trkpt>
      <trkpt lat="45.36131" lon="4.16044">
        <ele>526.46</ele>
        <time>2023-03-25T15:18:20Z</time>
      </trkpt>
      <trkpt lat="45.36125" lon="4.16024">
        <ele>523.58</ele>
        <time>2023-03-25T15:18:35Z</time>
      </trkpt>
      <trkpt lat="45.36121" lon="4.1602">
        <ele>523.09</ele>
        <time>2023-03-25T15:18:49Z</time>
      </trkpt>
      <trkpt lat="45.36121" lon="4.16009">
        <ele>523.58</ele>
        <time>2023-03-25T15:19:14Z</time>
      </trkpt>
      <trkpt lat="45.36121" lon="4.16011">
        <ele>525.02</ele>
        <time>2023-03-25T15:19:41Z</time>
      </trkpt>
      <trkpt lat="45.36117" lon="4.16013">
        <ele>526.46</ele>
        <time>2023-03-25T15:19:59Z</time>
      </trkpt>
      <trkpt lat="45.36119" lon="4.16003">
        <ele>529.34</ele>
        <time>2023-03-25T15:20:19Z</time>
      </trkpt>
      <trkpt lat="45.36114" lon="4.15996">
        <ele>528.38</ele>
        <time>2023-03-25T15:20:41Z</time>
      </trkpt>
      <trkpt lat="45.36111" lon="4.15984">
        <ele>528.38</ele>
        <time>2023-03-25T15:20:57Z</time>
      </trkpt>
      <trkpt lat="45.36111" lon="4.15956">
        <ele>528.86</ele>
        <time>2023-03-25T15:21:11Z</time>
      </trkpt>
      <trkpt lat="45.36109" lon="4.15924">
        <ele>532.71</ele>
        <time>2023-03-25T15:21:26Z</time>
      </trkpt>
      <trkpt lat="45.36102" lon="4.15927">
        <ele>538.96</ele>
        <time>2023-03-25T15:21:39Z</time>
      </trkpt>
      <trkpt lat="45.36097" lon="4.15929">
        <ele>541.36</ele>
        <time>2023-03-25T15:21:43Z</time>
      </trkpt>
      <trkpt lat="45.36073" lon="4.15934">
        <ele>540.88</ele>
        <time>2023-03-25T15:21:57Z</time>
      </trkpt>
      <trkpt lat="45.36059" lon="4.15932">
        <ele>536.07</ele>
        <time>2023-03-25T15:22:07Z</time>
      </trkpt>
      <trkpt lat="45.36039" lon="4.15941">
        <ele>538.48</ele>
        <time>2023-03-25T15:22:23Z</time>
      </trkpt>
      <trkpt lat="45.36021" lon="4.15941">
        <ele>536.55</ele>
        <time>2023-03-25T15:22:37Z</time>
      </trkpt>
      <trkpt lat="45.35996" lon="4.15945">
        <ele>541.84</ele>
        <time>2023-03-25T15:22:52Z</time>
      </trkpt>
      <trkpt lat="45.35975" lon="4.1595">
        <ele>544.24</ele>
        <time>2023-03-25T15:23:06Z</time>
      </trkpt>
      <trkpt lat="45.35957" lon="4.1595">
        <ele>547.13</ele>
        <time>2023-03-25T15:23:21Z</time>
      </trkpt>
      <trkpt lat="45.35934" lon="4.15947">
        <ele>553.86</ele>
        <time>2023-03-25T15:23:37Z</time>
      </trkpt>
      <trkpt lat="45.35914" lon="4.15932">
        <ele>557.22</ele>
        <time>2023-03-25T15:23:51Z</time>
      </trkpt>
      <trkpt lat="45.35901" lon="4.15923">
        <ele>562.51</ele>
        <time>2023-03-25T15:24:06Z</time>
      </trkpt>
      <trkpt lat="45.35889" lon="4.15936">
        <ele>570.2</ele>
        <time>2023-03-25T15:24:22Z</time>
      </trkpt>
      <trkpt lat="45.35889" lon="4.15942">
        <ele>572.12</ele>
        <time>2023-03-25T15:24:25Z</time>
      </trkpt>
      <trkpt lat="45.35883" lon="4.15971">
        <ele>582.7</ele>
        <time>2023-03-25T15:24:38Z</time>
      </trkpt>
      <trkpt lat="45.35867" lon="4.15986">
        <ele>591.35</ele>
        <time>2023-03-25T15:24:49Z</time>
      </trkpt>
      <trkpt lat="45.35832" lon="4.15984">
        <ele>588.95</ele>
        <time>2023-03-25T15:25:06Z</time>
      </trkpt>
      <trkpt lat="45.35796" lon="4.15969">
        <ele>577.41</ele>
        <time>2023-03-25T15:25:20Z</time>
      </trkpt>
      <trkpt lat="45.35786" lon="4.15951">
        <ele>578.85</ele>
        <time>2023-03-25T15:25:33Z</time>
      </trkpt>
      <trkpt lat="45.35775" lon="4.15927">
        <ele>581.25</ele>
        <time>2023-03-25T15:25:47Z</time>
      </trkpt>
      <trkpt lat="45.35767" lon="4.159">
        <ele>584.14</ele>
        <time>2023-03-25T15:26:02Z</time>
      </trkpt>
      <trkpt lat="45.35762" lon="4.15884">
        <ele>584.14</ele>
        <time>2023-03-25T15:26:09Z</time>
      </trkpt>
      <trkpt lat="45.35754" lon="4.15827">
        <ele>583.66</ele>
        <time>2023-03-25T15:26:28Z</time>
      </trkpt>
      <trkpt lat="45.35747" lon="4.15809">
        <ele>584.14</ele>
        <time>2023-03-25T15:26:37Z</time>
      </trkpt>
      <trkpt lat="45.35725" lon="4.1579">
        <ele>583.18</ele>
        <time>2023-03-25T15:26:53Z</time>
      </trkpt>
      <trkpt lat="45.357" lon="4.15779">
        <ele>582.7</ele>
        <time>2023-03-25T15:27:09Z</time>
      </trkpt>
      <trkpt lat="45.35681" lon="4.15768">
        <ele>585.58</ele>
        <time>2023-03-25T15:27:23Z</time>
      </trkpt>
      <trkpt lat="45.35659" lon="4.15747">
        <ele>587.98</ele>
        <time>2023-03-25T15:27:42Z</time>
      </trkpt>
      <trkpt lat="45.35681" lon="4.15735">
        <ele>594.71</ele>
        <time>2023-03-25T15:27:56Z</time>
      </trkpt>
      <trkpt lat="45.35688" lon="4.15732">
        <ele>596.15</ele>
        <time>2023-03-25T15:28:01Z</time>
      </trkpt>
      <trkpt lat="45.35716" lon="4.15714">
        <ele>599.04</ele>
        <time>2023-03-25T15:28:20Z</time>
      </trkpt>
      <trkpt lat="45.35731" lon="4.15709">
        <ele>598.08</ele>
        <time>2023-03-25T15:28:35Z</time>
      </trkpt>
      <trkpt lat="45.35746" lon="4.15707">
        <ele>601.92</ele>
        <time>2023-03-25T15:28:46Z</time>
      </trkpt>
      <trkpt lat="45.35748" lon="4.15708">
        <ele>602.4</ele>
        <time>2023-03-25T15:28:47Z</time>
      </trkpt>
      <trkpt lat="45.3575" lon="4.15711">
        <ele>603.36</ele>
        <time>2023-03-25T15:28:49Z</time>
      </trkpt>
      <trkpt lat="45.35769" lon="4.15726">
        <ele>608.65</ele>
        <time>2023-03-25T15:29:05Z</time>
      </trkpt>
      <trkpt lat="45.35787" lon="4.15738">
        <ele>612.98</ele>
        <time>2023-03-25T15:29:18Z</time>
      </trkpt>
      <trkpt lat="45.35796" lon="4.15739">
        <ele>612.5</ele>
        <time>2023-03-25T15:29:24Z</time>
      </trkpt>
      <trkpt lat="45.35821" lon="4.1573">
        <ele>612.02</ele>
        <time>2023-03-25T15:29:40Z</time>
      </trkpt>
      <trkpt lat="45.35841" lon="4.15713">
        <ele>614.42</ele>
        <time>2023-03-25T15:29:55Z</time>
      </trkpt>
      <trkpt lat="45.3585" lon="4.15685">
        <ele>617.78</ele>
        <time>2023-03-25T15:30:10Z</time>
      </trkpt>
      <trkpt lat="45.35847" lon="4.15662">
        <ele>626.92</ele>
        <time>2023-03-25T15:30:27Z</time>
      </trkpt>
      <trkpt lat="45.35844" lon="4.15628">
        <ele>633.65</ele>
        <time>2023-03-25T15:30:43Z</time>
      </trkpt>
      <trkpt lat="45.35841" lon="4.15602">
        <ele>637.01</ele>
        <time>2023-03-25T15:30:59Z</time>
      </trkpt>
      <trkpt lat="45.3584" lon="4.15558">
        <ele>640.86</ele>
        <time>2023-03-25T15:31:13Z</time>
      </trkpt>
      <trkpt lat="45.35839" lon="4.15514">
        <ele>644.7</ele>
        <time>2023-03-25T15:31:27Z</time>
      </trkpt>
      <trkpt lat="45.35838" lon="4.15489">
        <ele>646.62</ele>
        <time>2023-03-25T15:31:39Z</time>
      </trkpt>
      <trkpt lat="45.35849" lon="4.15458">
        <ele>645.66</ele>
        <time>2023-03-25T15:31:55Z</time>
      </trkpt>
      <trkpt lat="45.35852" lon="4.15437">
        <ele>654.31</ele>
        <time>2023-03-25T15:32:10Z</time>
      </trkpt>
      <trkpt lat="45.35867" lon="4.15393">
        <ele>657.68</ele>
        <time>2023-03-25T15:32:28Z</time>
      </trkpt>
      <trkpt lat="45.35885" lon="4.15355">
        <ele>660.56</ele>
        <time>2023-03-25T15:32:42Z</time>
      </trkpt>
      <trkpt lat="45.35903" lon="4.15331">
        <ele>664.41</ele>
        <time>2023-03-25T15:33:00Z</time>
      </trkpt>
      <trkpt lat="45.35915" lon="4.15304">
        <ele>666.81</ele>
        <time>2023-03-25T15:33:16Z</time>
      </trkpt>
      <trkpt lat="45.35917" lon="4.153">
        <ele>663.45</ele>
        <time>2023-03-25T15:33:35Z</time>
      </trkpt>
      <trkpt lat="45.35917" lon="4.15295">
        <ele>662.49</ele>
        <time>2023-03-25T15:34:01Z</time>
      </trkpt>
      <trkpt lat="45.3592" lon="4.15291">
        <ele>663.45</ele>
        <time>2023-03-25T15:34:21Z</time>
      </trkpt>
      <trkpt lat="45.3592" lon="4.1529">
        <ele>663.45</ele>
        <time>2023-03-25T15:34:22Z</time>
      </trkpt>
      <trkpt lat="45.35927" lon="4.15255">
        <ele>665.37</ele>
        <time>2023-03-25T15:34:40Z</time>
      </trkpt>
      <trkpt lat="45.35932" lon="4.15224">
        <ele>667.77</ele>
        <time>2023-03-25T15:34:55Z</time>
      </trkpt>
      <trkpt lat="45.35933" lon="4.1519">
        <ele>674.98</ele>
        <time>2023-03-25T15:35:12Z</time>
      </trkpt>
      <trkpt lat="45.35933" lon="4.15155">
        <ele>677.87</ele>
        <time>2023-03-25T15:35:25Z</time>
      </trkpt>
      <trkpt lat="45.35935" lon="4.15129">
        <ele>683.15</ele>
        <time>2023-03-25T15:35:39Z</time>
      </trkpt>
      <trkpt lat="45.35941" lon="4.15096">
        <ele>683.15</ele>
        <time>2023-03-25T15:35:55Z</time>
      </trkpt>
      <trkpt lat="45.35942" lon="4.15093">
        <ele>682.67</ele>
        <time>2023-03-25T15:35:56Z</time>
      </trkpt>
      <trkpt lat="45.35956" lon="4.15055">
        <ele>681.23</ele>
        <time>2023-03-25T15:36:14Z</time>
      </trkpt>
      <trkpt lat="45.35968" lon="4.15027">
        <ele>680.27</ele>
        <time>2023-03-25T15:36:31Z</time>
      </trkpt>
      <trkpt lat="45.3598" lon="4.14999">
        <ele>677.87</ele>
        <time>2023-03-25T15:36:45Z</time>
      </trkpt>
      <trkpt lat="45.35993" lon="4.14967">
        <ele>672.58</ele>
        <time>2023-03-25T15:37:02Z</time>
      </trkpt>
      <trkpt lat="45.36005" lon="4.14938">
        <ele>666.81</ele>
        <time>2023-03-25T15:37:17Z</time>
      </trkpt>
      <trkpt lat="45.36013" lon="4.14914">
        <ele>667.29</ele>
        <time>2023-03-25T15:37:27Z</time>
      </trkpt>
      <trkpt lat="45.36021" lon="4.1489">
        <ele>671.14</ele>
        <time>2023-03-25T15:37:40Z</time>
      </trkpt>
      <trkpt lat="45.36021" lon="4.14887">
        <ele>672.1</ele>
        <time>2023-03-25T15:37:41Z</time>
      </trkpt>
      <trkpt lat="45.36024" lon="4.14867">
        <ele>675.46</ele>
        <time>2023-03-25T15:37:49Z</time>
      </trkpt>
      <trkpt lat="45.36025" lon="4.14863">
        <ele>674.98</ele>
        <time>2023-03-25T15:37:50Z</time>
      </trkpt>
      <trkpt lat="45.36026" lon="4.14859">
        <ele>674.5</ele>
        <time>2023-03-25T15:37:51Z</time>
      </trkpt>
      <trkpt lat="45.36029" lon="4.14843">
        <ele>677.87</ele>
        <time>2023-03-25T15:37:57Z</time>
      </trkpt>
      <trkpt lat="45.36031" lon="4.14839">
        <ele>679.31</ele>
        <time>2023-03-25T15:37:58Z</time>
      </trkpt>
      <trkpt lat="45.36031" lon="4.14837">
        <ele>679.79</ele>
        <time>2023-03-25T15:37:59Z</time>
      </trkpt>
      <trkpt lat="45.36032" lon="4.14833">
        <ele>681.23</ele>
        <time>2023-03-25T15:38:00Z</time>
      </trkpt>
      <trkpt lat="45.36034" lon="4.14828">
        <ele>679.79</ele>
        <time>2023-03-25T15:38:01Z</time>
      </trkpt>
      <trkpt lat="45.36036" lon="4.14824">
        <ele>678.83</ele>
        <time>2023-03-25T15:38:02Z</time>
      </trkpt>
      <trkpt lat="45.36037" lon="4.14821">
        <ele>678.83</ele>
        <time>2023-03-25T15:38:03Z</time>
      </trkpt>
      <trkpt lat="45.36055" lon="4.14799">
        <ele>675.94</ele>
        <time>2023-03-25T15:38:18Z</time>
      </trkpt>
      <trkpt lat="45.36075" lon="4.14783">
        <ele>674.5</ele>
        <time>2023-03-25T15:38:35Z</time>
      </trkpt>
      <trkpt lat="45.36099" lon="4.14779">
        <ele>672.58</ele>
        <time>2023-03-25T15:38:49Z</time>
      </trkpt>
      <trkpt lat="45.36121" lon="4.14758">
        <ele>673.06</ele>
        <time>2023-03-25T15:39:04Z</time>
      </trkpt>
      <trkpt lat="45.36131" lon="4.1473">
        <ele>673.54</ele>
        <time>2023-03-25T15:39:17Z</time>
      </trkpt>
      <trkpt lat="45.36131" lon="4.14696">
        <ele>677.39</ele>
        <time>2023-03-25T15:39:34Z</time>
      </trkpt>
      <trkpt lat="45.36128" lon="4.1467">
        <ele>680.75</ele>
        <time>2023-03-25T15:39:48Z</time>
      </trkpt>
      <trkpt lat="45.36128" lon="4.14668">
        <ele>680.75</ele>
        <time>2023-03-25T15:39:49Z</time>
      </trkpt>
      <trkpt lat="45.36128" lon="4.14665">
        <ele>680.75</ele>
        <time>2023-03-25T15:39:50Z</time>
      </trkpt>
      <trkpt lat="45.36128" lon="4.14626">
        <ele>687</ele>
        <time>2023-03-25T15:40:06Z</time>
      </trkpt>
      <trkpt lat="45.36129" lon="4.14584">
        <ele>693.73</ele>
        <time>2023-03-25T15:40:24Z</time>
      </trkpt>
      <trkpt lat="45.36132" lon="4.14547">
        <ele>696.13</ele>
        <time>2023-03-25T15:40:39Z</time>
      </trkpt>
      <trkpt lat="45.36129" lon="4.14507">
        <ele>698.53</ele>
        <time>2023-03-25T15:40:54Z</time>
      </trkpt>
      <trkpt lat="45.36129" lon="4.14477">
        <ele>699.5</ele>
        <time>2023-03-25T15:41:08Z</time>
      </trkpt>
      <trkpt lat="45.36131" lon="4.14447">
        <ele>701.9</ele>
        <time>2023-03-25T15:41:23Z</time>
      </trkpt>
      <trkpt lat="45.36134" lon="4.14415">
        <ele>702.38</ele>
        <time>2023-03-25T15:41:41Z</time>
      </trkpt>
      <trkpt lat="45.36134" lon="4.1437">
        <ele>702.38</ele>
        <time>2023-03-25T15:42:05Z</time>
      </trkpt>
      <trkpt lat="45.36134" lon="4.14368">
        <ele>702.86</ele>
        <time>2023-03-25T15:42:06Z</time>
      </trkpt>
      <trkpt lat="45.36134" lon="4.14366">
        <ele>702.86</ele>
        <time>2023-03-25T15:42:07Z</time>
      </trkpt>
      <trkpt lat="45.36134" lon="4.14363">
        <ele>703.34</ele>
        <time>2023-03-25T15:42:08Z</time>
      </trkpt>
      <trkpt lat="45.36134" lon="4.14361">
        <ele>703.34</ele>
        <time>2023-03-25T15:42:09Z</time>
      </trkpt>
      <trkpt lat="45.36134" lon="4.14358">
        <ele>703.82</ele>
        <time>2023-03-25T15:42:10Z</time>
      </trkpt>
      <trkpt lat="45.36129" lon="4.14318">
        <ele>708.15</ele>
        <time>2023-03-25T15:42:29Z</time>
      </trkpt>
      <trkpt lat="45.36121" lon="4.14285">
        <ele>709.59</ele>
        <time>2023-03-25T15:42:44Z</time>
      </trkpt>
      <trkpt lat="45.3612" lon="4.14254">
        <ele>707.67</ele>
        <time>2023-03-25T15:42:59Z</time>
      </trkpt>
      <trkpt lat="45.36122" lon="4.14214">
        <ele>705.26</ele>
        <time>2023-03-25T15:43:16Z</time>
      </trkpt>
      <trkpt lat="45.36124" lon="4.14178">
        <ele>705.26</ele>
        <time>2023-03-25T15:43:30Z</time>
      </trkpt>
      <trkpt lat="45.36124" lon="4.14148">
        <ele>697.57</ele>
        <time>2023-03-25T15:43:48Z</time>
      </trkpt>
      <trkpt lat="45.36135" lon="4.14105">
        <ele>696.13</ele>
        <time>2023-03-25T15:44:06Z</time>
      </trkpt>
      <trkpt lat="45.36161" lon="4.14077">
        <ele>712.95</ele>
        <time>2023-03-25T15:44:24Z</time>
      </trkpt>
      <trkpt lat="45.36182" lon="4.14052">
        <ele>718.72</ele>
        <time>2023-03-25T15:44:42Z</time>
      </trkpt>
      <trkpt lat="45.36209" lon="4.1403">
        <ele>722.57</ele>
        <time>2023-03-25T15:45:01Z</time>
      </trkpt>
      <trkpt lat="45.36232" lon="4.14015">
        <ele>721.61</ele>
        <time>2023-03-25T15:45:16Z</time>
      </trkpt>
      <trkpt lat="45.36266" lon="4.13994">
        <ele>722.09</ele>
        <time>2023-03-25T15:45:39Z</time>
      </trkpt>
      <trkpt lat="45.36294" lon="4.13974">
        <ele>724.49</ele>
        <time>2023-03-25T15:45:56Z</time>
      </trkpt>
      <trkpt lat="45.36319" lon="4.13952">
        <ele>728.34</ele>
        <time>2023-03-25T15:46:16Z</time>
      </trkpt>
      <trkpt lat="45.36346" lon="4.13927">
        <ele>729.78</ele>
        <time>2023-03-25T15:46:39Z</time>
      </trkpt>
      <trkpt lat="45.36365" lon="4.13901">
        <ele>726.89</ele>
        <time>2023-03-25T15:46:58Z</time>
      </trkpt>
      <trkpt lat="45.36375" lon="4.13884">
        <ele>726.89</ele>
        <time>2023-03-25T15:47:14Z</time>
      </trkpt>
      <trkpt lat="45.364" lon="4.13852">
        <ele>723.53</ele>
        <time>2023-03-25T15:47:34Z</time>
      </trkpt>
      <trkpt lat="45.36413" lon="4.13828">
        <ele>722.09</ele>
        <time>2023-03-25T15:47:49Z</time>
      </trkpt>
      <trkpt lat="45.36433" lon="4.13792">
        <ele>720.16</ele>
        <time>2023-03-25T15:48:09Z</time>
      </trkpt>
      <trkpt lat="45.36451" lon="4.13765">
        <ele>715.84</ele>
        <time>2023-03-25T15:48:25Z</time>
      </trkpt>
      <trkpt lat="45.36469" lon="4.13745">
        <ele>714.4</ele>
        <time>2023-03-25T15:48:41Z</time>
      </trkpt>
      <trkpt lat="45.36488" lon="4.13718">
        <ele>714.4</ele>
        <time>2023-03-25T15:48:56Z</time>
      </trkpt>
      <trkpt lat="45.36496" lon="4.13692">
        <ele>715.36</ele>
        <time>2023-03-25T15:49:10Z</time>
      </trkpt>
      <trkpt lat="45.365" lon="4.13658">
        <ele>723.05</ele>
        <time>2023-03-25T15:49:27Z</time>
      </trkpt>
      <trkpt lat="45.3649" lon="4.13625">
        <ele>728.82</ele>
        <time>2023-03-25T15:49:45Z</time>
      </trkpt>
      <trkpt lat="45.36488" lon="4.13622">
        <ele>728.34</ele>
        <time>2023-03-25T15:49:47Z</time>
      </trkpt>
      <trkpt lat="45.36488" lon="4.13621">
        <ele>728.34</ele>
        <time>2023-03-25T15:49:48Z</time>
      </trkpt>
      <trkpt lat="45.36487" lon="4.13619">
        <ele>728.34</ele>
        <time>2023-03-25T15:49:49Z</time>
      </trkpt>
      <trkpt lat="45.36486" lon="4.13617">
        <ele>727.86</ele>
        <time>2023-03-25T15:49:50Z</time>
      </trkpt>
      <trkpt lat="45.36485" lon="4.13616">
        <ele>727.86</ele>
        <time>2023-03-25T15:49:51Z</time>
      </trkpt>
      <trkpt lat="45.36483" lon="4.13613">
        <ele>727.86</ele>
        <time>2023-03-25T15:49:53Z</time>
      </trkpt>
      <trkpt lat="45.36482" lon="4.13613">
        <ele>727.86</ele>
        <time>2023-03-25T15:49:54Z</time>
      </trkpt>
      <trkpt lat="45.36473" lon="4.13613">
        <ele>729.3</ele>
        <time>2023-03-25T15:50:03Z</time>
      </trkpt>
      <trkpt lat="45.36464" lon="4.13613">
        <ele>731.22</ele>
        <time>2023-03-25T15:50:18Z</time>
      </trkpt>
      <trkpt lat="45.36463" lon="4.13613">
        <ele>729.3</ele>
        <time>2023-03-25T15:50:49Z</time>
      </trkpt>
      <trkpt lat="45.3646" lon="4.13616">
        <ele>727.86</ele>
        <time>2023-03-25T15:51:07Z</time>
      </trkpt>
      <trkpt lat="45.3646" lon="4.13613">
        <ele>730.74</ele>
        <time>2023-03-25T15:51:21Z</time>
      </trkpt>
      <trkpt lat="45.36461" lon="4.13612">
        <ele>733.14</ele>
        <time>2023-03-25T15:51:36Z</time>
      </trkpt>
      <trkpt lat="45.3646" lon="4.13614">
        <ele>734.1</ele>
        <time>2023-03-25T15:51:55Z</time>
      </trkpt>
      <trkpt lat="45.36461" lon="4.13608">
        <ele>733.14</ele>
        <time>2023-03-25T15:52:08Z</time>
      </trkpt>
      <trkpt lat="45.36461" lon="4.13605">
        <ele>733.62</ele>
        <time>2023-03-25T15:52:30Z</time>
      </trkpt>
      <trkpt lat="45.3646" lon="4.13605">
        <ele>735.07</ele>
        <time>2023-03-25T15:52:49Z</time>
      </trkpt>
      <trkpt lat="45.36461" lon="4.13609">
        <ele>734.58</ele>
        <time>2023-03-25T15:53:01Z</time>
      </trkpt>
      <trkpt lat="45.3646" lon="4.13614">
        <ele>735.07</ele>
        <time>2023-03-25T15:53:18Z</time>
      </trkpt>
      <trkpt lat="45.36462" lon="4.13611">
        <ele>735.55</ele>
        <time>2023-03-25T15:53:35Z</time>
      </trkpt>
      <trkpt lat="45.36461" lon="4.13607">
        <ele>736.03</ele>
        <time>2023-03-25T15:53:52Z</time>
      </trkpt>
      <trkpt lat="45.36461" lon="4.13608">
        <ele>736.51</ele>
        <time>2023-03-25T15:54:13Z</time>
      </trkpt>
      <trkpt lat="45.36461" lon="4.13607">
        <ele>735.07</ele>
        <time>2023-03-25T15:54:32Z</time>
      </trkpt>
      <trkpt lat="45.36461" lon="4.13609">
        <ele>736.51</ele>
        <time>2023-03-25T15:54:45Z</time>
      </trkpt>
      <trkpt lat="45.36461" lon="4.13611">
        <ele>738.43</ele>
        <time>2023-03-25T15:55:02Z</time>
      </trkpt>
      <trkpt lat="45.36462" lon="4.13607">
        <ele>738.91</ele>
        <time>2023-03-25T15:55:16Z</time>
      </trkpt>
      <trkpt lat="45.36461" lon="4.13611">
        <ele>739.39</ele>
        <time>2023-03-25T15:55:28Z</time>
      </trkpt>
      <trkpt lat="45.36461" lon="4.1361">
        <ele>738.91</ele>
        <time>2023-03-25T15:55:45Z</time>
      </trkpt>
      <trkpt lat="45.36461" lon="4.1361">
        <ele>737.47</ele>
        <time>2023-03-25T15:55:58Z</time>
      </trkpt>
      <trkpt lat="45.36461" lon="4.13612">
        <ele>737.47</ele>
        <time>2023-03-25T15:56:13Z</time>
      </trkpt>
      <trkpt lat="45.3646" lon="4.13609">
        <ele>736.99</ele>
        <time>2023-03-25T15:56:24Z</time>
      </trkpt>
      <trkpt lat="45.36462" lon="4.13608">
        <ele>735.55</ele>
        <time>2023-03-25T15:56:42Z</time>
      </trkpt>
      <trkpt lat="45.36462" lon="4.13611">
        <ele>735.07</ele>
        <time>2023-03-25T15:56:55Z</time>
      </trkpt>
      <trkpt lat="45.3646" lon="4.13608">
        <ele>733.62</ele>
        <time>2023-03-25T15:57:07Z</time>
      </trkpt>
      <trkpt lat="45.3646" lon="4.13608">
        <ele>733.62</ele>
        <time>2023-03-25T15:57:26Z</time>
      </trkpt>
      <trkpt lat="45.36461" lon="4.13607">
        <ele>735.55</ele>
        <time>2023-03-25T15:57:41Z</time>
      </trkpt>
      <trkpt lat="45.36462" lon="4.13614">
        <ele>736.51</ele>
        <time>2023-03-25T15:57:55Z</time>
      </trkpt>
      <trkpt lat="45.36462" lon="4.13613">
        <ele>736.03</ele>
        <time>2023-03-25T15:58:11Z</time>
      </trkpt>
      <trkpt lat="45.36463" lon="4.13611">
        <ele>737.95</ele>
        <time>2023-03-25T15:58:35Z</time>
      </trkpt>
      <trkpt lat="45.36462" lon="4.13609">
        <ele>733.14</ele>
        <time>2023-03-25T15:59:08Z</time>
      </trkpt>
      <trkpt lat="45.36463" lon="4.13609">
        <ele>735.55</ele>
        <time>2023-03-25T15:59:48Z</time>
      </trkpt>
      <trkpt lat="45.36461" lon="4.13611">
        <ele>733.14</ele>
        <time>2023-03-25T16:00:24Z</time>
      </trkpt>
      <trkpt lat="45.36461" lon="4.13613">
        <ele>728.34</ele>
        <time>2023-03-25T16:00:59Z</time>
      </trkpt>
      <trkpt lat="45.36461" lon="4.13611">
        <ele>729.3</ele>
        <time>2023-03-25T16:01:31Z</time>
      </trkpt>
      <trkpt lat="45.36461" lon="4.13611">
        <ele>735.07</ele>
        <time>2023-03-25T16:02:09Z</time>
      </trkpt>
      <trkpt lat="45.36461" lon="4.13608">
        <ele>735.07</ele>
        <time>2023-03-25T16:02:47Z</time>
      </trkpt>
      <trkpt lat="45.3646" lon="4.13607">
        <ele>734.1</ele>
        <time>2023-03-25T16:03:23Z</time>
      </trkpt>
      <trkpt lat="45.36463" lon="4.1361">
        <ele>736.03</ele>
        <time>2023-03-25T16:03:56Z</time>
      </trkpt>
      <trkpt lat="45.3646" lon="4.13609">
        <ele>735.55</ele>
        <time>2023-03-25T16:04:30Z</time>
      </trkpt>
      <trkpt lat="45.3646" lon="4.13608">
        <ele>736.03</ele>
        <time>2023-03-25T16:05:00Z</time>
      </trkpt>
      <trkpt lat="45.36463" lon="4.13606">
        <ele>734.58</ele>
        <time>2023-03-25T16:05:22Z</time>
      </trkpt>
      <trkpt lat="45.36462" lon="4.13608">
        <ele>732.66</ele>
        <time>2023-03-25T16:05:49Z</time>
      </trkpt>
      <trkpt lat="45.36461" lon="4.13609">
        <ele>734.1</ele>
        <time>2023-03-25T16:06:25Z</time>
      </trkpt>
      <trkpt lat="45.36459" lon="4.13611">
        <ele>730.26</ele>
        <time>2023-03-25T16:07:03Z</time>
      </trkpt>
      <trkpt lat="45.36459" lon="4.1361">
        <ele>732.66</ele>
        <time>2023-03-25T16:07:44Z</time>
      </trkpt>
      <trkpt lat="45.3646" lon="4.13608">
        <ele>733.62</ele>
        <time>2023-03-25T16:08:12Z</time>
      </trkpt>
      <trkpt lat="45.3646" lon="4.13607">
        <ele>732.66</ele>
        <time>2023-03-25T16:08:37Z</time>
      </trkpt>
      <trkpt lat="45.3646" lon="4.13609">
        <ele>732.18</ele>
        <time>2023-03-25T16:08:50Z</time>
      </trkpt>
      <trkpt lat="45.36461" lon="4.13609">
        <ele>734.1</ele>
        <time>2023-03-25T16:09:03Z</time>
      </trkpt>
      <trkpt lat="45.36462" lon="4.13611">
        <ele>735.55</ele>
        <time>2023-03-25T16:09:23Z</time>
      </trkpt>
      <trkpt lat="45.36463" lon="4.1361">
        <ele>734.1</ele>
        <time>2023-03-25T16:09:44Z</time>
      </trkpt>
      <trkpt lat="45.36464" lon="4.1361">
        <ele>734.1</ele>
        <time>2023-03-25T16:09:47Z</time>
      </trkpt>
      <trkpt lat="45.36479" lon="4.13601">
        <ele>734.1</ele>
        <time>2023-03-25T16:10:03Z</time>
      </trkpt>
      <trkpt lat="45.3648" lon="4.136">
        <ele>734.1</ele>
        <time>2023-03-25T16:10:05Z</time>
      </trkpt>
      <trkpt lat="45.36484" lon="4.13589">
        <ele>732.66</ele>
        <time>2023-03-25T16:10:21Z</time>
      </trkpt>
      <trkpt lat="45.36484" lon="4.13588">
        <ele>732.18</ele>
        <time>2023-03-25T16:10:30Z</time>
      </trkpt>
      <trkpt lat="45.36483" lon="4.13592">
        <ele>730.26</ele>
        <time>2023-03-25T16:10:44Z</time>
      </trkpt>
      <trkpt lat="45.36483" lon="4.13594">
        <ele>730.74</ele>
        <time>2023-03-25T16:11:03Z</time>
      </trkpt>
      <trkpt lat="45.36483" lon="4.13595">
        <ele>730.74</ele>
        <time>2023-03-25T16:11:25Z</time>
      </trkpt>
      <trkpt lat="45.36481" lon="4.13593">
        <ele>727.86</ele>
        <time>2023-03-25T16:11:46Z</time>
      </trkpt>
      <trkpt lat="45.36482" lon="4.13593">
        <ele>727.37</ele>
        <time>2023-03-25T16:12:05Z</time>
      </trkpt>
      <trkpt lat="45.36483" lon="4.13601">
        <ele>727.37</ele>
        <time>2023-03-25T16:12:23Z</time>
      </trkpt>
      <trkpt lat="45.36481" lon="4.13609">
        <ele>727.37</ele>
        <time>2023-03-25T16:12:39Z</time>
      </trkpt>
      <trkpt lat="45.36477" lon="4.1361">
        <ele>727.37</ele>
        <time>2023-03-25T16:12:42Z</time>
      </trkpt>
      <trkpt lat="45.36464" lon="4.13608">
        <ele>729.3</ele>
        <time>2023-03-25T16:12:58Z</time>
      </trkpt>
      <trkpt lat="45.36464" lon="4.13611">
        <ele>731.22</ele>
        <time>2023-03-25T16:13:19Z</time>
      </trkpt>
      <trkpt lat="45.36466" lon="4.13614">
        <ele>730.26</ele>
        <time>2023-03-25T16:13:27Z</time>
      </trkpt>
      <trkpt lat="45.36463" lon="4.13623">
        <ele>732.66</ele>
        <time>2023-03-25T16:13:39Z</time>
      </trkpt>
      <trkpt lat="45.36467" lon="4.13618">
        <ele>734.1</ele>
        <time>2023-03-25T16:13:52Z</time>
      </trkpt>
      <trkpt lat="45.36465" lon="4.13616">
        <ele>733.62</ele>
        <time>2023-03-25T16:14:10Z</time>
      </trkpt>
      <trkpt lat="45.36462" lon="4.13611">
        <ele>734.58</ele>
        <time>2023-03-25T16:14:25Z</time>
      </trkpt>
      <trkpt lat="45.36462" lon="4.1361">
        <ele>735.55</ele>
        <time>2023-03-25T16:14:41Z</time>
      </trkpt>
      <trkpt lat="45.36461" lon="4.1361">
        <ele>736.03</ele>
        <time>2023-03-25T16:14:56Z</time>
      </trkpt>
      <trkpt lat="45.3646" lon="4.1361">
        <ele>736.51</ele>
        <time>2023-03-25T16:15:19Z</time>
      </trkpt>
      <trkpt lat="45.3646" lon="4.13611">
        <ele>733.62</ele>
        <time>2023-03-25T16:15:35Z</time>
      </trkpt>
      <trkpt lat="45.36459" lon="4.13611">
        <ele>734.1</ele>
        <time>2023-03-25T16:15:53Z</time>
      </trkpt>
      <trkpt lat="45.36459" lon="4.13611">
        <ele>735.55</ele>
        <time>2023-03-25T16:16:15Z</time>
      </trkpt>
      <trkpt lat="45.3646" lon="4.13611">
        <ele>734.58</ele>
        <time>2023-03-25T16:16:37Z</time>
      </trkpt>
      <trkpt lat="45.36461" lon="4.1361">
        <ele>735.07</ele>
        <time>2023-03-25T16:16:55Z</time>
      </trkpt>
      <trkpt lat="45.3646" lon="4.13612">
        <ele>736.03</ele>
        <time>2023-03-25T16:17:14Z</time>
      </trkpt>
      <trkpt lat="45.3646" lon="4.1361">
        <ele>736.03</ele>
        <time>2023-03-25T16:17:20Z</time>
      </trkpt>
      <trkpt lat="45.36468" lon="4.13609">
        <ele>733.14</ele>
        <time>2023-03-25T16:17:32Z</time>
      </trkpt>
      <trkpt lat="45.36479" lon="4.13603">
        <ele>732.18</ele>
        <time>2023-03-25T16:17:47Z</time>
      </trkpt>
      <trkpt lat="45.3648" lon="4.13603">
        <ele>732.18</ele>
        <time>2023-03-25T16:17:52Z</time>
      </trkpt>
      <trkpt lat="45.3649" lon="4.13628">
        <ele>730.26</ele>
        <time>2023-03-25T16:18:09Z</time>
      </trkpt>
      <trkpt lat="45.36498" lon="4.13645">
        <ele>729.3</ele>
        <time>2023-03-25T16:18:25Z</time>
      </trkpt>
      <trkpt lat="45.36501" lon="4.13653">
        <ele>728.82</ele>
        <time>2023-03-25T16:18:31Z</time>
      </trkpt>
      <trkpt lat="45.365" lon="4.1368">
        <ele>726.41</ele>
        <time>2023-03-25T16:18:49Z</time>
      </trkpt>
      <trkpt lat="45.36499" lon="4.13688">
        <ele>726.41</ele>
        <time>2023-03-25T16:19:03Z</time>
      </trkpt>
      <trkpt lat="45.365" lon="4.13689">
        <ele>728.82</ele>
        <time>2023-03-25T16:19:24Z</time>
      </trkpt>
    </trkseg>
  </trk>
</gpx>